<?xml version="1.0" encoding="UTF-8" standalone="no" ?>
<gpx xmlns="http://www.topografix.com/GPX/1/1" xmlns:xsi="http://www.w3.org/2001/XMLSchema-instance" xsi:schemaLocation="http://www.topografix.com/GPX/1/1 http://www.topografix.com/GPX/1/1/gpx.xsd" version="1.1" creator="VisuGPX - https://www.visugpx.com">
  <metadata>
    <name>Mouton d'Anou depuis Le Gourbel</name>
    <desc><![CDATA[Montée au Mouton d'Anou en partant de Le Gourbel, hameau entre Bezaudun et Coursegoules. Magnifiques points de vue.... Parcours plutôt facile....]]></desc>
  </metadata>
  <trk>
    <name><![CDATA[MOUTON D'ANOU depuis Le Gourbel]]></name>
    <trkseg>
      <trkpt lat="43.79741" lon="7.08388">
        <ele>952.6</ele>
        <time>2017-03-13T08:13:47Z</time>
      </trkpt>
      <trkpt lat="43.79741" lon="7.08388">
        <ele>953.7</ele>
        <time>2017-03-13T08:13:52Z</time>
      </trkpt>
      <trkpt lat="43.79739" lon="7.08388">
        <ele>955.3</ele>
        <time>2017-03-13T08:13:53Z</time>
      </trkpt>
      <trkpt lat="43.79739" lon="7.08388">
        <ele>955.8</ele>
        <time>2017-03-13T08:13:57Z</time>
      </trkpt>
      <trkpt lat="43.79739" lon="7.08388">
        <ele>952.6</ele>
        <time>2017-03-13T08:13:57Z</time>
      </trkpt>
      <trkpt lat="43.79739" lon="7.08388">
        <ele>952.6</ele>
        <time>2017-03-13T08:14:06Z</time>
      </trkpt>
      <trkpt lat="43.79739" lon="7.08388">
        <ele>954.6</ele>
        <time>2017-03-13T08:14:09Z</time>
      </trkpt>
      <trkpt lat="43.79735" lon="7.08402">
        <ele>954.6</ele>
        <time>2017-03-13T08:14:11Z</time>
      </trkpt>
      <trkpt lat="43.79736" lon="7.08415">
        <ele>954.2</ele>
        <time>2017-03-13T08:14:19Z</time>
      </trkpt>
      <trkpt lat="43.79733" lon="7.0842">
        <ele>954.4</ele>
        <time>2017-03-13T08:14:24Z</time>
      </trkpt>
      <trkpt lat="43.79731" lon="7.08427">
        <ele>954.3</ele>
        <time>2017-03-13T08:14:29Z</time>
      </trkpt>
      <trkpt lat="43.79731" lon="7.08434">
        <ele>954.5</ele>
        <time>2017-03-13T08:14:34Z</time>
      </trkpt>
      <trkpt lat="43.79729" lon="7.0844">
        <ele>954.5</ele>
        <time>2017-03-13T08:14:39Z</time>
      </trkpt>
      <trkpt lat="43.79729" lon="7.0844">
        <ele>956.2</ele>
        <time>2017-03-13T08:14:47Z</time>
      </trkpt>
      <trkpt lat="43.79728" lon="7.08453">
        <ele>954.7</ele>
        <time>2017-03-13T08:14:49Z</time>
      </trkpt>
      <trkpt lat="43.79728" lon="7.08453">
        <ele>957.4</ele>
        <time>2017-03-13T08:14:57Z</time>
      </trkpt>
      <trkpt lat="43.79727" lon="7.08467">
        <ele>955.1</ele>
        <time>2017-03-13T08:14:59Z</time>
      </trkpt>
      <trkpt lat="43.79723" lon="7.08472">
        <ele>955.3</ele>
        <time>2017-03-13T08:15:03Z</time>
      </trkpt>
      <trkpt lat="43.79719" lon="7.08476">
        <ele>957.2</ele>
        <time>2017-03-13T08:15:08Z</time>
      </trkpt>
      <trkpt lat="43.79715" lon="7.08479">
        <ele>957.9</ele>
        <time>2017-03-13T08:15:13Z</time>
      </trkpt>
      <trkpt lat="43.7971" lon="7.0848">
        <ele>958.7</ele>
        <time>2017-03-13T08:15:17Z</time>
      </trkpt>
      <trkpt lat="43.7971" lon="7.0848">
        <ele>961.1</ele>
        <time>2017-03-13T08:15:27Z</time>
      </trkpt>
      <trkpt lat="43.79698" lon="7.0849">
        <ele>959.6</ele>
        <time>2017-03-13T08:15:28Z</time>
      </trkpt>
      <trkpt lat="43.79698" lon="7.0849">
        <ele>962.7</ele>
        <time>2017-03-13T08:15:37Z</time>
      </trkpt>
      <trkpt lat="43.79688" lon="7.08495">
        <ele>960.5</ele>
        <time>2017-03-13T08:15:38Z</time>
      </trkpt>
      <trkpt lat="43.79681" lon="7.08505">
        <ele>961.3</ele>
        <time>2017-03-13T08:15:46Z</time>
      </trkpt>
      <trkpt lat="43.79681" lon="7.08505">
        <ele>964.9</ele>
        <time>2017-03-13T08:15:54Z</time>
      </trkpt>
      <trkpt lat="43.79671" lon="7.0852">
        <ele>961.9</ele>
        <time>2017-03-13T08:15:57Z</time>
      </trkpt>
      <trkpt lat="43.79671" lon="7.0852">
        <ele>966.9</ele>
        <time>2017-03-13T08:16:05Z</time>
      </trkpt>
      <trkpt lat="43.79665" lon="7.0853">
        <ele>962.2</ele>
        <time>2017-03-13T08:16:06Z</time>
      </trkpt>
      <trkpt lat="43.79663" lon="7.08535">
        <ele>962.5</ele>
        <time>2017-03-13T08:16:13Z</time>
      </trkpt>
      <trkpt lat="43.79659" lon="7.0854">
        <ele>962.7</ele>
        <time>2017-03-13T08:16:18Z</time>
      </trkpt>
      <trkpt lat="43.79654" lon="7.08548">
        <ele>964</ele>
        <time>2017-03-13T08:16:25Z</time>
      </trkpt>
      <trkpt lat="43.7965" lon="7.08552">
        <ele>964</ele>
        <time>2017-03-13T08:16:28Z</time>
      </trkpt>
      <trkpt lat="43.79646" lon="7.08557">
        <ele>965.1</ele>
        <time>2017-03-13T08:16:32Z</time>
      </trkpt>
      <trkpt lat="43.79646" lon="7.08557">
        <ele>970.5</ele>
        <time>2017-03-13T08:16:42Z</time>
      </trkpt>
      <trkpt lat="43.79639" lon="7.08575">
        <ele>965.7</ele>
        <time>2017-03-13T08:16:43Z</time>
      </trkpt>
      <trkpt lat="43.79639" lon="7.08575">
        <ele>971</ele>
        <time>2017-03-13T08:16:51Z</time>
      </trkpt>
      <trkpt lat="43.79627" lon="7.08588">
        <ele>967.2</ele>
        <time>2017-03-13T08:16:53Z</time>
      </trkpt>
      <trkpt lat="43.79621" lon="7.0859">
        <ele>967.5</ele>
        <time>2017-03-13T08:16:57Z</time>
      </trkpt>
      <trkpt lat="43.79612" lon="7.08595">
        <ele>967.9</ele>
        <time>2017-03-13T08:17:06Z</time>
      </trkpt>
      <trkpt lat="43.79612" lon="7.08595">
        <ele>972.4</ele>
        <time>2017-03-13T08:17:14Z</time>
      </trkpt>
      <trkpt lat="43.796" lon="7.08607">
        <ele>969.5</ele>
        <time>2017-03-13T08:17:16Z</time>
      </trkpt>
      <trkpt lat="43.79597" lon="7.08611">
        <ele>970.8</ele>
        <time>2017-03-13T08:17:19Z</time>
      </trkpt>
      <trkpt lat="43.79592" lon="7.08613">
        <ele>970.8</ele>
        <time>2017-03-13T08:17:23Z</time>
      </trkpt>
      <trkpt lat="43.79588" lon="7.08615">
        <ele>971.5</ele>
        <time>2017-03-13T08:17:27Z</time>
      </trkpt>
      <trkpt lat="43.79584" lon="7.0862">
        <ele>971.7</ele>
        <time>2017-03-13T08:17:31Z</time>
      </trkpt>
      <trkpt lat="43.79584" lon="7.0862">
        <ele>974</ele>
        <time>2017-03-13T08:17:41Z</time>
      </trkpt>
      <trkpt lat="43.79573" lon="7.08633">
        <ele>972.2</ele>
        <time>2017-03-13T08:17:43Z</time>
      </trkpt>
      <trkpt lat="43.79571" lon="7.08639">
        <ele>972.6</ele>
        <time>2017-03-13T08:17:47Z</time>
      </trkpt>
      <trkpt lat="43.79568" lon="7.08647">
        <ele>972.6</ele>
        <time>2017-03-13T08:17:52Z</time>
      </trkpt>
      <trkpt lat="43.79564" lon="7.08654">
        <ele>972.7</ele>
        <time>2017-03-13T08:17:56Z</time>
      </trkpt>
      <trkpt lat="43.79561" lon="7.08659">
        <ele>972.7</ele>
        <time>2017-03-13T08:17:59Z</time>
      </trkpt>
      <trkpt lat="43.79555" lon="7.08671">
        <ele>972.7</ele>
        <time>2017-03-13T08:18:06Z</time>
      </trkpt>
      <trkpt lat="43.79555" lon="7.08671">
        <ele>975.7</ele>
        <time>2017-03-13T08:18:14Z</time>
      </trkpt>
      <trkpt lat="43.79552" lon="7.08689">
        <ele>972.7</ele>
        <time>2017-03-13T08:18:16Z</time>
      </trkpt>
      <trkpt lat="43.79552" lon="7.087">
        <ele>972.6</ele>
        <time>2017-03-13T08:18:22Z</time>
      </trkpt>
      <trkpt lat="43.79552" lon="7.087">
        <ele>973.5</ele>
        <time>2017-03-13T08:18:30Z</time>
      </trkpt>
      <trkpt lat="43.79551" lon="7.08719">
        <ele>972.4</ele>
        <time>2017-03-13T08:18:33Z</time>
      </trkpt>
      <trkpt lat="43.79552" lon="7.08729">
        <ele>972.3</ele>
        <time>2017-03-13T08:18:38Z</time>
      </trkpt>
      <trkpt lat="43.79551" lon="7.08735">
        <ele>972.3</ele>
        <time>2017-03-13T08:18:41Z</time>
      </trkpt>
      <trkpt lat="43.7955" lon="7.08748">
        <ele>972.2</ele>
        <time>2017-03-13T08:18:49Z</time>
      </trkpt>
      <trkpt lat="43.7955" lon="7.08748">
        <ele>971</ele>
        <time>2017-03-13T08:18:57Z</time>
      </trkpt>
      <trkpt lat="43.79548" lon="7.08768">
        <ele>971.8</ele>
        <time>2017-03-13T08:19:00Z</time>
      </trkpt>
      <trkpt lat="43.79548" lon="7.08776">
        <ele>970.8</ele>
        <time>2017-03-13T08:19:05Z</time>
      </trkpt>
      <trkpt lat="43.79548" lon="7.08783">
        <ele>970.6</ele>
        <time>2017-03-13T08:19:10Z</time>
      </trkpt>
      <trkpt lat="43.79546" lon="7.08789">
        <ele>970.6</ele>
        <time>2017-03-13T08:19:14Z</time>
      </trkpt>
      <trkpt lat="43.79546" lon="7.08796">
        <ele>970.6</ele>
        <time>2017-03-13T08:19:18Z</time>
      </trkpt>
      <trkpt lat="43.79546" lon="7.08796">
        <ele>972.1</ele>
        <time>2017-03-13T08:19:27Z</time>
      </trkpt>
      <trkpt lat="43.79546" lon="7.08815">
        <ele>970.6</ele>
        <time>2017-03-13T08:19:29Z</time>
      </trkpt>
      <trkpt lat="43.79546" lon="7.08815">
        <ele>972.8</ele>
        <time>2017-03-13T08:19:38Z</time>
      </trkpt>
      <trkpt lat="43.79543" lon="7.08833">
        <ele>970.7</ele>
        <time>2017-03-13T08:19:40Z</time>
      </trkpt>
      <trkpt lat="43.79543" lon="7.08833">
        <ele>973.5</ele>
        <time>2017-03-13T08:19:50Z</time>
      </trkpt>
      <trkpt lat="43.79539" lon="7.08852">
        <ele>971.1</ele>
        <time>2017-03-13T08:19:51Z</time>
      </trkpt>
      <trkpt lat="43.79539" lon="7.08852">
        <ele>974.1</ele>
        <time>2017-03-13T08:20:00Z</time>
      </trkpt>
      <trkpt lat="43.79538" lon="7.08871">
        <ele>971.8</ele>
        <time>2017-03-13T08:20:01Z</time>
      </trkpt>
      <trkpt lat="43.79538" lon="7.08871">
        <ele>974.4</ele>
        <time>2017-03-13T08:20:10Z</time>
      </trkpt>
      <trkpt lat="43.79539" lon="7.08894">
        <ele>973.2</ele>
        <time>2017-03-13T08:20:14Z</time>
      </trkpt>
      <trkpt lat="43.79538" lon="7.08905">
        <ele>973.8</ele>
        <time>2017-03-13T08:20:21Z</time>
      </trkpt>
      <trkpt lat="43.79537" lon="7.08912">
        <ele>973.9</ele>
        <time>2017-03-13T08:20:25Z</time>
      </trkpt>
      <trkpt lat="43.79538" lon="7.08919">
        <ele>973.9</ele>
        <time>2017-03-13T08:20:28Z</time>
      </trkpt>
      <trkpt lat="43.79536" lon="7.08932">
        <ele>973.9</ele>
        <time>2017-03-13T08:20:34Z</time>
      </trkpt>
      <trkpt lat="43.79535" lon="7.08938">
        <ele>973.9</ele>
        <time>2017-03-13T08:20:37Z</time>
      </trkpt>
      <trkpt lat="43.79535" lon="7.08952">
        <ele>974</ele>
        <time>2017-03-13T08:20:44Z</time>
      </trkpt>
      <trkpt lat="43.79534" lon="7.08966">
        <ele>974</ele>
        <time>2017-03-13T08:20:51Z</time>
      </trkpt>
      <trkpt lat="43.79535" lon="7.08979">
        <ele>974.1</ele>
        <time>2017-03-13T08:20:57Z</time>
      </trkpt>
      <trkpt lat="43.79537" lon="7.08987">
        <ele>974.2</ele>
        <time>2017-03-13T08:21:02Z</time>
      </trkpt>
      <trkpt lat="43.79536" lon="7.08998">
        <ele>974.4</ele>
        <time>2017-03-13T08:21:08Z</time>
      </trkpt>
      <trkpt lat="43.79537" lon="7.09015">
        <ele>974.5</ele>
        <time>2017-03-13T08:21:18Z</time>
      </trkpt>
      <trkpt lat="43.79534" lon="7.09021">
        <ele>975.1</ele>
        <time>2017-03-13T08:21:22Z</time>
      </trkpt>
      <trkpt lat="43.79532" lon="7.09026">
        <ele>975.3</ele>
        <time>2017-03-13T08:21:26Z</time>
      </trkpt>
      <trkpt lat="43.79532" lon="7.09026">
        <ele>973.8</ele>
        <time>2017-03-13T08:21:37Z</time>
      </trkpt>
      <trkpt lat="43.79531" lon="7.09058">
        <ele>975.7</ele>
        <time>2017-03-13T08:21:46Z</time>
      </trkpt>
      <trkpt lat="43.79527" lon="7.09077">
        <ele>976</ele>
        <time>2017-03-13T08:21:56Z</time>
      </trkpt>
      <trkpt lat="43.79527" lon="7.09077">
        <ele>975</ele>
        <time>2017-03-13T08:22:04Z</time>
      </trkpt>
      <trkpt lat="43.79525" lon="7.09097">
        <ele>976.1</ele>
        <time>2017-03-13T08:22:05Z</time>
      </trkpt>
      <trkpt lat="43.79525" lon="7.09104">
        <ele>976.2</ele>
        <time>2017-03-13T08:22:09Z</time>
      </trkpt>
      <trkpt lat="43.79526" lon="7.09114">
        <ele>976.2</ele>
        <time>2017-03-13T08:22:14Z</time>
      </trkpt>
      <trkpt lat="43.79526" lon="7.09114">
        <ele>974</ele>
        <time>2017-03-13T08:22:22Z</time>
      </trkpt>
      <trkpt lat="43.79527" lon="7.09133">
        <ele>976.4</ele>
        <time>2017-03-13T08:22:23Z</time>
      </trkpt>
      <trkpt lat="43.79523" lon="7.09146">
        <ele>976.8</ele>
        <time>2017-03-13T08:22:30Z</time>
      </trkpt>
      <trkpt lat="43.79522" lon="7.09152">
        <ele>977</ele>
        <time>2017-03-13T08:22:33Z</time>
      </trkpt>
      <trkpt lat="43.7952" lon="7.09158">
        <ele>977.1</ele>
        <time>2017-03-13T08:22:36Z</time>
      </trkpt>
      <trkpt lat="43.79518" lon="7.09166">
        <ele>977.1</ele>
        <time>2017-03-13T08:22:40Z</time>
      </trkpt>
      <trkpt lat="43.79519" lon="7.09172">
        <ele>977.1</ele>
        <time>2017-03-13T08:22:43Z</time>
      </trkpt>
      <trkpt lat="43.79522" lon="7.09184">
        <ele>977.1</ele>
        <time>2017-03-13T08:22:48Z</time>
      </trkpt>
      <trkpt lat="43.79522" lon="7.09192">
        <ele>977.1</ele>
        <time>2017-03-13T08:22:52Z</time>
      </trkpt>
      <trkpt lat="43.79522" lon="7.09199">
        <ele>977.1</ele>
        <time>2017-03-13T08:22:56Z</time>
      </trkpt>
      <trkpt lat="43.79522" lon="7.09207">
        <ele>977.1</ele>
        <time>2017-03-13T08:23:00Z</time>
      </trkpt>
      <trkpt lat="43.7952" lon="7.09215">
        <ele>977</ele>
        <time>2017-03-13T08:23:04Z</time>
      </trkpt>
      <trkpt lat="43.79518" lon="7.09228">
        <ele>976.8</ele>
        <time>2017-03-13T08:23:11Z</time>
      </trkpt>
      <trkpt lat="43.79516" lon="7.09241">
        <ele>976.6</ele>
        <time>2017-03-13T08:23:17Z</time>
      </trkpt>
      <trkpt lat="43.79517" lon="7.09254">
        <ele>976.5</ele>
        <time>2017-03-13T08:23:24Z</time>
      </trkpt>
      <trkpt lat="43.79517" lon="7.09261">
        <ele>976.4</ele>
        <time>2017-03-13T08:23:28Z</time>
      </trkpt>
      <trkpt lat="43.79516" lon="7.09267">
        <ele>976.4</ele>
        <time>2017-03-13T08:23:32Z</time>
      </trkpt>
      <trkpt lat="43.79515" lon="7.09274">
        <ele>976.4</ele>
        <time>2017-03-13T08:23:36Z</time>
      </trkpt>
      <trkpt lat="43.79513" lon="7.0928">
        <ele>976.3</ele>
        <time>2017-03-13T08:23:40Z</time>
      </trkpt>
      <trkpt lat="43.79514" lon="7.09287">
        <ele>976.3</ele>
        <time>2017-03-13T08:23:44Z</time>
      </trkpt>
      <trkpt lat="43.79516" lon="7.09295">
        <ele>976.3</ele>
        <time>2017-03-13T08:23:48Z</time>
      </trkpt>
      <trkpt lat="43.79516" lon="7.09302">
        <ele>976.3</ele>
        <time>2017-03-13T08:23:52Z</time>
      </trkpt>
      <trkpt lat="43.79516" lon="7.09302">
        <ele>978.7</ele>
        <time>2017-03-13T08:24:01Z</time>
      </trkpt>
      <trkpt lat="43.7951" lon="7.0932">
        <ele>976.3</ele>
        <time>2017-03-13T08:24:03Z</time>
      </trkpt>
      <trkpt lat="43.7951" lon="7.0932">
        <ele>980</ele>
        <time>2017-03-13T08:24:11Z</time>
      </trkpt>
      <trkpt lat="43.79511" lon="7.09339">
        <ele>976.4</ele>
        <time>2017-03-13T08:24:14Z</time>
      </trkpt>
      <trkpt lat="43.79511" lon="7.09346">
        <ele>976.6</ele>
        <time>2017-03-13T08:24:18Z</time>
      </trkpt>
      <trkpt lat="43.79511" lon="7.09354">
        <ele>976.6</ele>
        <time>2017-03-13T08:24:22Z</time>
      </trkpt>
      <trkpt lat="43.79509" lon="7.09367">
        <ele>977</ele>
        <time>2017-03-13T08:24:29Z</time>
      </trkpt>
      <trkpt lat="43.79509" lon="7.09367">
        <ele>982.5</ele>
        <time>2017-03-13T08:24:38Z</time>
      </trkpt>
      <trkpt lat="43.79509" lon="7.09367">
        <ele>982.5</ele>
        <time>2017-03-13T08:24:47Z</time>
      </trkpt>
      <trkpt lat="43.79504" lon="7.09401">
        <ele>979.6</ele>
        <time>2017-03-13T08:24:48Z</time>
      </trkpt>
      <trkpt lat="43.79505" lon="7.09408">
        <ele>981.1</ele>
        <time>2017-03-13T08:24:52Z</time>
      </trkpt>
      <trkpt lat="43.79505" lon="7.09416">
        <ele>981.1</ele>
        <time>2017-03-13T08:24:56Z</time>
      </trkpt>
      <trkpt lat="43.79505" lon="7.09416">
        <ele>983.2</ele>
        <time>2017-03-13T08:25:04Z</time>
      </trkpt>
      <trkpt lat="43.79503" lon="7.09436">
        <ele>981.3</ele>
        <time>2017-03-13T08:25:06Z</time>
      </trkpt>
      <trkpt lat="43.79502" lon="7.09444">
        <ele>981.3</ele>
        <time>2017-03-13T08:25:10Z</time>
      </trkpt>
      <trkpt lat="43.79501" lon="7.09458">
        <ele>981.3</ele>
        <time>2017-03-13T08:25:17Z</time>
      </trkpt>
      <trkpt lat="43.79501" lon="7.09465">
        <ele>981.3</ele>
        <time>2017-03-13T08:25:21Z</time>
      </trkpt>
      <trkpt lat="43.79499" lon="7.09471">
        <ele>981.2</ele>
        <time>2017-03-13T08:25:25Z</time>
      </trkpt>
      <trkpt lat="43.79495" lon="7.09476">
        <ele>981.2</ele>
        <time>2017-03-13T08:25:29Z</time>
      </trkpt>
      <trkpt lat="43.7949" lon="7.09479">
        <ele>981.1</ele>
        <time>2017-03-13T08:25:34Z</time>
      </trkpt>
      <trkpt lat="43.79486" lon="7.09481">
        <ele>981</ele>
        <time>2017-03-13T08:25:38Z</time>
      </trkpt>
      <trkpt lat="43.79478" lon="7.09487">
        <ele>980.9</ele>
        <time>2017-03-13T08:25:45Z</time>
      </trkpt>
      <trkpt lat="43.79478" lon="7.09487">
        <ele>981.6</ele>
        <time>2017-03-13T08:25:54Z</time>
      </trkpt>
      <trkpt lat="43.79465" lon="7.09489">
        <ele>980.8</ele>
        <time>2017-03-13T08:25:56Z</time>
      </trkpt>
      <trkpt lat="43.79461" lon="7.09488">
        <ele>980.7</ele>
        <time>2017-03-13T08:26:00Z</time>
      </trkpt>
      <trkpt lat="43.79455" lon="7.09488">
        <ele>980.7</ele>
        <time>2017-03-13T08:26:04Z</time>
      </trkpt>
      <trkpt lat="43.7945" lon="7.09487">
        <ele>980.7</ele>
        <time>2017-03-13T08:26:08Z</time>
      </trkpt>
      <trkpt lat="43.7944" lon="7.09489">
        <ele>980.7</ele>
        <time>2017-03-13T08:26:15Z</time>
      </trkpt>
      <trkpt lat="43.7944" lon="7.09489">
        <ele>980.6</ele>
        <time>2017-03-13T08:26:23Z</time>
      </trkpt>
      <trkpt lat="43.79427" lon="7.09497">
        <ele>980.8</ele>
        <time>2017-03-13T08:26:24Z</time>
      </trkpt>
      <trkpt lat="43.7942" lon="7.09502">
        <ele>980.8</ele>
        <time>2017-03-13T08:26:29Z</time>
      </trkpt>
      <trkpt lat="43.79411" lon="7.09507">
        <ele>980.9</ele>
        <time>2017-03-13T08:26:34Z</time>
      </trkpt>
      <trkpt lat="43.79406" lon="7.09508">
        <ele>981.1</ele>
        <time>2017-03-13T08:26:37Z</time>
      </trkpt>
      <trkpt lat="43.79402" lon="7.09505">
        <ele>981.3</ele>
        <time>2017-03-13T08:26:41Z</time>
      </trkpt>
      <trkpt lat="43.79398" lon="7.095">
        <ele>982.1</ele>
        <time>2017-03-13T08:26:45Z</time>
      </trkpt>
      <trkpt lat="43.79394" lon="7.095">
        <ele>982.3</ele>
        <time>2017-03-13T08:26:50Z</time>
      </trkpt>
      <trkpt lat="43.79384" lon="7.09502">
        <ele>982.5</ele>
        <time>2017-03-13T08:26:57Z</time>
      </trkpt>
      <trkpt lat="43.79379" lon="7.09505">
        <ele>982.7</ele>
        <time>2017-03-13T08:27:01Z</time>
      </trkpt>
      <trkpt lat="43.79374" lon="7.09507">
        <ele>982.7</ele>
        <time>2017-03-13T08:27:04Z</time>
      </trkpt>
      <trkpt lat="43.7936" lon="7.09512">
        <ele>982.9</ele>
        <time>2017-03-13T08:27:12Z</time>
      </trkpt>
      <trkpt lat="43.79352" lon="7.09517">
        <ele>983</ele>
        <time>2017-03-13T08:27:17Z</time>
      </trkpt>
      <trkpt lat="43.79346" lon="7.09519">
        <ele>983.1</ele>
        <time>2017-03-13T08:27:21Z</time>
      </trkpt>
      <trkpt lat="43.79336" lon="7.09524">
        <ele>983.4</ele>
        <time>2017-03-13T08:27:28Z</time>
      </trkpt>
      <trkpt lat="43.7933" lon="7.09526">
        <ele>983.4</ele>
        <time>2017-03-13T08:27:33Z</time>
      </trkpt>
      <trkpt lat="43.7932" lon="7.09528">
        <ele>983.8</ele>
        <time>2017-03-13T08:27:41Z</time>
      </trkpt>
      <trkpt lat="43.7932" lon="7.09528">
        <ele>983.5</ele>
        <time>2017-03-13T08:27:49Z</time>
      </trkpt>
      <trkpt lat="43.79307" lon="7.09534">
        <ele>983.9</ele>
        <time>2017-03-13T08:27:54Z</time>
      </trkpt>
      <trkpt lat="43.793" lon="7.09538">
        <ele>984</ele>
        <time>2017-03-13T08:27:59Z</time>
      </trkpt>
      <trkpt lat="43.79295" lon="7.09539">
        <ele>984</ele>
        <time>2017-03-13T08:28:03Z</time>
      </trkpt>
      <trkpt lat="43.79285" lon="7.09541">
        <ele>984.1</ele>
        <time>2017-03-13T08:28:10Z</time>
      </trkpt>
      <trkpt lat="43.79285" lon="7.09541">
        <ele>984.7</ele>
        <time>2017-03-13T08:28:18Z</time>
      </trkpt>
      <trkpt lat="43.79274" lon="7.09546">
        <ele>984.2</ele>
        <time>2017-03-13T08:28:19Z</time>
      </trkpt>
      <trkpt lat="43.7927" lon="7.0955">
        <ele>984.4</ele>
        <time>2017-03-13T08:28:22Z</time>
      </trkpt>
      <trkpt lat="43.79262" lon="7.09555">
        <ele>984.7</ele>
        <time>2017-03-13T08:28:29Z</time>
      </trkpt>
      <trkpt lat="43.79258" lon="7.09561">
        <ele>984.9</ele>
        <time>2017-03-13T08:28:33Z</time>
      </trkpt>
      <trkpt lat="43.79258" lon="7.09561">
        <ele>987.4</ele>
        <time>2017-03-13T08:28:42Z</time>
      </trkpt>
      <trkpt lat="43.79248" lon="7.09575">
        <ele>985.3</ele>
        <time>2017-03-13T08:28:43Z</time>
      </trkpt>
      <trkpt lat="43.79239" lon="7.09585">
        <ele>985.8</ele>
        <time>2017-03-13T08:28:50Z</time>
      </trkpt>
      <trkpt lat="43.79234" lon="7.09588">
        <ele>986.1</ele>
        <time>2017-03-13T08:28:53Z</time>
      </trkpt>
      <trkpt lat="43.7923" lon="7.0959">
        <ele>986.5</ele>
        <time>2017-03-13T08:28:56Z</time>
      </trkpt>
      <trkpt lat="43.79225" lon="7.0959">
        <ele>987</ele>
        <time>2017-03-13T08:29:00Z</time>
      </trkpt>
      <trkpt lat="43.7922" lon="7.0959">
        <ele>987.2</ele>
        <time>2017-03-13T08:29:04Z</time>
      </trkpt>
      <trkpt lat="43.79215" lon="7.09592">
        <ele>987.3</ele>
        <time>2017-03-13T08:29:08Z</time>
      </trkpt>
      <trkpt lat="43.79206" lon="7.096">
        <ele>987.4</ele>
        <time>2017-03-13T08:29:15Z</time>
      </trkpt>
      <trkpt lat="43.79199" lon="7.09604">
        <ele>987.4</ele>
        <time>2017-03-13T08:29:20Z</time>
      </trkpt>
      <trkpt lat="43.79194" lon="7.09607">
        <ele>987.6</ele>
        <time>2017-03-13T08:29:24Z</time>
      </trkpt>
      <trkpt lat="43.79191" lon="7.09611">
        <ele>987.6</ele>
        <time>2017-03-13T08:29:27Z</time>
      </trkpt>
      <trkpt lat="43.79184" lon="7.09622">
        <ele>987.9</ele>
        <time>2017-03-13T08:29:35Z</time>
      </trkpt>
      <trkpt lat="43.79184" lon="7.09622">
        <ele>989.1</ele>
        <time>2017-03-13T08:29:43Z</time>
      </trkpt>
      <trkpt lat="43.79176" lon="7.09635">
        <ele>988</ele>
        <time>2017-03-13T08:29:45Z</time>
      </trkpt>
      <trkpt lat="43.79176" lon="7.09635">
        <ele>990.2</ele>
        <time>2017-03-13T08:29:53Z</time>
      </trkpt>
      <trkpt lat="43.79164" lon="7.09647">
        <ele>988</ele>
        <time>2017-03-13T08:29:54Z</time>
      </trkpt>
      <trkpt lat="43.7916" lon="7.09652">
        <ele>988</ele>
        <time>2017-03-13T08:29:58Z</time>
      </trkpt>
      <trkpt lat="43.79156" lon="7.09656">
        <ele>988.1</ele>
        <time>2017-03-13T08:30:03Z</time>
      </trkpt>
      <trkpt lat="43.79153" lon="7.09662">
        <ele>988.3</ele>
        <time>2017-03-13T08:30:09Z</time>
      </trkpt>
      <trkpt lat="43.79145" lon="7.0967">
        <ele>988.4</ele>
        <time>2017-03-13T08:30:16Z</time>
      </trkpt>
      <trkpt lat="43.79142" lon="7.09676">
        <ele>988.7</ele>
        <time>2017-03-13T08:30:20Z</time>
      </trkpt>
      <trkpt lat="43.7914" lon="7.09683">
        <ele>989.1</ele>
        <time>2017-03-13T08:30:24Z</time>
      </trkpt>
      <trkpt lat="43.79138" lon="7.09696">
        <ele>990</ele>
        <time>2017-03-13T08:30:31Z</time>
      </trkpt>
      <trkpt lat="43.7913" lon="7.09704">
        <ele>991.1</ele>
        <time>2017-03-13T08:30:39Z</time>
      </trkpt>
      <trkpt lat="43.7913" lon="7.09704">
        <ele>994.1</ele>
        <time>2017-03-13T08:30:48Z</time>
      </trkpt>
      <trkpt lat="43.79121" lon="7.09712">
        <ele>993.1</ele>
        <time>2017-03-13T08:30:49Z</time>
      </trkpt>
      <trkpt lat="43.79118" lon="7.09716">
        <ele>994.1</ele>
        <time>2017-03-13T08:30:54Z</time>
      </trkpt>
      <trkpt lat="43.79113" lon="7.09719">
        <ele>994.3</ele>
        <time>2017-03-13T08:30:59Z</time>
      </trkpt>
      <trkpt lat="43.79113" lon="7.09719">
        <ele>994.8</ele>
        <time>2017-03-13T08:31:08Z</time>
      </trkpt>
      <trkpt lat="43.791" lon="7.09727">
        <ele>994.8</ele>
        <time>2017-03-13T08:31:10Z</time>
      </trkpt>
      <trkpt lat="43.79095" lon="7.0973">
        <ele>994.9</ele>
        <time>2017-03-13T08:31:15Z</time>
      </trkpt>
      <trkpt lat="43.79091" lon="7.09734">
        <ele>995</ele>
        <time>2017-03-13T08:31:19Z</time>
      </trkpt>
      <trkpt lat="43.79085" lon="7.0974">
        <ele>995</ele>
        <time>2017-03-13T08:31:24Z</time>
      </trkpt>
      <trkpt lat="43.79081" lon="7.09745">
        <ele>995</ele>
        <time>2017-03-13T08:31:27Z</time>
      </trkpt>
      <trkpt lat="43.79078" lon="7.09751">
        <ele>995</ele>
        <time>2017-03-13T08:31:30Z</time>
      </trkpt>
      <trkpt lat="43.79075" lon="7.09756">
        <ele>995</ele>
        <time>2017-03-13T08:31:33Z</time>
      </trkpt>
      <trkpt lat="43.79068" lon="7.09765">
        <ele>995</ele>
        <time>2017-03-13T08:31:40Z</time>
      </trkpt>
      <trkpt lat="43.79068" lon="7.09765">
        <ele>997.7</ele>
        <time>2017-03-13T08:31:50Z</time>
      </trkpt>
      <trkpt lat="43.79057" lon="7.09778">
        <ele>995</ele>
        <time>2017-03-13T08:31:51Z</time>
      </trkpt>
      <trkpt lat="43.7905" lon="7.09786">
        <ele>995.1</ele>
        <time>2017-03-13T08:31:58Z</time>
      </trkpt>
      <trkpt lat="43.79045" lon="7.0979">
        <ele>995.3</ele>
        <time>2017-03-13T08:32:02Z</time>
      </trkpt>
      <trkpt lat="43.79041" lon="7.09796">
        <ele>995.3</ele>
        <time>2017-03-13T08:32:07Z</time>
      </trkpt>
      <trkpt lat="43.79041" lon="7.09796">
        <ele>1001</ele>
        <time>2017-03-13T08:32:17Z</time>
      </trkpt>
      <trkpt lat="43.79033" lon="7.09812">
        <ele>995.6</ele>
        <time>2017-03-13T08:32:18Z</time>
      </trkpt>
      <trkpt lat="43.79033" lon="7.09812">
        <ele>1002.6</ele>
        <time>2017-03-13T08:32:27Z</time>
      </trkpt>
      <trkpt lat="43.79033" lon="7.09812">
        <ele>1002.6</ele>
        <time>2017-03-13T08:32:36Z</time>
      </trkpt>
      <trkpt lat="43.7902" lon="7.09852">
        <ele>997.9</ele>
        <time>2017-03-13T08:32:42Z</time>
      </trkpt>
      <trkpt lat="43.79017" lon="7.09858">
        <ele>998.8</ele>
        <time>2017-03-13T08:32:46Z</time>
      </trkpt>
      <trkpt lat="43.79014" lon="7.09864">
        <ele>999</ele>
        <time>2017-03-13T08:32:51Z</time>
      </trkpt>
      <trkpt lat="43.79014" lon="7.09864">
        <ele>1006.1</ele>
        <time>2017-03-13T08:33:00Z</time>
      </trkpt>
      <trkpt lat="43.79006" lon="7.09881">
        <ele>1001.4</ele>
        <time>2017-03-13T08:33:02Z</time>
      </trkpt>
      <trkpt lat="43.79003" lon="7.09887">
        <ele>1001.9</ele>
        <time>2017-03-13T08:33:06Z</time>
      </trkpt>
      <trkpt lat="43.79003" lon="7.09887">
        <ele>1007.6</ele>
        <time>2017-03-13T08:33:17Z</time>
      </trkpt>
      <trkpt lat="43.78997" lon="7.09912">
        <ele>1003.8</ele>
        <time>2017-03-13T08:33:20Z</time>
      </trkpt>
      <trkpt lat="43.78996" lon="7.09925">
        <ele>1004.6</ele>
        <time>2017-03-13T08:33:27Z</time>
      </trkpt>
      <trkpt lat="43.78996" lon="7.09925">
        <ele>1008.3</ele>
        <time>2017-03-13T08:33:38Z</time>
      </trkpt>
      <trkpt lat="43.7899" lon="7.09936">
        <ele>1008.4</ele>
        <time>2017-03-13T08:33:40Z</time>
      </trkpt>
      <trkpt lat="43.7899" lon="7.09936">
        <ele>1009</ele>
        <time>2017-03-13T08:33:40Z</time>
      </trkpt>
      <trkpt lat="43.7899" lon="7.09936">
        <ele>1009</ele>
        <time>2017-03-13T08:37:29Z</time>
      </trkpt>
      <trkpt lat="43.78988" lon="7.09948">
        <ele>1009.4</ele>
        <time>2017-03-13T08:37:30Z</time>
      </trkpt>
      <trkpt lat="43.78982" lon="7.09949">
        <ele>1009.4</ele>
        <time>2017-03-13T08:37:35Z</time>
      </trkpt>
      <trkpt lat="43.78977" lon="7.09951">
        <ele>1009.4</ele>
        <time>2017-03-13T08:37:39Z</time>
      </trkpt>
      <trkpt lat="43.78977" lon="7.09951">
        <ele>1010.5</ele>
        <time>2017-03-13T08:37:47Z</time>
      </trkpt>
      <trkpt lat="43.78965" lon="7.09956">
        <ele>1009.5</ele>
        <time>2017-03-13T08:37:49Z</time>
      </trkpt>
      <trkpt lat="43.7896" lon="7.09956">
        <ele>1010.2</ele>
        <time>2017-03-13T08:37:56Z</time>
      </trkpt>
      <trkpt lat="43.78954" lon="7.09957">
        <ele>1010.3</ele>
        <time>2017-03-13T08:38:00Z</time>
      </trkpt>
      <trkpt lat="43.78947" lon="7.0996">
        <ele>1010.4</ele>
        <time>2017-03-13T08:38:04Z</time>
      </trkpt>
      <trkpt lat="43.78943" lon="7.09961">
        <ele>1010.6</ele>
        <time>2017-03-13T08:38:07Z</time>
      </trkpt>
      <trkpt lat="43.78934" lon="7.09957">
        <ele>1010.8</ele>
        <time>2017-03-13T08:38:14Z</time>
      </trkpt>
      <trkpt lat="43.78926" lon="7.09951">
        <ele>1011.1</ele>
        <time>2017-03-13T08:38:20Z</time>
      </trkpt>
      <trkpt lat="43.78918" lon="7.09944">
        <ele>1011.5</ele>
        <time>2017-03-13T08:38:27Z</time>
      </trkpt>
      <trkpt lat="43.78915" lon="7.0994">
        <ele>1012.6</ele>
        <time>2017-03-13T08:38:30Z</time>
      </trkpt>
      <trkpt lat="43.7891" lon="7.09936">
        <ele>1012.9</ele>
        <time>2017-03-13T08:38:34Z</time>
      </trkpt>
      <trkpt lat="43.78906" lon="7.09932">
        <ele>1012.9</ele>
        <time>2017-03-13T08:38:38Z</time>
      </trkpt>
      <trkpt lat="43.78902" lon="7.09929">
        <ele>1013.1</ele>
        <time>2017-03-13T08:38:41Z</time>
      </trkpt>
      <trkpt lat="43.78897" lon="7.09928">
        <ele>1013.1</ele>
        <time>2017-03-13T08:38:44Z</time>
      </trkpt>
      <trkpt lat="43.78892" lon="7.09927">
        <ele>1013.3</ele>
        <time>2017-03-13T08:38:48Z</time>
      </trkpt>
      <trkpt lat="43.78883" lon="7.09924">
        <ele>1013.6</ele>
        <time>2017-03-13T08:38:55Z</time>
      </trkpt>
      <trkpt lat="43.78879" lon="7.09919">
        <ele>1014.6</ele>
        <time>2017-03-13T08:38:58Z</time>
      </trkpt>
      <trkpt lat="43.7887" lon="7.09914">
        <ele>1014.7</ele>
        <time>2017-03-13T08:39:06Z</time>
      </trkpt>
      <trkpt lat="43.78866" lon="7.09912">
        <ele>1014.9</ele>
        <time>2017-03-13T08:39:10Z</time>
      </trkpt>
      <trkpt lat="43.7886" lon="7.09913">
        <ele>1015.1</ele>
        <time>2017-03-13T08:39:14Z</time>
      </trkpt>
      <trkpt lat="43.7885" lon="7.09915">
        <ele>1015.3</ele>
        <time>2017-03-13T08:39:21Z</time>
      </trkpt>
      <trkpt lat="43.78846" lon="7.09913">
        <ele>1015.6</ele>
        <time>2017-03-13T08:39:25Z</time>
      </trkpt>
      <trkpt lat="43.78842" lon="7.09907">
        <ele>1015.8</ele>
        <time>2017-03-13T08:39:30Z</time>
      </trkpt>
      <trkpt lat="43.78842" lon="7.09907">
        <ele>1016.9</ele>
        <time>2017-03-13T08:39:39Z</time>
      </trkpt>
      <trkpt lat="43.78833" lon="7.09893">
        <ele>1016.2</ele>
        <time>2017-03-13T08:39:43Z</time>
      </trkpt>
      <trkpt lat="43.78828" lon="7.09887">
        <ele>1016.2</ele>
        <time>2017-03-13T08:39:47Z</time>
      </trkpt>
      <trkpt lat="43.78824" lon="7.09882">
        <ele>1016.4</ele>
        <time>2017-03-13T08:39:50Z</time>
      </trkpt>
      <trkpt lat="43.7882" lon="7.09878">
        <ele>1016.6</ele>
        <time>2017-03-13T08:39:54Z</time>
      </trkpt>
      <trkpt lat="43.78816" lon="7.09875">
        <ele>1016.7</ele>
        <time>2017-03-13T08:39:57Z</time>
      </trkpt>
      <trkpt lat="43.78812" lon="7.0987">
        <ele>1016.9</ele>
        <time>2017-03-13T08:40:00Z</time>
      </trkpt>
      <trkpt lat="43.78809" lon="7.09867">
        <ele>1016.9</ele>
        <time>2017-03-13T08:40:03Z</time>
      </trkpt>
      <trkpt lat="43.78805" lon="7.09861">
        <ele>1017.2</ele>
        <time>2017-03-13T08:40:07Z</time>
      </trkpt>
      <trkpt lat="43.788" lon="7.09859">
        <ele>1017.2</ele>
        <time>2017-03-13T08:40:11Z</time>
      </trkpt>
      <trkpt lat="43.78794" lon="7.09858">
        <ele>1017.8</ele>
        <time>2017-03-13T08:40:15Z</time>
      </trkpt>
      <trkpt lat="43.78784" lon="7.09857">
        <ele>1018</ele>
        <time>2017-03-13T08:40:23Z</time>
      </trkpt>
      <trkpt lat="43.78777" lon="7.09857">
        <ele>1018.8</ele>
        <time>2017-03-13T08:40:29Z</time>
      </trkpt>
      <trkpt lat="43.78776" lon="7.09856">
        <ele>1022.1</ele>
        <time>2017-03-13T08:40:33Z</time>
      </trkpt>
      <trkpt lat="43.78776" lon="7.09856">
        <ele>1021.6</ele>
        <time>2017-03-13T08:40:33Z</time>
      </trkpt>
      <trkpt lat="43.78776" lon="7.09856">
        <ele>1021.6</ele>
        <time>2017-03-13T08:43:32Z</time>
      </trkpt>
      <trkpt lat="43.78778" lon="7.09878">
        <ele>1023.3</ele>
        <time>2017-03-13T08:43:33Z</time>
      </trkpt>
      <trkpt lat="43.78783" lon="7.09882">
        <ele>1023.2</ele>
        <time>2017-03-13T08:43:38Z</time>
      </trkpt>
      <trkpt lat="43.78787" lon="7.09883">
        <ele>1023.1</ele>
        <time>2017-03-13T08:43:42Z</time>
      </trkpt>
      <trkpt lat="43.78797" lon="7.09884">
        <ele>1023.1</ele>
        <time>2017-03-13T08:43:49Z</time>
      </trkpt>
      <trkpt lat="43.78802" lon="7.09887">
        <ele>1023.1</ele>
        <time>2017-03-13T08:43:53Z</time>
      </trkpt>
      <trkpt lat="43.78806" lon="7.09885">
        <ele>1023.1</ele>
        <time>2017-03-13T08:43:57Z</time>
      </trkpt>
      <trkpt lat="43.78812" lon="7.09883">
        <ele>1023</ele>
        <time>2017-03-13T08:44:01Z</time>
      </trkpt>
      <trkpt lat="43.78816" lon="7.09885">
        <ele>1022.9</ele>
        <time>2017-03-13T08:44:06Z</time>
      </trkpt>
      <trkpt lat="43.78823" lon="7.09894">
        <ele>1022.7</ele>
        <time>2017-03-13T08:44:13Z</time>
      </trkpt>
      <trkpt lat="43.78823" lon="7.09894">
        <ele>1018.6</ele>
        <time>2017-03-13T08:44:21Z</time>
      </trkpt>
      <trkpt lat="43.78835" lon="7.09908">
        <ele>1022.3</ele>
        <time>2017-03-13T08:44:23Z</time>
      </trkpt>
      <trkpt lat="43.78835" lon="7.09908">
        <ele>1017.2</ele>
        <time>2017-03-13T08:44:33Z</time>
      </trkpt>
      <trkpt lat="43.78847" lon="7.09924">
        <ele>1021.6</ele>
        <time>2017-03-13T08:44:36Z</time>
      </trkpt>
      <trkpt lat="43.78853" lon="7.09923">
        <ele>1021.3</ele>
        <time>2017-03-13T08:44:40Z</time>
      </trkpt>
      <trkpt lat="43.78863" lon="7.0992">
        <ele>1019.9</ele>
        <time>2017-03-13T08:44:47Z</time>
      </trkpt>
      <trkpt lat="43.78868" lon="7.09923">
        <ele>1019</ele>
        <time>2017-03-13T08:44:51Z</time>
      </trkpt>
      <trkpt lat="43.78872" lon="7.09928">
        <ele>1018.2</ele>
        <time>2017-03-13T08:44:55Z</time>
      </trkpt>
      <trkpt lat="43.78876" lon="7.09932">
        <ele>1017.9</ele>
        <time>2017-03-13T08:44:58Z</time>
      </trkpt>
      <trkpt lat="43.78881" lon="7.09933">
        <ele>1017.9</ele>
        <time>2017-03-13T08:45:01Z</time>
      </trkpt>
      <trkpt lat="43.78896" lon="7.09931">
        <ele>1017.7</ele>
        <time>2017-03-13T08:45:10Z</time>
      </trkpt>
      <trkpt lat="43.78902" lon="7.09933">
        <ele>1016.8</ele>
        <time>2017-03-13T08:45:14Z</time>
      </trkpt>
      <trkpt lat="43.78911" lon="7.09939">
        <ele>1016.7</ele>
        <time>2017-03-13T08:45:21Z</time>
      </trkpt>
      <trkpt lat="43.78915" lon="7.09943">
        <ele>1016.6</ele>
        <time>2017-03-13T08:45:23Z</time>
      </trkpt>
      <trkpt lat="43.78918" lon="7.09948">
        <ele>1016.6</ele>
        <time>2017-03-13T08:45:26Z</time>
      </trkpt>
      <trkpt lat="43.7892" lon="7.09953">
        <ele>1016.1</ele>
        <time>2017-03-13T08:45:30Z</time>
      </trkpt>
      <trkpt lat="43.78929" lon="7.09961">
        <ele>1015.5</ele>
        <time>2017-03-13T08:45:36Z</time>
      </trkpt>
      <trkpt lat="43.78927" lon="7.0997">
        <ele>1015</ele>
        <time>2017-03-13T08:45:40Z</time>
      </trkpt>
      <trkpt lat="43.78928" lon="7.09977">
        <ele>1015</ele>
        <time>2017-03-13T08:45:43Z</time>
      </trkpt>
      <trkpt lat="43.7893" lon="7.0999">
        <ele>1014.9</ele>
        <time>2017-03-13T08:45:49Z</time>
      </trkpt>
      <trkpt lat="43.78929" lon="7.09996">
        <ele>1014.7</ele>
        <time>2017-03-13T08:45:52Z</time>
      </trkpt>
      <trkpt lat="43.78925" lon="7.10008">
        <ele>1014.3</ele>
        <time>2017-03-13T08:45:58Z</time>
      </trkpt>
      <trkpt lat="43.78924" lon="7.1002">
        <ele>1013.9</ele>
        <time>2017-03-13T08:46:03Z</time>
      </trkpt>
      <trkpt lat="43.78923" lon="7.10028">
        <ele>1013.9</ele>
        <time>2017-03-13T08:46:07Z</time>
      </trkpt>
      <trkpt lat="43.78925" lon="7.10048">
        <ele>1013.8</ele>
        <time>2017-03-13T08:46:16Z</time>
      </trkpt>
      <trkpt lat="43.78927" lon="7.1006">
        <ele>1013.8</ele>
        <time>2017-03-13T08:46:22Z</time>
      </trkpt>
      <trkpt lat="43.78925" lon="7.1008">
        <ele>1013.8</ele>
        <time>2017-03-13T08:46:31Z</time>
      </trkpt>
      <trkpt lat="43.7892" lon="7.10091">
        <ele>1014.5</ele>
        <time>2017-03-13T08:46:39Z</time>
      </trkpt>
      <trkpt lat="43.78915" lon="7.10093">
        <ele>1015.1</ele>
        <time>2017-03-13T08:46:44Z</time>
      </trkpt>
      <trkpt lat="43.78911" lon="7.10097">
        <ele>1015.2</ele>
        <time>2017-03-13T08:46:47Z</time>
      </trkpt>
      <trkpt lat="43.78907" lon="7.10104">
        <ele>1015.2</ele>
        <time>2017-03-13T08:46:50Z</time>
      </trkpt>
      <trkpt lat="43.78904" lon="7.10109">
        <ele>1015.3</ele>
        <time>2017-03-13T08:46:53Z</time>
      </trkpt>
      <trkpt lat="43.78902" lon="7.10115">
        <ele>1015.3</ele>
        <time>2017-03-13T08:46:56Z</time>
      </trkpt>
      <trkpt lat="43.789" lon="7.10122">
        <ele>1015.4</ele>
        <time>2017-03-13T08:47:00Z</time>
      </trkpt>
      <trkpt lat="43.78897" lon="7.10135">
        <ele>1015.7</ele>
        <time>2017-03-13T08:47:07Z</time>
      </trkpt>
      <trkpt lat="43.78896" lon="7.10143">
        <ele>1015.8</ele>
        <time>2017-03-13T08:47:11Z</time>
      </trkpt>
      <trkpt lat="43.78895" lon="7.1015">
        <ele>1015.8</ele>
        <time>2017-03-13T08:47:15Z</time>
      </trkpt>
      <trkpt lat="43.78893" lon="7.10162">
        <ele>1015.8</ele>
        <time>2017-03-13T08:47:22Z</time>
      </trkpt>
      <trkpt lat="43.78891" lon="7.1017">
        <ele>1015.9</ele>
        <time>2017-03-13T08:47:25Z</time>
      </trkpt>
      <trkpt lat="43.7889" lon="7.10177">
        <ele>1015.9</ele>
        <time>2017-03-13T08:47:28Z</time>
      </trkpt>
      <trkpt lat="43.78887" lon="7.10183">
        <ele>1015.9</ele>
        <time>2017-03-13T08:47:32Z</time>
      </trkpt>
      <trkpt lat="43.78884" lon="7.10189">
        <ele>1016</ele>
        <time>2017-03-13T08:47:37Z</time>
      </trkpt>
      <trkpt lat="43.78882" lon="7.10201">
        <ele>1016.1</ele>
        <time>2017-03-13T08:47:45Z</time>
      </trkpt>
      <trkpt lat="43.7888" lon="7.10208">
        <ele>1016.2</ele>
        <time>2017-03-13T08:47:49Z</time>
      </trkpt>
      <trkpt lat="43.78882" lon="7.10222">
        <ele>1016.3</ele>
        <time>2017-03-13T08:47:56Z</time>
      </trkpt>
      <trkpt lat="43.78882" lon="7.10222">
        <ele>1017.6</ele>
        <time>2017-03-13T08:48:05Z</time>
      </trkpt>
      <trkpt lat="43.78886" lon="7.1024">
        <ele>1016.9</ele>
        <time>2017-03-13T08:48:07Z</time>
      </trkpt>
      <trkpt lat="43.78888" lon="7.10253">
        <ele>1017.1</ele>
        <time>2017-03-13T08:48:15Z</time>
      </trkpt>
      <trkpt lat="43.78892" lon="7.10257">
        <ele>1017.3</ele>
        <time>2017-03-13T08:48:18Z</time>
      </trkpt>
      <trkpt lat="43.78894" lon="7.10264">
        <ele>1017.4</ele>
        <time>2017-03-13T08:48:23Z</time>
      </trkpt>
      <trkpt lat="43.78894" lon="7.10273">
        <ele>1017.5</ele>
        <time>2017-03-13T08:48:28Z</time>
      </trkpt>
      <trkpt lat="43.78894" lon="7.10273">
        <ele>1014.5</ele>
        <time>2017-03-13T08:48:36Z</time>
      </trkpt>
      <trkpt lat="43.78893" lon="7.10292">
        <ele>1017.6</ele>
        <time>2017-03-13T08:48:38Z</time>
      </trkpt>
      <trkpt lat="43.78894" lon="7.10297">
        <ele>1017.5</ele>
        <time>2017-03-13T08:48:42Z</time>
      </trkpt>
      <trkpt lat="43.78895" lon="7.10298">
        <ele>1015.7</ele>
        <time>2017-03-13T08:48:46Z</time>
      </trkpt>
      <trkpt lat="43.78895" lon="7.10298">
        <ele>1011.6</ele>
        <time>2017-03-13T08:48:46Z</time>
      </trkpt>
      <trkpt lat="43.78895" lon="7.10298">
        <ele>1011.6</ele>
        <time>2017-03-13T08:48:58Z</time>
      </trkpt>
      <trkpt lat="43.78891" lon="7.10312">
        <ele>1017.5</ele>
        <time>2017-03-13T08:48:59Z</time>
      </trkpt>
      <trkpt lat="43.78889" lon="7.10318">
        <ele>1017.3</ele>
        <time>2017-03-13T08:49:02Z</time>
      </trkpt>
      <trkpt lat="43.78887" lon="7.10325">
        <ele>1017.3</ele>
        <time>2017-03-13T08:49:05Z</time>
      </trkpt>
      <trkpt lat="43.78884" lon="7.10337">
        <ele>1016.8</ele>
        <time>2017-03-13T08:49:11Z</time>
      </trkpt>
      <trkpt lat="43.78883" lon="7.10343">
        <ele>1015.9</ele>
        <time>2017-03-13T08:49:15Z</time>
      </trkpt>
      <trkpt lat="43.78882" lon="7.10356">
        <ele>1015.1</ele>
        <time>2017-03-13T08:49:21Z</time>
      </trkpt>
      <trkpt lat="43.78882" lon="7.10356">
        <ele>1006.8</ele>
        <time>2017-03-13T08:49:31Z</time>
      </trkpt>
      <trkpt lat="43.78881" lon="7.10382">
        <ele>1013.5</ele>
        <time>2017-03-13T08:49:36Z</time>
      </trkpt>
      <trkpt lat="43.78883" lon="7.10393">
        <ele>1012.9</ele>
        <time>2017-03-13T08:49:41Z</time>
      </trkpt>
      <trkpt lat="43.78886" lon="7.10398">
        <ele>1012.9</ele>
        <time>2017-03-13T08:49:44Z</time>
      </trkpt>
      <trkpt lat="43.78889" lon="7.10405">
        <ele>1012.7</ele>
        <time>2017-03-13T08:49:47Z</time>
      </trkpt>
      <trkpt lat="43.78886" lon="7.10411">
        <ele>1012.5</ele>
        <time>2017-03-13T08:49:51Z</time>
      </trkpt>
      <trkpt lat="43.78884" lon="7.10417">
        <ele>1012.2</ele>
        <time>2017-03-13T08:49:54Z</time>
      </trkpt>
      <trkpt lat="43.78883" lon="7.10425">
        <ele>1012</ele>
        <time>2017-03-13T08:49:58Z</time>
      </trkpt>
      <trkpt lat="43.78884" lon="7.10431">
        <ele>1012</ele>
        <time>2017-03-13T08:50:01Z</time>
      </trkpt>
      <trkpt lat="43.78884" lon="7.1044">
        <ele>1011.9</ele>
        <time>2017-03-13T08:50:06Z</time>
      </trkpt>
      <trkpt lat="43.78885" lon="7.10447">
        <ele>1011.9</ele>
        <time>2017-03-13T08:50:09Z</time>
      </trkpt>
      <trkpt lat="43.78887" lon="7.10456">
        <ele>1011.7</ele>
        <time>2017-03-13T08:50:14Z</time>
      </trkpt>
      <trkpt lat="43.78887" lon="7.10456">
        <ele>1006.6</ele>
        <time>2017-03-13T08:50:22Z</time>
      </trkpt>
      <trkpt lat="43.7889" lon="7.10475">
        <ele>1011.5</ele>
        <time>2017-03-13T08:50:25Z</time>
      </trkpt>
      <trkpt lat="43.7889" lon="7.10475">
        <ele>1007</ele>
        <time>2017-03-13T08:50:33Z</time>
      </trkpt>
      <trkpt lat="43.78895" lon="7.10493">
        <ele>1011.3</ele>
        <time>2017-03-13T08:50:34Z</time>
      </trkpt>
      <trkpt lat="43.78895" lon="7.10493">
        <ele>1007.5</ele>
        <time>2017-03-13T08:50:42Z</time>
      </trkpt>
      <trkpt lat="43.78901" lon="7.10512">
        <ele>1010.7</ele>
        <time>2017-03-13T08:50:46Z</time>
      </trkpt>
      <trkpt lat="43.78903" lon="7.10518">
        <ele>1010.7</ele>
        <time>2017-03-13T08:50:49Z</time>
      </trkpt>
      <trkpt lat="43.78903" lon="7.10518">
        <ele>1007.7</ele>
        <time>2017-03-13T08:50:57Z</time>
      </trkpt>
      <trkpt lat="43.78909" lon="7.10534">
        <ele>1010</ele>
        <time>2017-03-13T08:50:58Z</time>
      </trkpt>
      <trkpt lat="43.78912" lon="7.10538">
        <ele>1010</ele>
        <time>2017-03-13T08:51:01Z</time>
      </trkpt>
      <trkpt lat="43.78912" lon="7.10538">
        <ele>1007.6</ele>
        <time>2017-03-13T08:51:10Z</time>
      </trkpt>
      <trkpt lat="43.78922" lon="7.10548">
        <ele>1010</ele>
        <time>2017-03-13T08:51:11Z</time>
      </trkpt>
      <trkpt lat="43.78927" lon="7.10553">
        <ele>1010</ele>
        <time>2017-03-13T08:51:15Z</time>
      </trkpt>
      <trkpt lat="43.78932" lon="7.10555">
        <ele>1010</ele>
        <time>2017-03-13T08:51:20Z</time>
      </trkpt>
      <trkpt lat="43.78936" lon="7.10561">
        <ele>1010</ele>
        <time>2017-03-13T08:51:25Z</time>
      </trkpt>
      <trkpt lat="43.78939" lon="7.10568">
        <ele>1010</ele>
        <time>2017-03-13T08:51:30Z</time>
      </trkpt>
      <trkpt lat="43.78944" lon="7.10573">
        <ele>1009.9</ele>
        <time>2017-03-13T08:51:34Z</time>
      </trkpt>
      <trkpt lat="43.78948" lon="7.10578">
        <ele>1009.9</ele>
        <time>2017-03-13T08:51:38Z</time>
      </trkpt>
      <trkpt lat="43.78948" lon="7.10578">
        <ele>1006.5</ele>
        <time>2017-03-13T08:51:47Z</time>
      </trkpt>
      <trkpt lat="43.78948" lon="7.10578">
        <ele>1006.5</ele>
        <time>2017-03-13T08:51:58Z</time>
      </trkpt>
      <trkpt lat="43.78967" lon="7.10607">
        <ele>1010.3</ele>
        <time>2017-03-13T08:51:59Z</time>
      </trkpt>
      <trkpt lat="43.78974" lon="7.1062">
        <ele>1010.4</ele>
        <time>2017-03-13T08:52:08Z</time>
      </trkpt>
      <trkpt lat="43.78974" lon="7.1062">
        <ele>1004.2</ele>
        <time>2017-03-13T08:52:16Z</time>
      </trkpt>
      <trkpt lat="43.7898" lon="7.10637">
        <ele>1010.3</ele>
        <time>2017-03-13T08:52:19Z</time>
      </trkpt>
      <trkpt lat="43.78989" lon="7.10651">
        <ele>1010.1</ele>
        <time>2017-03-13T08:52:27Z</time>
      </trkpt>
      <trkpt lat="43.78991" lon="7.10658">
        <ele>1010</ele>
        <time>2017-03-13T08:52:30Z</time>
      </trkpt>
      <trkpt lat="43.78994" lon="7.10663">
        <ele>1010</ele>
        <time>2017-03-13T08:52:33Z</time>
      </trkpt>
      <trkpt lat="43.78999" lon="7.10675">
        <ele>1009.8</ele>
        <time>2017-03-13T08:52:40Z</time>
      </trkpt>
      <trkpt lat="43.78999" lon="7.10682">
        <ele>1009.2</ele>
        <time>2017-03-13T08:52:45Z</time>
      </trkpt>
      <trkpt lat="43.79001" lon="7.10694">
        <ele>1008.9</ele>
        <time>2017-03-13T08:52:53Z</time>
      </trkpt>
      <trkpt lat="43.79001" lon="7.10702">
        <ele>1008.8</ele>
        <time>2017-03-13T08:52:57Z</time>
      </trkpt>
      <trkpt lat="43.79005" lon="7.10709">
        <ele>1008.7</ele>
        <time>2017-03-13T08:53:01Z</time>
      </trkpt>
      <trkpt lat="43.79005" lon="7.10709">
        <ele>1006.8</ele>
        <time>2017-03-13T08:53:11Z</time>
      </trkpt>
      <trkpt lat="43.79012" lon="7.10726">
        <ele>1008.5</ele>
        <time>2017-03-13T08:53:12Z</time>
      </trkpt>
      <trkpt lat="43.79015" lon="7.10732">
        <ele>1008.5</ele>
        <time>2017-03-13T08:53:16Z</time>
      </trkpt>
      <trkpt lat="43.79023" lon="7.10742">
        <ele>1008.6</ele>
        <time>2017-03-13T08:53:24Z</time>
      </trkpt>
      <trkpt lat="43.79027" lon="7.10748">
        <ele>1008.7</ele>
        <time>2017-03-13T08:53:28Z</time>
      </trkpt>
      <trkpt lat="43.79029" lon="7.10755">
        <ele>1008.7</ele>
        <time>2017-03-13T08:53:33Z</time>
      </trkpt>
      <trkpt lat="43.79034" lon="7.10767">
        <ele>1009.1</ele>
        <time>2017-03-13T08:53:42Z</time>
      </trkpt>
      <trkpt lat="43.79035" lon="7.10776">
        <ele>1009.8</ele>
        <time>2017-03-13T08:53:47Z</time>
      </trkpt>
      <trkpt lat="43.79037" lon="7.10783">
        <ele>1010.1</ele>
        <time>2017-03-13T08:53:51Z</time>
      </trkpt>
      <trkpt lat="43.79041" lon="7.10787">
        <ele>1010.3</ele>
        <time>2017-03-13T08:53:55Z</time>
      </trkpt>
      <trkpt lat="43.79046" lon="7.10787">
        <ele>1010.5</ele>
        <time>2017-03-13T08:53:59Z</time>
      </trkpt>
      <trkpt lat="43.79051" lon="7.1079">
        <ele>1010.5</ele>
        <time>2017-03-13T08:54:03Z</time>
      </trkpt>
      <trkpt lat="43.79052" lon="7.10797">
        <ele>1010.7</ele>
        <time>2017-03-13T08:54:08Z</time>
      </trkpt>
      <trkpt lat="43.79052" lon="7.10797">
        <ele>1014.9</ele>
        <time>2017-03-13T08:54:16Z</time>
      </trkpt>
      <trkpt lat="43.79051" lon="7.10807">
        <ele>1013.7</ele>
        <time>2017-03-13T08:54:18Z</time>
      </trkpt>
      <trkpt lat="43.79051" lon="7.10807">
        <ele>1014.1</ele>
        <time>2017-03-13T08:54:18Z</time>
      </trkpt>
      <trkpt lat="43.79051" lon="7.10807">
        <ele>1014.1</ele>
        <time>2017-03-13T08:54:28Z</time>
      </trkpt>
      <trkpt lat="43.79055" lon="7.10821">
        <ele>1012.5</ele>
        <time>2017-03-13T08:54:29Z</time>
      </trkpt>
      <trkpt lat="43.79052" lon="7.10833">
        <ele>1013</ele>
        <time>2017-03-13T08:54:36Z</time>
      </trkpt>
      <trkpt lat="43.79054" lon="7.1084">
        <ele>1013.1</ele>
        <time>2017-03-13T08:54:40Z</time>
      </trkpt>
      <trkpt lat="43.79057" lon="7.10846">
        <ele>1013.2</ele>
        <time>2017-03-13T08:54:43Z</time>
      </trkpt>
      <trkpt lat="43.79057" lon="7.10859">
        <ele>1013.5</ele>
        <time>2017-03-13T08:54:51Z</time>
      </trkpt>
      <trkpt lat="43.79054" lon="7.10866">
        <ele>1013.5</ele>
        <time>2017-03-13T08:54:55Z</time>
      </trkpt>
      <trkpt lat="43.79055" lon="7.10873">
        <ele>1013.5</ele>
        <time>2017-03-13T08:55:00Z</time>
      </trkpt>
      <trkpt lat="43.79055" lon="7.1088">
        <ele>1013.5</ele>
        <time>2017-03-13T08:55:05Z</time>
      </trkpt>
      <trkpt lat="43.79056" lon="7.10887">
        <ele>1013.3</ele>
        <time>2017-03-13T08:55:10Z</time>
      </trkpt>
      <trkpt lat="43.79058" lon="7.10894">
        <ele>1013.1</ele>
        <time>2017-03-13T08:55:14Z</time>
      </trkpt>
      <trkpt lat="43.79058" lon="7.10895">
        <ele>1013</ele>
        <time>2017-03-13T08:55:15Z</time>
      </trkpt>
      <trkpt lat="43.79058" lon="7.10896">
        <ele>1012.8</ele>
        <time>2017-03-13T08:55:18Z</time>
      </trkpt>
      <trkpt lat="43.79058" lon="7.10896">
        <ele>1013</ele>
        <time>2017-03-13T08:55:18Z</time>
      </trkpt>
      <trkpt lat="43.79058" lon="7.10896">
        <ele>1013</ele>
        <time>2017-03-13T08:55:28Z</time>
      </trkpt>
      <trkpt lat="43.7907" lon="7.10887">
        <ele>1012.8</ele>
        <time>2017-03-13T08:55:32Z</time>
      </trkpt>
      <trkpt lat="43.7907" lon="7.10887">
        <ele>1014.6</ele>
        <time>2017-03-13T08:55:40Z</time>
      </trkpt>
      <trkpt lat="43.79075" lon="7.10884">
        <ele>1012.3</ele>
        <time>2017-03-13T08:55:42Z</time>
      </trkpt>
      <trkpt lat="43.79075" lon="7.10884">
        <ele>1015.3</ele>
        <time>2017-03-13T08:55:42Z</time>
      </trkpt>
      <trkpt lat="43.79075" lon="7.10884">
        <ele>1015.3</ele>
        <time>2017-03-13T08:56:39Z</time>
      </trkpt>
      <trkpt lat="43.79063" lon="7.10892">
        <ele>1011.5</ele>
        <time>2017-03-13T08:56:40Z</time>
      </trkpt>
      <trkpt lat="43.79063" lon="7.10892">
        <ele>1013.7</ele>
        <time>2017-03-13T08:56:48Z</time>
      </trkpt>
      <trkpt lat="43.79063" lon="7.10892">
        <ele>1013.7</ele>
        <time>2017-03-13T08:56:58Z</time>
      </trkpt>
      <trkpt lat="43.79052" lon="7.10913">
        <ele>1011.5</ele>
        <time>2017-03-13T08:57:02Z</time>
      </trkpt>
      <trkpt lat="43.7905" lon="7.10916">
        <ele>1011.5</ele>
        <time>2017-03-13T08:57:05Z</time>
      </trkpt>
      <trkpt lat="43.7905" lon="7.10917">
        <ele>1010.1</ele>
        <time>2017-03-13T08:57:09Z</time>
      </trkpt>
      <trkpt lat="43.7905" lon="7.10917">
        <ele>1011.7</ele>
        <time>2017-03-13T08:57:09Z</time>
      </trkpt>
      <trkpt lat="43.7905" lon="7.10917">
        <ele>1011.7</ele>
        <time>2017-03-13T08:58:35Z</time>
      </trkpt>
      <trkpt lat="43.79048" lon="7.10936">
        <ele>1011.1</ele>
        <time>2017-03-13T08:58:37Z</time>
      </trkpt>
      <trkpt lat="43.79048" lon="7.10936">
        <ele>1010.5</ele>
        <time>2017-03-13T08:58:45Z</time>
      </trkpt>
      <trkpt lat="43.79048" lon="7.1095">
        <ele>1011.2</ele>
        <time>2017-03-13T08:58:48Z</time>
      </trkpt>
      <trkpt lat="43.79049" lon="7.10964">
        <ele>1011.2</ele>
        <time>2017-03-13T08:58:55Z</time>
      </trkpt>
      <trkpt lat="43.79049" lon="7.10964">
        <ele>1008.4</ele>
        <time>2017-03-13T08:59:03Z</time>
      </trkpt>
      <trkpt lat="43.79051" lon="7.10985">
        <ele>1010.1</ele>
        <time>2017-03-13T08:59:07Z</time>
      </trkpt>
      <trkpt lat="43.79051" lon="7.10992">
        <ele>1010.1</ele>
        <time>2017-03-13T08:59:11Z</time>
      </trkpt>
      <trkpt lat="43.79049" lon="7.10999">
        <ele>1009.8</ele>
        <time>2017-03-13T08:59:15Z</time>
      </trkpt>
      <trkpt lat="43.79047" lon="7.11006">
        <ele>1009.3</ele>
        <time>2017-03-13T08:59:19Z</time>
      </trkpt>
      <trkpt lat="43.79048" lon="7.1102">
        <ele>1008.8</ele>
        <time>2017-03-13T08:59:27Z</time>
      </trkpt>
      <trkpt lat="43.7905" lon="7.11032">
        <ele>1008.5</ele>
        <time>2017-03-13T08:59:34Z</time>
      </trkpt>
      <trkpt lat="43.79052" lon="7.11046">
        <ele>1008.1</ele>
        <time>2017-03-13T08:59:42Z</time>
      </trkpt>
      <trkpt lat="43.79056" lon="7.11058">
        <ele>1006.8</ele>
        <time>2017-03-13T08:59:48Z</time>
      </trkpt>
      <trkpt lat="43.79056" lon="7.11058">
        <ele>1002.7</ele>
        <time>2017-03-13T08:59:57Z</time>
      </trkpt>
      <trkpt lat="43.79058" lon="7.11075">
        <ele>1005.7</ele>
        <time>2017-03-13T08:59:58Z</time>
      </trkpt>
      <trkpt lat="43.79058" lon="7.11082">
        <ele>1005.4</ele>
        <time>2017-03-13T09:00:02Z</time>
      </trkpt>
      <trkpt lat="43.79058" lon="7.11082">
        <ele>999.7</ele>
        <time>2017-03-13T09:00:12Z</time>
      </trkpt>
      <trkpt lat="43.79065" lon="7.111">
        <ele>1004.3</ele>
        <time>2017-03-13T09:00:14Z</time>
      </trkpt>
      <trkpt lat="43.79067" lon="7.11114">
        <ele>1003.8</ele>
        <time>2017-03-13T09:00:21Z</time>
      </trkpt>
      <trkpt lat="43.79067" lon="7.11121">
        <ele>1003.5</ele>
        <time>2017-03-13T09:00:26Z</time>
      </trkpt>
      <trkpt lat="43.79072" lon="7.11139">
        <ele>1003.1</ele>
        <time>2017-03-13T09:00:36Z</time>
      </trkpt>
      <trkpt lat="43.79072" lon="7.11153">
        <ele>1002.1</ele>
        <time>2017-03-13T09:00:42Z</time>
      </trkpt>
      <trkpt lat="43.79074" lon="7.1116">
        <ele>1001.9</ele>
        <time>2017-03-13T09:00:45Z</time>
      </trkpt>
      <trkpt lat="43.79077" lon="7.11165">
        <ele>1001.9</ele>
        <time>2017-03-13T09:00:48Z</time>
      </trkpt>
      <trkpt lat="43.79081" lon="7.11171">
        <ele>1001.1</ele>
        <time>2017-03-13T09:00:52Z</time>
      </trkpt>
      <trkpt lat="43.79084" lon="7.11177">
        <ele>1000.7</ele>
        <time>2017-03-13T09:00:55Z</time>
      </trkpt>
      <trkpt lat="43.79088" lon="7.1118">
        <ele>1000.7</ele>
        <time>2017-03-13T09:00:58Z</time>
      </trkpt>
      <trkpt lat="43.79088" lon="7.1118">
        <ele>996.8</ele>
        <time>2017-03-13T09:01:06Z</time>
      </trkpt>
      <trkpt lat="43.79095" lon="7.11186">
        <ele>1000.4</ele>
        <time>2017-03-13T09:01:07Z</time>
      </trkpt>
      <trkpt lat="43.791" lon="7.11189">
        <ele>1000.4</ele>
        <time>2017-03-13T09:01:11Z</time>
      </trkpt>
      <trkpt lat="43.79104" lon="7.11191">
        <ele>1000.4</ele>
        <time>2017-03-13T09:01:14Z</time>
      </trkpt>
      <trkpt lat="43.79109" lon="7.11194">
        <ele>1000.3</ele>
        <time>2017-03-13T09:01:17Z</time>
      </trkpt>
      <trkpt lat="43.79111" lon="7.112">
        <ele>1000.2</ele>
        <time>2017-03-13T09:01:21Z</time>
      </trkpt>
      <trkpt lat="43.79111" lon="7.112">
        <ele>996.7</ele>
        <time>2017-03-13T09:01:30Z</time>
      </trkpt>
      <trkpt lat="43.79118" lon="7.11216">
        <ele>999.8</ele>
        <time>2017-03-13T09:01:33Z</time>
      </trkpt>
      <trkpt lat="43.79121" lon="7.11222">
        <ele>999.6</ele>
        <time>2017-03-13T09:01:37Z</time>
      </trkpt>
      <trkpt lat="43.79132" lon="7.11233">
        <ele>999.4</ele>
        <time>2017-03-13T09:01:45Z</time>
      </trkpt>
      <trkpt lat="43.79141" lon="7.11237">
        <ele>999</ele>
        <time>2017-03-13T09:01:51Z</time>
      </trkpt>
      <trkpt lat="43.79147" lon="7.11241">
        <ele>998.6</ele>
        <time>2017-03-13T09:01:56Z</time>
      </trkpt>
      <trkpt lat="43.79161" lon="7.11243">
        <ele>998.5</ele>
        <time>2017-03-13T09:02:06Z</time>
      </trkpt>
      <trkpt lat="43.79161" lon="7.11243">
        <ele>1000.1</ele>
        <time>2017-03-13T09:02:15Z</time>
      </trkpt>
      <trkpt lat="43.79175" lon="7.11245">
        <ele>998.1</ele>
        <time>2017-03-13T09:02:16Z</time>
      </trkpt>
      <trkpt lat="43.79179" lon="7.11249">
        <ele>997.7</ele>
        <time>2017-03-13T09:02:20Z</time>
      </trkpt>
      <trkpt lat="43.79179" lon="7.11257">
        <ele>997.3</ele>
        <time>2017-03-13T09:02:24Z</time>
      </trkpt>
      <trkpt lat="43.79181" lon="7.11264">
        <ele>997</ele>
        <time>2017-03-13T09:02:28Z</time>
      </trkpt>
      <trkpt lat="43.79184" lon="7.1127">
        <ele>997</ele>
        <time>2017-03-13T09:02:32Z</time>
      </trkpt>
      <trkpt lat="43.79188" lon="7.11273">
        <ele>996.8</ele>
        <time>2017-03-13T09:02:35Z</time>
      </trkpt>
      <trkpt lat="43.79194" lon="7.11283">
        <ele>996.6</ele>
        <time>2017-03-13T09:02:43Z</time>
      </trkpt>
      <trkpt lat="43.79201" lon="7.11297">
        <ele>996.4</ele>
        <time>2017-03-13T09:02:52Z</time>
      </trkpt>
      <trkpt lat="43.79201" lon="7.11297">
        <ele>998</ele>
        <time>2017-03-13T09:03:01Z</time>
      </trkpt>
      <trkpt lat="43.79212" lon="7.11311">
        <ele>995.6</ele>
        <time>2017-03-13T09:03:02Z</time>
      </trkpt>
      <trkpt lat="43.79215" lon="7.11316">
        <ele>995.3</ele>
        <time>2017-03-13T09:03:06Z</time>
      </trkpt>
      <trkpt lat="43.7922" lon="7.11322">
        <ele>995.1</ele>
        <time>2017-03-13T09:03:11Z</time>
      </trkpt>
      <trkpt lat="43.7922" lon="7.11322">
        <ele>996.5</ele>
        <time>2017-03-13T09:03:21Z</time>
      </trkpt>
      <trkpt lat="43.79229" lon="7.11332">
        <ele>993.3</ele>
        <time>2017-03-13T09:03:23Z</time>
      </trkpt>
      <trkpt lat="43.79229" lon="7.11332">
        <ele>995.4</ele>
        <time>2017-03-13T09:03:23Z</time>
      </trkpt>
      <trkpt lat="43.79229" lon="7.11332">
        <ele>995.4</ele>
        <time>2017-03-13T09:03:31Z</time>
      </trkpt>
      <trkpt lat="43.79239" lon="7.11334">
        <ele>994.3</ele>
        <time>2017-03-13T09:03:31Z</time>
      </trkpt>
      <trkpt lat="43.79244" lon="7.11335">
        <ele>994.1</ele>
        <time>2017-03-13T09:03:35Z</time>
      </trkpt>
      <trkpt lat="43.79248" lon="7.11338">
        <ele>993.9</ele>
        <time>2017-03-13T09:03:40Z</time>
      </trkpt>
      <trkpt lat="43.79254" lon="7.11339">
        <ele>993.9</ele>
        <time>2017-03-13T09:03:43Z</time>
      </trkpt>
      <trkpt lat="43.7926" lon="7.11337">
        <ele>993.8</ele>
        <time>2017-03-13T09:03:46Z</time>
      </trkpt>
      <trkpt lat="43.79265" lon="7.11334">
        <ele>993.8</ele>
        <time>2017-03-13T09:03:49Z</time>
      </trkpt>
      <trkpt lat="43.79274" lon="7.11327">
        <ele>993</ele>
        <time>2017-03-13T09:03:56Z</time>
      </trkpt>
      <trkpt lat="43.79278" lon="7.11323">
        <ele>992.5</ele>
        <time>2017-03-13T09:04:00Z</time>
      </trkpt>
      <trkpt lat="43.79283" lon="7.11321">
        <ele>992.4</ele>
        <time>2017-03-13T09:04:04Z</time>
      </trkpt>
      <trkpt lat="43.79288" lon="7.11323">
        <ele>992.2</ele>
        <time>2017-03-13T09:04:07Z</time>
      </trkpt>
      <trkpt lat="43.79292" lon="7.11327">
        <ele>991.7</ele>
        <time>2017-03-13T09:04:11Z</time>
      </trkpt>
      <trkpt lat="43.79296" lon="7.11332">
        <ele>991.7</ele>
        <time>2017-03-13T09:04:15Z</time>
      </trkpt>
      <trkpt lat="43.79299" lon="7.11344">
        <ele>991.3</ele>
        <time>2017-03-13T09:04:23Z</time>
      </trkpt>
      <trkpt lat="43.79301" lon="7.11351">
        <ele>991.1</ele>
        <time>2017-03-13T09:04:26Z</time>
      </trkpt>
      <trkpt lat="43.79305" lon="7.11354">
        <ele>991.1</ele>
        <time>2017-03-13T09:04:29Z</time>
      </trkpt>
      <trkpt lat="43.7931" lon="7.11359">
        <ele>991</ele>
        <time>2017-03-13T09:04:33Z</time>
      </trkpt>
      <trkpt lat="43.79317" lon="7.11368">
        <ele>990.8</ele>
        <time>2017-03-13T09:04:39Z</time>
      </trkpt>
      <trkpt lat="43.79322" lon="7.11369">
        <ele>990.5</ele>
        <time>2017-03-13T09:04:43Z</time>
      </trkpt>
      <trkpt lat="43.79327" lon="7.11372">
        <ele>990.5</ele>
        <time>2017-03-13T09:04:47Z</time>
      </trkpt>
      <trkpt lat="43.79331" lon="7.11377">
        <ele>990.3</ele>
        <time>2017-03-13T09:04:51Z</time>
      </trkpt>
      <trkpt lat="43.79335" lon="7.1138">
        <ele>989.9</ele>
        <time>2017-03-13T09:04:55Z</time>
      </trkpt>
      <trkpt lat="43.79339" lon="7.11386">
        <ele>989.9</ele>
        <time>2017-03-13T09:04:59Z</time>
      </trkpt>
      <trkpt lat="43.79339" lon="7.11386">
        <ele>983.1</ele>
        <time>2017-03-13T09:05:07Z</time>
      </trkpt>
      <trkpt lat="43.79349" lon="7.11402">
        <ele>986.7</ele>
        <time>2017-03-13T09:05:10Z</time>
      </trkpt>
      <trkpt lat="43.79349" lon="7.11408">
        <ele>986</ele>
        <time>2017-03-13T09:05:14Z</time>
      </trkpt>
      <trkpt lat="43.79348" lon="7.11416">
        <ele>985.3</ele>
        <time>2017-03-13T09:05:19Z</time>
      </trkpt>
      <trkpt lat="43.79349" lon="7.11423">
        <ele>984.5</ele>
        <time>2017-03-13T09:05:23Z</time>
      </trkpt>
      <trkpt lat="43.79348" lon="7.1143">
        <ele>984.5</ele>
        <time>2017-03-13T09:05:26Z</time>
      </trkpt>
      <trkpt lat="43.79348" lon="7.1143">
        <ele>981.3</ele>
        <time>2017-03-13T09:05:34Z</time>
      </trkpt>
      <trkpt lat="43.79345" lon="7.11451">
        <ele>983.3</ele>
        <time>2017-03-13T09:05:36Z</time>
      </trkpt>
      <trkpt lat="43.79346" lon="7.11458">
        <ele>982.2</ele>
        <time>2017-03-13T09:05:39Z</time>
      </trkpt>
      <trkpt lat="43.79347" lon="7.11464">
        <ele>982.2</ele>
        <time>2017-03-13T09:05:42Z</time>
      </trkpt>
      <trkpt lat="43.79348" lon="7.11477">
        <ele>981.3</ele>
        <time>2017-03-13T09:05:48Z</time>
      </trkpt>
      <trkpt lat="43.79349" lon="7.11483">
        <ele>980.3</ele>
        <time>2017-03-13T09:05:51Z</time>
      </trkpt>
      <trkpt lat="43.79349" lon="7.11489">
        <ele>980.3</ele>
        <time>2017-03-13T09:05:54Z</time>
      </trkpt>
      <trkpt lat="43.79349" lon="7.11497">
        <ele>979.5</ele>
        <time>2017-03-13T09:05:58Z</time>
      </trkpt>
      <trkpt lat="43.79351" lon="7.11504">
        <ele>979.3</ele>
        <time>2017-03-13T09:06:01Z</time>
      </trkpt>
      <trkpt lat="43.79354" lon="7.1151">
        <ele>979.3</ele>
        <time>2017-03-13T09:06:04Z</time>
      </trkpt>
      <trkpt lat="43.79356" lon="7.11522">
        <ele>979.2</ele>
        <time>2017-03-13T09:06:10Z</time>
      </trkpt>
      <trkpt lat="43.79355" lon="7.11528">
        <ele>978.9</ele>
        <time>2017-03-13T09:06:13Z</time>
      </trkpt>
      <trkpt lat="43.79356" lon="7.11536">
        <ele>978.9</ele>
        <time>2017-03-13T09:06:17Z</time>
      </trkpt>
      <trkpt lat="43.79357" lon="7.11546">
        <ele>978.5</ele>
        <time>2017-03-13T09:06:22Z</time>
      </trkpt>
      <trkpt lat="43.79356" lon="7.11552">
        <ele>978.3</ele>
        <time>2017-03-13T09:06:26Z</time>
      </trkpt>
      <trkpt lat="43.79353" lon="7.11559">
        <ele>977.7</ele>
        <time>2017-03-13T09:06:30Z</time>
      </trkpt>
      <trkpt lat="43.79352" lon="7.11566">
        <ele>977.4</ele>
        <time>2017-03-13T09:06:35Z</time>
      </trkpt>
      <trkpt lat="43.79352" lon="7.11572">
        <ele>977.1</ele>
        <time>2017-03-13T09:06:39Z</time>
      </trkpt>
      <trkpt lat="43.79351" lon="7.11586">
        <ele>977.1</ele>
        <time>2017-03-13T09:06:46Z</time>
      </trkpt>
      <trkpt lat="43.79349" lon="7.11592">
        <ele>977</ele>
        <time>2017-03-13T09:06:49Z</time>
      </trkpt>
      <trkpt lat="43.79346" lon="7.11605">
        <ele>976.8</ele>
        <time>2017-03-13T09:06:56Z</time>
      </trkpt>
      <trkpt lat="43.79346" lon="7.11618">
        <ele>976.7</ele>
        <time>2017-03-13T09:07:03Z</time>
      </trkpt>
      <trkpt lat="43.79347" lon="7.11632">
        <ele>976.7</ele>
        <time>2017-03-13T09:07:10Z</time>
      </trkpt>
      <trkpt lat="43.79349" lon="7.11645">
        <ele>976.6</ele>
        <time>2017-03-13T09:07:17Z</time>
      </trkpt>
      <trkpt lat="43.7935" lon="7.11652">
        <ele>976.5</ele>
        <time>2017-03-13T09:07:22Z</time>
      </trkpt>
      <trkpt lat="43.79349" lon="7.11665">
        <ele>976.1</ele>
        <time>2017-03-13T09:07:29Z</time>
      </trkpt>
      <trkpt lat="43.79351" lon="7.11678">
        <ele>975.9</ele>
        <time>2017-03-13T09:07:36Z</time>
      </trkpt>
      <trkpt lat="43.79349" lon="7.11691">
        <ele>975.7</ele>
        <time>2017-03-13T09:07:43Z</time>
      </trkpt>
      <trkpt lat="43.79347" lon="7.11699">
        <ele>975.3</ele>
        <time>2017-03-13T09:07:47Z</time>
      </trkpt>
      <trkpt lat="43.79346" lon="7.11706">
        <ele>975.1</ele>
        <time>2017-03-13T09:07:51Z</time>
      </trkpt>
      <trkpt lat="43.79346" lon="7.11713">
        <ele>975</ele>
        <time>2017-03-13T09:07:54Z</time>
      </trkpt>
      <trkpt lat="43.79344" lon="7.11727">
        <ele>974.9</ele>
        <time>2017-03-13T09:08:01Z</time>
      </trkpt>
      <trkpt lat="43.79342" lon="7.11735">
        <ele>974.6</ele>
        <time>2017-03-13T09:08:05Z</time>
      </trkpt>
      <trkpt lat="43.79345" lon="7.11755">
        <ele>974.1</ele>
        <time>2017-03-13T09:08:15Z</time>
      </trkpt>
      <trkpt lat="43.79345" lon="7.11762">
        <ele>974.1</ele>
        <time>2017-03-13T09:08:18Z</time>
      </trkpt>
      <trkpt lat="43.79345" lon="7.11781">
        <ele>973.9</ele>
        <time>2017-03-13T09:08:27Z</time>
      </trkpt>
      <trkpt lat="43.79345" lon="7.11788">
        <ele>973.8</ele>
        <time>2017-03-13T09:08:30Z</time>
      </trkpt>
      <trkpt lat="43.79345" lon="7.11795">
        <ele>973.8</ele>
        <time>2017-03-13T09:08:33Z</time>
      </trkpt>
      <trkpt lat="43.79345" lon="7.11795">
        <ele>970.3</ele>
        <time>2017-03-13T09:08:41Z</time>
      </trkpt>
      <trkpt lat="43.79345" lon="7.11816">
        <ele>972.9</ele>
        <time>2017-03-13T09:08:43Z</time>
      </trkpt>
      <trkpt lat="43.79345" lon="7.11816">
        <ele>970.4</ele>
        <time>2017-03-13T09:08:51Z</time>
      </trkpt>
      <trkpt lat="43.79342" lon="7.11835">
        <ele>972.6</ele>
        <time>2017-03-13T09:08:54Z</time>
      </trkpt>
      <trkpt lat="43.7934" lon="7.11841">
        <ele>972.6</ele>
        <time>2017-03-13T09:08:59Z</time>
      </trkpt>
      <trkpt lat="43.7934" lon="7.11841">
        <ele>971.2</ele>
        <time>2017-03-13T09:09:07Z</time>
      </trkpt>
      <trkpt lat="43.79341" lon="7.11855">
        <ele>972.4</ele>
        <time>2017-03-13T09:09:11Z</time>
      </trkpt>
      <trkpt lat="43.79341" lon="7.11855">
        <ele>972.4</ele>
        <time>2017-03-13T09:09:20Z</time>
      </trkpt>
      <trkpt lat="43.79338" lon="7.11875">
        <ele>972.7</ele>
        <time>2017-03-13T09:09:31Z</time>
      </trkpt>
      <trkpt lat="43.79338" lon="7.11875">
        <ele>975.4</ele>
        <time>2017-03-13T09:09:42Z</time>
      </trkpt>
      <trkpt lat="43.79338" lon="7.11875">
        <ele>975.4</ele>
        <time>2017-03-13T09:09:53Z</time>
      </trkpt>
      <trkpt lat="43.7933" lon="7.11904">
        <ele>973.9</ele>
        <time>2017-03-13T09:09:58Z</time>
      </trkpt>
      <trkpt lat="43.79328" lon="7.1191">
        <ele>974.1</ele>
        <time>2017-03-13T09:10:03Z</time>
      </trkpt>
      <trkpt lat="43.79327" lon="7.11917">
        <ele>974.4</ele>
        <time>2017-03-13T09:10:09Z</time>
      </trkpt>
      <trkpt lat="43.79326" lon="7.11923">
        <ele>974.6</ele>
        <time>2017-03-13T09:10:14Z</time>
      </trkpt>
      <trkpt lat="43.79326" lon="7.11923">
        <ele>983.2</ele>
        <time>2017-03-13T09:10:24Z</time>
      </trkpt>
      <trkpt lat="43.79326" lon="7.11923">
        <ele>983.2</ele>
        <time>2017-03-13T09:10:33Z</time>
      </trkpt>
      <trkpt lat="43.79324" lon="7.1195">
        <ele>976.4</ele>
        <time>2017-03-13T09:10:37Z</time>
      </trkpt>
      <trkpt lat="43.79325" lon="7.11957">
        <ele>977.2</ele>
        <time>2017-03-13T09:10:42Z</time>
      </trkpt>
      <trkpt lat="43.79325" lon="7.11964">
        <ele>978.1</ele>
        <time>2017-03-13T09:10:48Z</time>
      </trkpt>
      <trkpt lat="43.79325" lon="7.1197">
        <ele>978.4</ele>
        <time>2017-03-13T09:10:53Z</time>
      </trkpt>
      <trkpt lat="43.79325" lon="7.1197">
        <ele>989.1</ele>
        <time>2017-03-13T09:11:02Z</time>
      </trkpt>
      <trkpt lat="43.79323" lon="7.11984">
        <ele>979.2</ele>
        <time>2017-03-13T09:11:03Z</time>
      </trkpt>
      <trkpt lat="43.79324" lon="7.11997">
        <ele>981.2</ele>
        <time>2017-03-13T09:11:11Z</time>
      </trkpt>
      <trkpt lat="43.79325" lon="7.12005">
        <ele>982.6</ele>
        <time>2017-03-13T09:11:16Z</time>
      </trkpt>
      <trkpt lat="43.79324" lon="7.12013">
        <ele>982.9</ele>
        <time>2017-03-13T09:11:22Z</time>
      </trkpt>
      <trkpt lat="43.79325" lon="7.1202">
        <ele>983.2</ele>
        <time>2017-03-13T09:11:27Z</time>
      </trkpt>
      <trkpt lat="43.79325" lon="7.12027">
        <ele>983.3</ele>
        <time>2017-03-13T09:11:32Z</time>
      </trkpt>
      <trkpt lat="43.79324" lon="7.12037">
        <ele>983.6</ele>
        <time>2017-03-13T09:11:39Z</time>
      </trkpt>
      <trkpt lat="43.79324" lon="7.12044">
        <ele>984</ele>
        <time>2017-03-13T09:11:43Z</time>
      </trkpt>
      <trkpt lat="43.79324" lon="7.12051">
        <ele>984.7</ele>
        <time>2017-03-13T09:11:48Z</time>
      </trkpt>
      <trkpt lat="43.79324" lon="7.12058">
        <ele>985.8</ele>
        <time>2017-03-13T09:11:53Z</time>
      </trkpt>
      <trkpt lat="43.79324" lon="7.12066">
        <ele>987.6</ele>
        <time>2017-03-13T09:11:59Z</time>
      </trkpt>
      <trkpt lat="43.79323" lon="7.12073">
        <ele>988.1</ele>
        <time>2017-03-13T09:12:04Z</time>
      </trkpt>
      <trkpt lat="43.79324" lon="7.1208">
        <ele>988.8</ele>
        <time>2017-03-13T09:12:08Z</time>
      </trkpt>
      <trkpt lat="43.79324" lon="7.12093">
        <ele>989.2</ele>
        <time>2017-03-13T09:12:16Z</time>
      </trkpt>
      <trkpt lat="43.79325" lon="7.12107">
        <ele>989.5</ele>
        <time>2017-03-13T09:12:24Z</time>
      </trkpt>
      <trkpt lat="43.79325" lon="7.12114">
        <ele>989.7</ele>
        <time>2017-03-13T09:12:28Z</time>
      </trkpt>
      <trkpt lat="43.79325" lon="7.12126">
        <ele>989.9</ele>
        <time>2017-03-13T09:12:36Z</time>
      </trkpt>
      <trkpt lat="43.79326" lon="7.12132">
        <ele>990</ele>
        <time>2017-03-13T09:12:40Z</time>
      </trkpt>
      <trkpt lat="43.79326" lon="7.12139">
        <ele>990</ele>
        <time>2017-03-13T09:12:44Z</time>
      </trkpt>
      <trkpt lat="43.79326" lon="7.12139">
        <ele>998.3</ele>
        <time>2017-03-13T09:12:53Z</time>
      </trkpt>
      <trkpt lat="43.79327" lon="7.12158">
        <ele>990.2</ele>
        <time>2017-03-13T09:12:58Z</time>
      </trkpt>
      <trkpt lat="43.79327" lon="7.12165">
        <ele>990.6</ele>
        <time>2017-03-13T09:13:02Z</time>
      </trkpt>
      <trkpt lat="43.79326" lon="7.12173">
        <ele>991.5</ele>
        <time>2017-03-13T09:13:07Z</time>
      </trkpt>
      <trkpt lat="43.79327" lon="7.1218">
        <ele>991.8</ele>
        <time>2017-03-13T09:13:12Z</time>
      </trkpt>
      <trkpt lat="43.79327" lon="7.12193">
        <ele>992.1</ele>
        <time>2017-03-13T09:13:21Z</time>
      </trkpt>
      <trkpt lat="43.79323" lon="7.122">
        <ele>992.4</ele>
        <time>2017-03-13T09:13:25Z</time>
      </trkpt>
      <trkpt lat="43.79326" lon="7.1221">
        <ele>993.8</ele>
        <time>2017-03-13T09:13:32Z</time>
      </trkpt>
      <trkpt lat="43.79325" lon="7.12216">
        <ele>994.1</ele>
        <time>2017-03-13T09:13:36Z</time>
      </trkpt>
      <trkpt lat="43.79325" lon="7.12222">
        <ele>994.6</ele>
        <time>2017-03-13T09:13:40Z</time>
      </trkpt>
      <trkpt lat="43.79324" lon="7.12229">
        <ele>994.6</ele>
        <time>2017-03-13T09:13:44Z</time>
      </trkpt>
      <trkpt lat="43.79324" lon="7.12229">
        <ele>1000.3</ele>
        <time>2017-03-13T09:13:53Z</time>
      </trkpt>
      <trkpt lat="43.79321" lon="7.12248">
        <ele>995.3</ele>
        <time>2017-03-13T09:13:56Z</time>
      </trkpt>
      <trkpt lat="43.79319" lon="7.12256">
        <ele>995.5</ele>
        <time>2017-03-13T09:14:00Z</time>
      </trkpt>
      <trkpt lat="43.79316" lon="7.12268">
        <ele>995.8</ele>
        <time>2017-03-13T09:14:07Z</time>
      </trkpt>
      <trkpt lat="43.79316" lon="7.12268">
        <ele>1000.1</ele>
        <time>2017-03-13T09:14:15Z</time>
      </trkpt>
      <trkpt lat="43.79312" lon="7.12287">
        <ele>995.9</ele>
        <time>2017-03-13T09:14:17Z</time>
      </trkpt>
      <trkpt lat="43.79311" lon="7.12293">
        <ele>996</ele>
        <time>2017-03-13T09:14:21Z</time>
      </trkpt>
      <trkpt lat="43.79311" lon="7.123">
        <ele>996</ele>
        <time>2017-03-13T09:14:25Z</time>
      </trkpt>
      <trkpt lat="43.79312" lon="7.12306">
        <ele>996.1</ele>
        <time>2017-03-13T09:14:31Z</time>
      </trkpt>
      <trkpt lat="43.79312" lon="7.12306">
        <ele>1000.1</ele>
        <time>2017-03-13T09:14:40Z</time>
      </trkpt>
      <trkpt lat="43.79314" lon="7.1232">
        <ele>996.4</ele>
        <time>2017-03-13T09:14:41Z</time>
      </trkpt>
      <trkpt lat="43.79314" lon="7.12327">
        <ele>996.4</ele>
        <time>2017-03-13T09:14:46Z</time>
      </trkpt>
      <trkpt lat="43.79313" lon="7.12334">
        <ele>996.6</ele>
        <time>2017-03-13T09:14:51Z</time>
      </trkpt>
      <trkpt lat="43.79313" lon="7.12334">
        <ele>1001.5</ele>
        <time>2017-03-13T09:15:00Z</time>
      </trkpt>
      <trkpt lat="43.79307" lon="7.12353">
        <ele>997.8</ele>
        <time>2017-03-13T09:15:04Z</time>
      </trkpt>
      <trkpt lat="43.79307" lon="7.1236">
        <ele>998.1</ele>
        <time>2017-03-13T09:15:09Z</time>
      </trkpt>
      <trkpt lat="43.79307" lon="7.1236">
        <ele>1003.9</ele>
        <time>2017-03-13T09:15:21Z</time>
      </trkpt>
      <trkpt lat="43.79304" lon="7.12377">
        <ele>999.9</ele>
        <time>2017-03-13T09:15:24Z</time>
      </trkpt>
      <trkpt lat="43.79303" lon="7.12385">
        <ele>1001.3</ele>
        <time>2017-03-13T09:15:33Z</time>
      </trkpt>
      <trkpt lat="43.79303" lon="7.12385">
        <ele>1006.8</ele>
        <time>2017-03-13T09:15:42Z</time>
      </trkpt>
      <trkpt lat="43.79298" lon="7.12403">
        <ele>1001.6</ele>
        <time>2017-03-13T09:15:46Z</time>
      </trkpt>
      <trkpt lat="43.79297" lon="7.1241">
        <ele>1001.7</ele>
        <time>2017-03-13T09:15:51Z</time>
      </trkpt>
      <trkpt lat="43.79297" lon="7.12416">
        <ele>1001.8</ele>
        <time>2017-03-13T09:15:56Z</time>
      </trkpt>
      <trkpt lat="43.79298" lon="7.12423">
        <ele>1002</ele>
        <time>2017-03-13T09:16:01Z</time>
      </trkpt>
      <trkpt lat="43.79297" lon="7.12429">
        <ele>1002.1</ele>
        <time>2017-03-13T09:16:06Z</time>
      </trkpt>
      <trkpt lat="43.79297" lon="7.12429">
        <ele>1012.5</ele>
        <time>2017-03-13T09:16:15Z</time>
      </trkpt>
      <trkpt lat="43.79292" lon="7.12441">
        <ele>1002.4</ele>
        <time>2017-03-13T09:16:16Z</time>
      </trkpt>
      <trkpt lat="43.79291" lon="7.12448">
        <ele>1002.5</ele>
        <time>2017-03-13T09:16:22Z</time>
      </trkpt>
      <trkpt lat="43.79291" lon="7.12448">
        <ele>1015.5</ele>
        <time>2017-03-13T09:16:33Z</time>
      </trkpt>
      <trkpt lat="43.79286" lon="7.12467">
        <ele>1004.2</ele>
        <time>2017-03-13T09:16:39Z</time>
      </trkpt>
      <trkpt lat="43.79285" lon="7.12474">
        <ele>1005.8</ele>
        <time>2017-03-13T09:16:45Z</time>
      </trkpt>
      <trkpt lat="43.79283" lon="7.1248">
        <ele>1006.8</ele>
        <time>2017-03-13T09:16:51Z</time>
      </trkpt>
      <trkpt lat="43.79283" lon="7.1248">
        <ele>1019.5</ele>
        <time>2017-03-13T09:17:01Z</time>
      </trkpt>
      <trkpt lat="43.7928" lon="7.125">
        <ele>1009.5</ele>
        <time>2017-03-13T09:17:07Z</time>
      </trkpt>
      <trkpt lat="43.79279" lon="7.12507">
        <ele>1010.9</ele>
        <time>2017-03-13T09:17:12Z</time>
      </trkpt>
      <trkpt lat="43.79279" lon="7.12507">
        <ele>1021.1</ele>
        <time>2017-03-13T09:17:24Z</time>
      </trkpt>
      <trkpt lat="43.79275" lon="7.12525">
        <ele>1012.6</ele>
        <time>2017-03-13T09:17:29Z</time>
      </trkpt>
      <trkpt lat="43.79275" lon="7.12525">
        <ele>1022.4</ele>
        <time>2017-03-13T09:17:38Z</time>
      </trkpt>
      <trkpt lat="43.79275" lon="7.12525">
        <ele>1022.4</ele>
        <time>2017-03-13T09:17:47Z</time>
      </trkpt>
      <trkpt lat="43.79269" lon="7.12556">
        <ele>1013.5</ele>
        <time>2017-03-13T09:17:51Z</time>
      </trkpt>
      <trkpt lat="43.79268" lon="7.12563">
        <ele>1013.6</ele>
        <time>2017-03-13T09:17:56Z</time>
      </trkpt>
      <trkpt lat="43.79266" lon="7.12569">
        <ele>1014</ele>
        <time>2017-03-13T09:18:01Z</time>
      </trkpt>
      <trkpt lat="43.79266" lon="7.1257">
        <ele>1014.3</ele>
        <time>2017-03-13T09:18:02Z</time>
      </trkpt>
      <trkpt lat="43.79266" lon="7.12571">
        <ele>1018.3</ele>
        <time>2017-03-13T09:18:06Z</time>
      </trkpt>
      <trkpt lat="43.79266" lon="7.12571">
        <ele>1025.2</ele>
        <time>2017-03-13T09:18:06Z</time>
      </trkpt>
      <trkpt lat="43.79266" lon="7.12571">
        <ele>1025.2</ele>
        <time>2017-03-13T09:23:29Z</time>
      </trkpt>
      <trkpt lat="43.79265" lon="7.12585">
        <ele>1023.7</ele>
        <time>2017-03-13T09:23:30Z</time>
      </trkpt>
      <trkpt lat="43.79265" lon="7.12585">
        <ele>1025.2</ele>
        <time>2017-03-13T09:23:38Z</time>
      </trkpt>
      <trkpt lat="43.79264" lon="7.12586">
        <ele>1023.7</ele>
        <time>2017-03-13T09:23:43Z</time>
      </trkpt>
      <trkpt lat="43.79264" lon="7.12586">
        <ele>1025.3</ele>
        <time>2017-03-13T09:23:51Z</time>
      </trkpt>
      <trkpt lat="43.79266" lon="7.12577">
        <ele>1024</ele>
        <time>2017-03-13T09:23:52Z</time>
      </trkpt>
      <trkpt lat="43.79265" lon="7.12575">
        <ele>1024.3</ele>
        <time>2017-03-13T09:23:56Z</time>
      </trkpt>
      <trkpt lat="43.79265" lon="7.12575">
        <ele>1025.3</ele>
        <time>2017-03-13T09:23:56Z</time>
      </trkpt>
      <trkpt lat="43.79265" lon="7.12575">
        <ele>1025.3</ele>
        <time>2017-03-13T09:24:09Z</time>
      </trkpt>
      <trkpt lat="43.79256" lon="7.12568">
        <ele>1024.6</ele>
        <time>2017-03-13T09:24:11Z</time>
      </trkpt>
      <trkpt lat="43.79252" lon="7.12565">
        <ele>1024.9</ele>
        <time>2017-03-13T09:24:16Z</time>
      </trkpt>
      <trkpt lat="43.79247" lon="7.12566">
        <ele>1025</ele>
        <time>2017-03-13T09:24:21Z</time>
      </trkpt>
      <trkpt lat="43.79245" lon="7.12564">
        <ele>1025.2</ele>
        <time>2017-03-13T09:24:25Z</time>
      </trkpt>
      <trkpt lat="43.79244" lon="7.12564">
        <ele>1027</ele>
        <time>2017-03-13T09:24:29Z</time>
      </trkpt>
      <trkpt lat="43.79244" lon="7.12564">
        <ele>1029.4</ele>
        <time>2017-03-13T09:24:29Z</time>
      </trkpt>
      <trkpt lat="43.79244" lon="7.12564">
        <ele>1029.4</ele>
        <time>2017-03-13T09:24:55Z</time>
      </trkpt>
      <trkpt lat="43.79228" lon="7.12549">
        <ele>1026.8</ele>
        <time>2017-03-13T09:24:56Z</time>
      </trkpt>
      <trkpt lat="43.79226" lon="7.12547">
        <ele>1027.3</ele>
        <time>2017-03-13T09:25:00Z</time>
      </trkpt>
      <trkpt lat="43.79225" lon="7.12545">
        <ele>1029.3</ele>
        <time>2017-03-13T09:25:04Z</time>
      </trkpt>
      <trkpt lat="43.79225" lon="7.12545">
        <ele>1034.4</ele>
        <time>2017-03-13T09:25:04Z</time>
      </trkpt>
      <trkpt lat="43.79225" lon="7.12545">
        <ele>1034.4</ele>
        <time>2017-03-13T09:25:48Z</time>
      </trkpt>
      <trkpt lat="43.79206" lon="7.12544">
        <ele>1030.8</ele>
        <time>2017-03-13T09:25:49Z</time>
      </trkpt>
      <trkpt lat="43.79206" lon="7.12544">
        <ele>1038.7</ele>
        <time>2017-03-13T09:25:57Z</time>
      </trkpt>
      <trkpt lat="43.79202" lon="7.12546">
        <ele>1031.6</ele>
        <time>2017-03-13T09:25:58Z</time>
      </trkpt>
      <trkpt lat="43.79198" lon="7.12544">
        <ele>1033.1</ele>
        <time>2017-03-13T09:26:06Z</time>
      </trkpt>
      <trkpt lat="43.79197" lon="7.12543">
        <ele>1036.6</ele>
        <time>2017-03-13T09:26:10Z</time>
      </trkpt>
      <trkpt lat="43.79197" lon="7.12543">
        <ele>1040.9</ele>
        <time>2017-03-13T09:26:10Z</time>
      </trkpt>
      <trkpt lat="43.79197" lon="7.12543">
        <ele>1040.9</ele>
        <time>2017-03-13T09:26:41Z</time>
      </trkpt>
      <trkpt lat="43.7918" lon="7.1254">
        <ele>1036.6</ele>
        <time>2017-03-13T09:26:42Z</time>
      </trkpt>
      <trkpt lat="43.79177" lon="7.12535">
        <ele>1037.4</ele>
        <time>2017-03-13T09:26:49Z</time>
      </trkpt>
      <trkpt lat="43.79177" lon="7.12535">
        <ele>1045.2</ele>
        <time>2017-03-13T09:26:57Z</time>
      </trkpt>
      <trkpt lat="43.79172" lon="7.12531">
        <ele>1041.4</ele>
        <time>2017-03-13T09:26:58Z</time>
      </trkpt>
      <trkpt lat="43.79172" lon="7.12531">
        <ele>1046.4</ele>
        <time>2017-03-13T09:26:58Z</time>
      </trkpt>
      <trkpt lat="43.79172" lon="7.12531">
        <ele>1046.4</ele>
        <time>2017-03-13T09:27:26Z</time>
      </trkpt>
      <trkpt lat="43.79156" lon="7.12522">
        <ele>1041.5</ele>
        <time>2017-03-13T09:27:27Z</time>
      </trkpt>
      <trkpt lat="43.79156" lon="7.12522">
        <ele>1050.8</ele>
        <time>2017-03-13T09:27:35Z</time>
      </trkpt>
      <trkpt lat="43.79156" lon="7.12522">
        <ele>1050.8</ele>
        <time>2017-03-13T09:27:44Z</time>
      </trkpt>
      <trkpt lat="43.79156" lon="7.12522">
        <ele>1050.8</ele>
        <time>2017-03-13T09:27:45Z</time>
      </trkpt>
      <trkpt lat="43.79156" lon="7.12522">
        <ele>1050.8</ele>
        <time>2017-03-13T09:28:11Z</time>
      </trkpt>
      <trkpt lat="43.79128" lon="7.12508">
        <ele>1048.9</ele>
        <time>2017-03-13T09:28:12Z</time>
      </trkpt>
      <trkpt lat="43.79128" lon="7.12508">
        <ele>1058</ele>
        <time>2017-03-13T09:28:20Z</time>
      </trkpt>
      <trkpt lat="43.79118" lon="7.12499">
        <ele>1050.8</ele>
        <time>2017-03-13T09:28:27Z</time>
      </trkpt>
      <trkpt lat="43.79118" lon="7.12492">
        <ele>1052.2</ele>
        <time>2017-03-13T09:28:34Z</time>
      </trkpt>
      <trkpt lat="43.7911" lon="7.12483">
        <ele>1053</ele>
        <time>2017-03-13T09:28:44Z</time>
      </trkpt>
      <trkpt lat="43.79106" lon="7.1248">
        <ele>1053.8</ele>
        <time>2017-03-13T09:28:50Z</time>
      </trkpt>
      <trkpt lat="43.79101" lon="7.12478">
        <ele>1055.4</ele>
        <time>2017-03-13T09:28:56Z</time>
      </trkpt>
      <trkpt lat="43.79096" lon="7.12478">
        <ele>1055.7</ele>
        <time>2017-03-13T09:29:00Z</time>
      </trkpt>
      <trkpt lat="43.79093" lon="7.12473">
        <ele>1056.6</ele>
        <time>2017-03-13T09:29:08Z</time>
      </trkpt>
      <trkpt lat="43.79088" lon="7.12475">
        <ele>1057</ele>
        <time>2017-03-13T09:29:14Z</time>
      </trkpt>
      <trkpt lat="43.79083" lon="7.12477">
        <ele>1057.3</ele>
        <time>2017-03-13T09:29:19Z</time>
      </trkpt>
      <trkpt lat="43.79083" lon="7.12477">
        <ele>1067.7</ele>
        <time>2017-03-13T09:29:27Z</time>
      </trkpt>
      <trkpt lat="43.79074" lon="7.12472">
        <ele>1058.5</ele>
        <time>2017-03-13T09:29:29Z</time>
      </trkpt>
      <trkpt lat="43.79069" lon="7.12473">
        <ele>1059</ele>
        <time>2017-03-13T09:29:35Z</time>
      </trkpt>
      <trkpt lat="43.79064" lon="7.12472">
        <ele>1059.3</ele>
        <time>2017-03-13T09:29:41Z</time>
      </trkpt>
      <trkpt lat="43.79064" lon="7.12472">
        <ele>1070.7</ele>
        <time>2017-03-13T09:29:49Z</time>
      </trkpt>
      <trkpt lat="43.7906" lon="7.12469">
        <ele>1066.1</ele>
        <time>2017-03-13T09:29:50Z</time>
      </trkpt>
      <trkpt lat="43.7906" lon="7.12469">
        <ele>1071.2</ele>
        <time>2017-03-13T09:29:50Z</time>
      </trkpt>
      <trkpt lat="43.7906" lon="7.12469">
        <ele>1071.2</ele>
        <time>2017-03-13T09:30:02Z</time>
      </trkpt>
      <trkpt lat="43.79053" lon="7.12482">
        <ele>1063.1</ele>
        <time>2017-03-13T09:30:03Z</time>
      </trkpt>
      <trkpt lat="43.79049" lon="7.12485">
        <ele>1064</ele>
        <time>2017-03-13T09:30:07Z</time>
      </trkpt>
      <trkpt lat="43.7904" lon="7.12481">
        <ele>1065.8</ele>
        <time>2017-03-13T09:30:19Z</time>
      </trkpt>
      <trkpt lat="43.79035" lon="7.1248">
        <ele>1066.4</ele>
        <time>2017-03-13T09:30:25Z</time>
      </trkpt>
      <trkpt lat="43.79035" lon="7.1248">
        <ele>1073.4</ele>
        <time>2017-03-13T09:30:33Z</time>
      </trkpt>
      <trkpt lat="43.79032" lon="7.12483">
        <ele>1070.9</ele>
        <time>2017-03-13T09:30:34Z</time>
      </trkpt>
      <trkpt lat="43.79032" lon="7.12483">
        <ele>1073.5</ele>
        <time>2017-03-13T09:30:34Z</time>
      </trkpt>
      <trkpt lat="43.79032" lon="7.12483">
        <ele>1073.5</ele>
        <time>2017-03-13T09:31:33Z</time>
      </trkpt>
      <trkpt lat="43.79016" lon="7.12495">
        <ele>1071.1</ele>
        <time>2017-03-13T09:31:34Z</time>
      </trkpt>
      <trkpt lat="43.79016" lon="7.12495">
        <ele>1071.2</ele>
        <time>2017-03-13T09:31:35Z</time>
      </trkpt>
      <trkpt lat="43.79015" lon="7.12494">
        <ele>1074</ele>
        <time>2017-03-13T09:31:39Z</time>
      </trkpt>
      <trkpt lat="43.79015" lon="7.12494">
        <ele>1071.2</ele>
        <time>2017-03-13T09:31:39Z</time>
      </trkpt>
      <trkpt lat="43.79015" lon="7.12494">
        <ele>1071.2</ele>
        <time>2017-03-13T09:45:20Z</time>
      </trkpt>
      <trkpt lat="43.79027" lon="7.12485">
        <ele>1076.8</ele>
        <time>2017-03-13T09:45:23Z</time>
      </trkpt>
      <trkpt lat="43.7903" lon="7.12482">
        <ele>1077.3</ele>
        <time>2017-03-13T09:45:27Z</time>
      </trkpt>
      <trkpt lat="43.79031" lon="7.12482">
        <ele>1078</ele>
        <time>2017-03-13T09:45:31Z</time>
      </trkpt>
      <trkpt lat="43.79031" lon="7.12482">
        <ele>1073.6</ele>
        <time>2017-03-13T09:45:31Z</time>
      </trkpt>
      <trkpt lat="43.79031" lon="7.12482">
        <ele>1073.6</ele>
        <time>2017-03-13T09:48:06Z</time>
      </trkpt>
      <trkpt lat="43.79044" lon="7.12485">
        <ele>1076.6</ele>
        <time>2017-03-13T09:48:08Z</time>
      </trkpt>
      <trkpt lat="43.79054" lon="7.12483">
        <ele>1076.6</ele>
        <time>2017-03-13T09:48:14Z</time>
      </trkpt>
      <trkpt lat="43.79055" lon="7.12477">
        <ele>1076.6</ele>
        <time>2017-03-13T09:48:19Z</time>
      </trkpt>
      <trkpt lat="43.79056" lon="7.1247">
        <ele>1076.6</ele>
        <time>2017-03-13T09:48:24Z</time>
      </trkpt>
      <trkpt lat="43.79056" lon="7.1247">
        <ele>1071.8</ele>
        <time>2017-03-13T09:48:33Z</time>
      </trkpt>
      <trkpt lat="43.7907" lon="7.1247">
        <ele>1076.3</ele>
        <time>2017-03-13T09:48:43Z</time>
      </trkpt>
      <trkpt lat="43.79075" lon="7.12469">
        <ele>1076.2</ele>
        <time>2017-03-13T09:48:46Z</time>
      </trkpt>
      <trkpt lat="43.79081" lon="7.1247">
        <ele>1076</ele>
        <time>2017-03-13T09:48:51Z</time>
      </trkpt>
      <trkpt lat="43.79086" lon="7.1247">
        <ele>1076</ele>
        <time>2017-03-13T09:48:55Z</time>
      </trkpt>
      <trkpt lat="43.79086" lon="7.1247">
        <ele>1067.3</ele>
        <time>2017-03-13T09:49:04Z</time>
      </trkpt>
      <trkpt lat="43.79104" lon="7.12479">
        <ele>1074.5</ele>
        <time>2017-03-13T09:49:09Z</time>
      </trkpt>
      <trkpt lat="43.79108" lon="7.12482">
        <ele>1074</ele>
        <time>2017-03-13T09:49:11Z</time>
      </trkpt>
      <trkpt lat="43.79113" lon="7.12484">
        <ele>1074</ele>
        <time>2017-03-13T09:49:15Z</time>
      </trkpt>
      <trkpt lat="43.79118" lon="7.12486">
        <ele>1073.3</ele>
        <time>2017-03-13T09:49:19Z</time>
      </trkpt>
      <trkpt lat="43.79119" lon="7.12492">
        <ele>1072.9</ele>
        <time>2017-03-13T09:49:24Z</time>
      </trkpt>
      <trkpt lat="43.79119" lon="7.12492">
        <ele>1060.8</ele>
        <time>2017-03-13T09:49:33Z</time>
      </trkpt>
      <trkpt lat="43.79125" lon="7.12505">
        <ele>1070.7</ele>
        <time>2017-03-13T09:49:40Z</time>
      </trkpt>
      <trkpt lat="43.7913" lon="7.12507">
        <ele>1070.7</ele>
        <time>2017-03-13T09:49:44Z</time>
      </trkpt>
      <trkpt lat="43.79135" lon="7.12509">
        <ele>1069.8</ele>
        <time>2017-03-13T09:49:47Z</time>
      </trkpt>
      <trkpt lat="43.79135" lon="7.12509">
        <ele>1056.6</ele>
        <time>2017-03-13T09:49:58Z</time>
      </trkpt>
      <trkpt lat="43.79147" lon="7.12519">
        <ele>1067.8</ele>
        <time>2017-03-13T09:50:05Z</time>
      </trkpt>
      <trkpt lat="43.79147" lon="7.12519">
        <ele>1053</ele>
        <time>2017-03-13T09:50:15Z</time>
      </trkpt>
      <trkpt lat="43.79157" lon="7.12521">
        <ele>1067.1</ele>
        <time>2017-03-13T09:50:16Z</time>
      </trkpt>
      <trkpt lat="43.79157" lon="7.12521">
        <ele>1050.6</ele>
        <time>2017-03-13T09:50:26Z</time>
      </trkpt>
      <trkpt lat="43.79165" lon="7.12529">
        <ele>1065.2</ele>
        <time>2017-03-13T09:50:28Z</time>
      </trkpt>
      <trkpt lat="43.79169" lon="7.12533">
        <ele>1064.8</ele>
        <time>2017-03-13T09:50:31Z</time>
      </trkpt>
      <trkpt lat="43.79169" lon="7.12533">
        <ele>1046.9</ele>
        <time>2017-03-13T09:50:43Z</time>
      </trkpt>
      <trkpt lat="43.79187" lon="7.12541">
        <ele>1061.3</ele>
        <time>2017-03-13T09:50:48Z</time>
      </trkpt>
      <trkpt lat="43.79192" lon="7.12543">
        <ele>1061.3</ele>
        <time>2017-03-13T09:50:52Z</time>
      </trkpt>
      <trkpt lat="43.79201" lon="7.12545">
        <ele>1060.9</ele>
        <time>2017-03-13T09:50:59Z</time>
      </trkpt>
      <trkpt lat="43.79201" lon="7.12545">
        <ele>1039.8</ele>
        <time>2017-03-13T09:51:09Z</time>
      </trkpt>
      <trkpt lat="43.79212" lon="7.12539">
        <ele>1057.6</ele>
        <time>2017-03-13T09:51:11Z</time>
      </trkpt>
      <trkpt lat="43.79221" lon="7.12537">
        <ele>1055.8</ele>
        <time>2017-03-13T09:51:21Z</time>
      </trkpt>
      <trkpt lat="43.79221" lon="7.12537">
        <ele>1035.4</ele>
        <time>2017-03-13T09:51:32Z</time>
      </trkpt>
      <trkpt lat="43.79221" lon="7.12537">
        <ele>1035.4</ele>
        <time>2017-03-13T09:51:43Z</time>
      </trkpt>
      <trkpt lat="43.79237" lon="7.12559">
        <ele>1047.8</ele>
        <time>2017-03-13T09:51:44Z</time>
      </trkpt>
      <trkpt lat="43.79242" lon="7.1256">
        <ele>1047.8</ele>
        <time>2017-03-13T09:51:48Z</time>
      </trkpt>
      <trkpt lat="43.79246" lon="7.12563">
        <ele>1047</ele>
        <time>2017-03-13T09:51:51Z</time>
      </trkpt>
      <trkpt lat="43.79251" lon="7.12565">
        <ele>1046.1</ele>
        <time>2017-03-13T09:51:55Z</time>
      </trkpt>
      <trkpt lat="43.79251" lon="7.12565">
        <ele>1027.8</ele>
        <time>2017-03-13T09:52:07Z</time>
      </trkpt>
      <trkpt lat="43.79265" lon="7.12571">
        <ele>1041.5</ele>
        <time>2017-03-13T09:52:10Z</time>
      </trkpt>
      <trkpt lat="43.79268" lon="7.12576">
        <ele>1040</ele>
        <time>2017-03-13T09:52:14Z</time>
      </trkpt>
      <trkpt lat="43.79268" lon="7.1258">
        <ele>1038.4</ele>
        <time>2017-03-13T09:52:17Z</time>
      </trkpt>
      <trkpt lat="43.79269" lon="7.1258">
        <ele>1034.8</ele>
        <time>2017-03-13T09:52:22Z</time>
      </trkpt>
      <trkpt lat="43.79269" lon="7.1258">
        <ele>1024.6</ele>
        <time>2017-03-13T09:52:22Z</time>
      </trkpt>
      <trkpt lat="43.79269" lon="7.1258">
        <ele>1024.6</ele>
        <time>2017-03-13T09:52:57Z</time>
      </trkpt>
      <trkpt lat="43.79262" lon="7.12605">
        <ele>1034.2</ele>
        <time>2017-03-13T09:52:57Z</time>
      </trkpt>
      <trkpt lat="43.79262" lon="7.12605">
        <ele>1024.7</ele>
        <time>2017-03-13T09:53:06Z</time>
      </trkpt>
      <trkpt lat="43.7926" lon="7.12615">
        <ele>1027.6</ele>
        <time>2017-03-13T09:53:08Z</time>
      </trkpt>
      <trkpt lat="43.7926" lon="7.12615">
        <ele>1024.4</ele>
        <time>2017-03-13T09:53:08Z</time>
      </trkpt>
      <trkpt lat="43.7926" lon="7.12615">
        <ele>1024.4</ele>
        <time>2017-03-13T09:53:31Z</time>
      </trkpt>
      <trkpt lat="43.79257" lon="7.12634">
        <ele>1029.3</ele>
        <time>2017-03-13T09:53:31Z</time>
      </trkpt>
      <trkpt lat="43.79257" lon="7.12634">
        <ele>1023.6</ele>
        <time>2017-03-13T09:53:40Z</time>
      </trkpt>
      <trkpt lat="43.79253" lon="7.12652">
        <ele>1027.7</ele>
        <time>2017-03-13T09:53:45Z</time>
      </trkpt>
      <trkpt lat="43.79252" lon="7.12659">
        <ele>1027.5</ele>
        <time>2017-03-13T09:53:49Z</time>
      </trkpt>
      <trkpt lat="43.79248" lon="7.12671">
        <ele>1027.2</ele>
        <time>2017-03-13T09:53:55Z</time>
      </trkpt>
      <trkpt lat="43.79248" lon="7.12671">
        <ele>1021.6</ele>
        <time>2017-03-13T09:54:04Z</time>
      </trkpt>
      <trkpt lat="43.79244" lon="7.12686">
        <ele>1026.9</ele>
        <time>2017-03-13T09:54:05Z</time>
      </trkpt>
      <trkpt lat="43.79244" lon="7.12694">
        <ele>1026.7</ele>
        <time>2017-03-13T09:54:09Z</time>
      </trkpt>
      <trkpt lat="43.79245" lon="7.12701">
        <ele>1026.7</ele>
        <time>2017-03-13T09:54:13Z</time>
      </trkpt>
      <trkpt lat="43.79249" lon="7.12707">
        <ele>1025.7</ele>
        <time>2017-03-13T09:54:18Z</time>
      </trkpt>
      <trkpt lat="43.79252" lon="7.12711">
        <ele>1025.5</ele>
        <time>2017-03-13T09:54:20Z</time>
      </trkpt>
      <trkpt lat="43.79254" lon="7.12717">
        <ele>1025.5</ele>
        <time>2017-03-13T09:54:23Z</time>
      </trkpt>
      <trkpt lat="43.79257" lon="7.12723">
        <ele>1025.3</ele>
        <time>2017-03-13T09:54:26Z</time>
      </trkpt>
      <trkpt lat="43.7926" lon="7.12728">
        <ele>1025.3</ele>
        <time>2017-03-13T09:54:29Z</time>
      </trkpt>
      <trkpt lat="43.7926" lon="7.12728">
        <ele>1014.4</ele>
        <time>2017-03-13T09:54:38Z</time>
      </trkpt>
      <trkpt lat="43.7927" lon="7.12742">
        <ele>1024.2</ele>
        <time>2017-03-13T09:54:41Z</time>
      </trkpt>
      <trkpt lat="43.79274" lon="7.12747">
        <ele>1023.4</ele>
        <time>2017-03-13T09:54:46Z</time>
      </trkpt>
      <trkpt lat="43.79279" lon="7.12749">
        <ele>1022.8</ele>
        <time>2017-03-13T09:54:50Z</time>
      </trkpt>
      <trkpt lat="43.79294" lon="7.12749">
        <ele>1022.7</ele>
        <time>2017-03-13T09:54:59Z</time>
      </trkpt>
      <trkpt lat="43.79299" lon="7.12752">
        <ele>1020.8</ele>
        <time>2017-03-13T09:55:03Z</time>
      </trkpt>
      <trkpt lat="43.79298" lon="7.12755">
        <ele>1020.3</ele>
        <time>2017-03-13T09:55:06Z</time>
      </trkpt>
      <trkpt lat="43.79298" lon="7.12756">
        <ele>1016.4</ele>
        <time>2017-03-13T09:55:11Z</time>
      </trkpt>
      <trkpt lat="43.79298" lon="7.12756">
        <ele>1012.3</ele>
        <time>2017-03-13T09:55:11Z</time>
      </trkpt>
      <trkpt lat="43.79298" lon="7.12756">
        <ele>1012.3</ele>
        <time>2017-03-13T09:55:31Z</time>
      </trkpt>
      <trkpt lat="43.793" lon="7.12741">
        <ele>1018.5</ele>
        <time>2017-03-13T09:55:31Z</time>
      </trkpt>
      <trkpt lat="43.79303" lon="7.12737">
        <ele>1017</ele>
        <time>2017-03-13T09:55:37Z</time>
      </trkpt>
      <trkpt lat="43.79303" lon="7.12737">
        <ele>1013.5</ele>
        <time>2017-03-13T09:55:46Z</time>
      </trkpt>
      <trkpt lat="43.79315" lon="7.12727">
        <ele>1016.5</ele>
        <time>2017-03-13T09:55:47Z</time>
      </trkpt>
      <trkpt lat="43.79315" lon="7.12727">
        <ele>1013.8</ele>
        <time>2017-03-13T09:55:57Z</time>
      </trkpt>
      <trkpt lat="43.7933" lon="7.12718">
        <ele>1016.2</ele>
        <time>2017-03-13T09:56:00Z</time>
      </trkpt>
      <trkpt lat="43.79334" lon="7.12719">
        <ele>1016.2</ele>
        <time>2017-03-13T09:56:03Z</time>
      </trkpt>
      <trkpt lat="43.7934" lon="7.12722">
        <ele>1016.1</ele>
        <time>2017-03-13T09:56:06Z</time>
      </trkpt>
      <trkpt lat="43.79349" lon="7.12718">
        <ele>1015.8</ele>
        <time>2017-03-13T09:56:14Z</time>
      </trkpt>
      <trkpt lat="43.79349" lon="7.12718">
        <ele>1013.5</ele>
        <time>2017-03-13T09:56:23Z</time>
      </trkpt>
      <trkpt lat="43.79357" lon="7.12709">
        <ele>1015.2</ele>
        <time>2017-03-13T09:56:25Z</time>
      </trkpt>
      <trkpt lat="43.79357" lon="7.12709">
        <ele>1013.2</ele>
        <time>2017-03-13T09:56:33Z</time>
      </trkpt>
      <trkpt lat="43.79362" lon="7.12693">
        <ele>1014.5</ele>
        <time>2017-03-13T09:56:35Z</time>
      </trkpt>
      <trkpt lat="43.79366" lon="7.12687">
        <ele>1014</ele>
        <time>2017-03-13T09:56:39Z</time>
      </trkpt>
      <trkpt lat="43.79369" lon="7.12681">
        <ele>1014</ele>
        <time>2017-03-13T09:56:42Z</time>
      </trkpt>
      <trkpt lat="43.79375" lon="7.12668">
        <ele>1013.2</ele>
        <time>2017-03-13T09:56:50Z</time>
      </trkpt>
      <trkpt lat="43.79381" lon="7.12658">
        <ele>1013.1</ele>
        <time>2017-03-13T09:56:56Z</time>
      </trkpt>
      <trkpt lat="43.79381" lon="7.12658">
        <ele>1011.6</ele>
        <time>2017-03-13T09:57:04Z</time>
      </trkpt>
      <trkpt lat="43.79393" lon="7.12648">
        <ele>1013.1</ele>
        <time>2017-03-13T09:57:05Z</time>
      </trkpt>
      <trkpt lat="43.79398" lon="7.12646">
        <ele>1012.7</ele>
        <time>2017-03-13T09:57:09Z</time>
      </trkpt>
      <trkpt lat="43.79402" lon="7.12642">
        <ele>1012.7</ele>
        <time>2017-03-13T09:57:12Z</time>
      </trkpt>
      <trkpt lat="43.79408" lon="7.12639">
        <ele>1012.5</ele>
        <time>2017-03-13T09:57:15Z</time>
      </trkpt>
      <trkpt lat="43.79413" lon="7.12637">
        <ele>1012.4</ele>
        <time>2017-03-13T09:57:18Z</time>
      </trkpt>
      <trkpt lat="43.79424" lon="7.12634">
        <ele>1012.2</ele>
        <time>2017-03-13T09:57:24Z</time>
      </trkpt>
      <trkpt lat="43.79429" lon="7.12631">
        <ele>1012</ele>
        <time>2017-03-13T09:57:28Z</time>
      </trkpt>
      <trkpt lat="43.79439" lon="7.12629">
        <ele>1011.9</ele>
        <time>2017-03-13T09:57:35Z</time>
      </trkpt>
      <trkpt lat="43.79446" lon="7.12624">
        <ele>1011.7</ele>
        <time>2017-03-13T09:57:40Z</time>
      </trkpt>
      <trkpt lat="43.79457" lon="7.12614">
        <ele>1011.2</ele>
        <time>2017-03-13T09:57:49Z</time>
      </trkpt>
      <trkpt lat="43.79462" lon="7.12611">
        <ele>1011.1</ele>
        <time>2017-03-13T09:57:53Z</time>
      </trkpt>
      <trkpt lat="43.79468" lon="7.12612">
        <ele>1011.1</ele>
        <time>2017-03-13T09:57:58Z</time>
      </trkpt>
      <trkpt lat="43.79468" lon="7.12612">
        <ele>1003.5</ele>
        <time>2017-03-13T09:58:06Z</time>
      </trkpt>
      <trkpt lat="43.79482" lon="7.12608">
        <ele>1010.9</ele>
        <time>2017-03-13T09:58:10Z</time>
      </trkpt>
      <trkpt lat="43.79491" lon="7.126">
        <ele>1010.9</ele>
        <time>2017-03-13T09:58:17Z</time>
      </trkpt>
      <trkpt lat="43.79494" lon="7.12593">
        <ele>1010.8</ele>
        <time>2017-03-13T09:58:21Z</time>
      </trkpt>
      <trkpt lat="43.79495" lon="7.12586">
        <ele>1010.3</ele>
        <time>2017-03-13T09:58:24Z</time>
      </trkpt>
      <trkpt lat="43.79495" lon="7.12579">
        <ele>1010.3</ele>
        <time>2017-03-13T09:58:27Z</time>
      </trkpt>
      <trkpt lat="43.79495" lon="7.12579">
        <ele>999.3</ele>
        <time>2017-03-13T09:58:36Z</time>
      </trkpt>
      <trkpt lat="43.79494" lon="7.12559">
        <ele>1008.9</ele>
        <time>2017-03-13T09:58:38Z</time>
      </trkpt>
      <trkpt lat="43.79497" lon="7.12552">
        <ele>1008.6</ele>
        <time>2017-03-13T09:58:42Z</time>
      </trkpt>
      <trkpt lat="43.795" lon="7.12547">
        <ele>1008.2</ele>
        <time>2017-03-13T09:58:45Z</time>
      </trkpt>
      <trkpt lat="43.79503" lon="7.12542">
        <ele>1007.5</ele>
        <time>2017-03-13T09:58:49Z</time>
      </trkpt>
      <trkpt lat="43.79508" lon="7.1253">
        <ele>1005.3</ele>
        <time>2017-03-13T09:58:56Z</time>
      </trkpt>
      <trkpt lat="43.79511" lon="7.12524">
        <ele>1005.3</ele>
        <time>2017-03-13T09:58:59Z</time>
      </trkpt>
      <trkpt lat="43.79515" lon="7.12519">
        <ele>1004.6</ele>
        <time>2017-03-13T09:59:04Z</time>
      </trkpt>
      <trkpt lat="43.79515" lon="7.12519">
        <ele>993.6</ele>
        <time>2017-03-13T09:59:13Z</time>
      </trkpt>
      <trkpt lat="43.79521" lon="7.12499">
        <ele>1003.6</ele>
        <time>2017-03-13T09:59:15Z</time>
      </trkpt>
      <trkpt lat="43.79524" lon="7.12487">
        <ele>1003.5</ele>
        <time>2017-03-13T09:59:20Z</time>
      </trkpt>
      <trkpt lat="43.79526" lon="7.1248">
        <ele>1003.5</ele>
        <time>2017-03-13T09:59:24Z</time>
      </trkpt>
      <trkpt lat="43.7953" lon="7.12475">
        <ele>1003.3</ele>
        <time>2017-03-13T09:59:28Z</time>
      </trkpt>
      <trkpt lat="43.79531" lon="7.12468">
        <ele>1003.3</ele>
        <time>2017-03-13T09:59:32Z</time>
      </trkpt>
      <trkpt lat="43.79535" lon="7.12462">
        <ele>1003.1</ele>
        <time>2017-03-13T09:59:36Z</time>
      </trkpt>
      <trkpt lat="43.79538" lon="7.12456">
        <ele>1003.1</ele>
        <time>2017-03-13T09:59:41Z</time>
      </trkpt>
      <trkpt lat="43.79543" lon="7.12452">
        <ele>1003.1</ele>
        <time>2017-03-13T09:59:45Z</time>
      </trkpt>
      <trkpt lat="43.79548" lon="7.12449">
        <ele>1003.1</ele>
        <time>2017-03-13T09:59:49Z</time>
      </trkpt>
      <trkpt lat="43.79552" lon="7.12448">
        <ele>1003.1</ele>
        <time>2017-03-13T09:59:52Z</time>
      </trkpt>
      <trkpt lat="43.79558" lon="7.12446">
        <ele>1003.1</ele>
        <time>2017-03-13T09:59:56Z</time>
      </trkpt>
      <trkpt lat="43.79566" lon="7.12437">
        <ele>1003.2</ele>
        <time>2017-03-13T10:00:03Z</time>
      </trkpt>
      <trkpt lat="43.79569" lon="7.12432">
        <ele>1003.5</ele>
        <time>2017-03-13T10:00:06Z</time>
      </trkpt>
      <trkpt lat="43.7957" lon="7.12425">
        <ele>1003.5</ele>
        <time>2017-03-13T10:00:09Z</time>
      </trkpt>
      <trkpt lat="43.7957" lon="7.12417">
        <ele>1003.9</ele>
        <time>2017-03-13T10:00:13Z</time>
      </trkpt>
      <trkpt lat="43.79569" lon="7.12403">
        <ele>1004.1</ele>
        <time>2017-03-13T10:00:20Z</time>
      </trkpt>
      <trkpt lat="43.79571" lon="7.12396">
        <ele>1004.2</ele>
        <time>2017-03-13T10:00:25Z</time>
      </trkpt>
      <trkpt lat="43.79572" lon="7.12383">
        <ele>1004.4</ele>
        <time>2017-03-13T10:00:32Z</time>
      </trkpt>
      <trkpt lat="43.7957" lon="7.12376">
        <ele>1004.8</ele>
        <time>2017-03-13T10:00:36Z</time>
      </trkpt>
      <trkpt lat="43.79568" lon="7.12369">
        <ele>1005</ele>
        <time>2017-03-13T10:00:39Z</time>
      </trkpt>
      <trkpt lat="43.79568" lon="7.12356">
        <ele>1005</ele>
        <time>2017-03-13T10:00:44Z</time>
      </trkpt>
      <trkpt lat="43.7957" lon="7.12349">
        <ele>1005.1</ele>
        <time>2017-03-13T10:00:48Z</time>
      </trkpt>
      <trkpt lat="43.79573" lon="7.12344">
        <ele>1005.1</ele>
        <time>2017-03-13T10:00:52Z</time>
      </trkpt>
      <trkpt lat="43.79575" lon="7.12336">
        <ele>1005.1</ele>
        <time>2017-03-13T10:00:56Z</time>
      </trkpt>
      <trkpt lat="43.79576" lon="7.12324">
        <ele>1005.1</ele>
        <time>2017-03-13T10:01:02Z</time>
      </trkpt>
      <trkpt lat="43.79579" lon="7.12317">
        <ele>1005.1</ele>
        <time>2017-03-13T10:01:07Z</time>
      </trkpt>
      <trkpt lat="43.79582" lon="7.12305">
        <ele>1005</ele>
        <time>2017-03-13T10:01:14Z</time>
      </trkpt>
      <trkpt lat="43.79582" lon="7.12305">
        <ele>1004.1</ele>
        <time>2017-03-13T10:01:23Z</time>
      </trkpt>
      <trkpt lat="43.79585" lon="7.12284">
        <ele>1004.2</ele>
        <time>2017-03-13T10:01:28Z</time>
      </trkpt>
      <trkpt lat="43.79582" lon="7.12278">
        <ele>1003.2</ele>
        <time>2017-03-13T10:01:33Z</time>
      </trkpt>
      <trkpt lat="43.79582" lon="7.12275">
        <ele>1003</ele>
        <time>2017-03-13T10:01:36Z</time>
      </trkpt>
      <trkpt lat="43.79582" lon="7.12272">
        <ele>1002.6</ele>
        <time>2017-03-13T10:01:40Z</time>
      </trkpt>
      <trkpt lat="43.79582" lon="7.12272">
        <ele>1002.9</ele>
        <time>2017-03-13T10:01:40Z</time>
      </trkpt>
      <trkpt lat="43.79582" lon="7.12272">
        <ele>1002.9</ele>
        <time>2017-03-13T10:02:41Z</time>
      </trkpt>
      <trkpt lat="43.79584" lon="7.1226">
        <ele>1002.4</ele>
        <time>2017-03-13T10:02:42Z</time>
      </trkpt>
      <trkpt lat="43.79585" lon="7.12259">
        <ele>1002.4</ele>
        <time>2017-03-13T10:02:43Z</time>
      </trkpt>
      <trkpt lat="43.79584" lon="7.12262">
        <ele>1002.5</ele>
        <time>2017-03-13T10:02:47Z</time>
      </trkpt>
      <trkpt lat="43.79584" lon="7.12262">
        <ele>1002.4</ele>
        <time>2017-03-13T10:02:47Z</time>
      </trkpt>
      <trkpt lat="43.79584" lon="7.12262">
        <ele>1002.4</ele>
        <time>2017-03-13T10:03:18Z</time>
      </trkpt>
      <trkpt lat="43.79574" lon="7.12246">
        <ele>1002.3</ele>
        <time>2017-03-13T10:03:21Z</time>
      </trkpt>
      <trkpt lat="43.79571" lon="7.12242">
        <ele>1002.4</ele>
        <time>2017-03-13T10:03:26Z</time>
      </trkpt>
      <trkpt lat="43.79567" lon="7.12235">
        <ele>1002.5</ele>
        <time>2017-03-13T10:03:30Z</time>
      </trkpt>
      <trkpt lat="43.79566" lon="7.12229">
        <ele>1002.5</ele>
        <time>2017-03-13T10:03:34Z</time>
      </trkpt>
      <trkpt lat="43.79566" lon="7.12229">
        <ele>1001.6</ele>
        <time>2017-03-13T10:03:43Z</time>
      </trkpt>
      <trkpt lat="43.79564" lon="7.12213">
        <ele>1002.5</ele>
        <time>2017-03-13T10:03:44Z</time>
      </trkpt>
      <trkpt lat="43.79566" lon="7.12201">
        <ele>1002.5</ele>
        <time>2017-03-13T10:03:52Z</time>
      </trkpt>
      <trkpt lat="43.79566" lon="7.12201">
        <ele>1000.5</ele>
        <time>2017-03-13T10:04:01Z</time>
      </trkpt>
      <trkpt lat="43.79573" lon="7.12184">
        <ele>1001.9</ele>
        <time>2017-03-13T10:04:02Z</time>
      </trkpt>
      <trkpt lat="43.79575" lon="7.12179">
        <ele>1001.3</ele>
        <time>2017-03-13T10:04:06Z</time>
      </trkpt>
      <trkpt lat="43.79576" lon="7.12172">
        <ele>999.8</ele>
        <time>2017-03-13T10:04:10Z</time>
      </trkpt>
      <trkpt lat="43.7958" lon="7.12166">
        <ele>997.6</ele>
        <time>2017-03-13T10:04:14Z</time>
      </trkpt>
      <trkpt lat="43.79584" lon="7.12161">
        <ele>997</ele>
        <time>2017-03-13T10:04:18Z</time>
      </trkpt>
      <trkpt lat="43.79588" lon="7.12153">
        <ele>996.5</ele>
        <time>2017-03-13T10:04:23Z</time>
      </trkpt>
      <trkpt lat="43.79591" lon="7.12149">
        <ele>996.5</ele>
        <time>2017-03-13T10:04:26Z</time>
      </trkpt>
      <trkpt lat="43.79595" lon="7.12142">
        <ele>996</ele>
        <time>2017-03-13T10:04:30Z</time>
      </trkpt>
      <trkpt lat="43.79596" lon="7.12135">
        <ele>995.8</ele>
        <time>2017-03-13T10:04:34Z</time>
      </trkpt>
      <trkpt lat="43.796" lon="7.1213">
        <ele>995.8</ele>
        <time>2017-03-13T10:04:38Z</time>
      </trkpt>
      <trkpt lat="43.79604" lon="7.12124">
        <ele>995.5</ele>
        <time>2017-03-13T10:04:42Z</time>
      </trkpt>
      <trkpt lat="43.79606" lon="7.12117">
        <ele>995.5</ele>
        <time>2017-03-13T10:04:47Z</time>
      </trkpt>
      <trkpt lat="43.79609" lon="7.12105">
        <ele>995.3</ele>
        <time>2017-03-13T10:04:54Z</time>
      </trkpt>
      <trkpt lat="43.79611" lon="7.12099">
        <ele>995.1</ele>
        <time>2017-03-13T10:04:57Z</time>
      </trkpt>
      <trkpt lat="43.79612" lon="7.12086">
        <ele>994.6</ele>
        <time>2017-03-13T10:05:04Z</time>
      </trkpt>
      <trkpt lat="43.79612" lon="7.12086">
        <ele>993.9</ele>
        <time>2017-03-13T10:05:13Z</time>
      </trkpt>
      <trkpt lat="43.79614" lon="7.12063">
        <ele>993.4</ele>
        <time>2017-03-13T10:05:18Z</time>
      </trkpt>
      <trkpt lat="43.79617" lon="7.12056">
        <ele>993.1</ele>
        <time>2017-03-13T10:05:22Z</time>
      </trkpt>
      <trkpt lat="43.79621" lon="7.1205">
        <ele>992.8</ele>
        <time>2017-03-13T10:05:26Z</time>
      </trkpt>
      <trkpt lat="43.79622" lon="7.12039">
        <ele>992.2</ele>
        <time>2017-03-13T10:05:31Z</time>
      </trkpt>
      <trkpt lat="43.79623" lon="7.12031">
        <ele>992</ele>
        <time>2017-03-13T10:05:35Z</time>
      </trkpt>
      <trkpt lat="43.79625" lon="7.12024">
        <ele>991.7</ele>
        <time>2017-03-13T10:05:39Z</time>
      </trkpt>
      <trkpt lat="43.79625" lon="7.12023">
        <ele>991.6</ele>
        <time>2017-03-13T10:05:40Z</time>
      </trkpt>
      <trkpt lat="43.79626" lon="7.12023">
        <ele>989.6</ele>
        <time>2017-03-13T10:05:43Z</time>
      </trkpt>
      <trkpt lat="43.79626" lon="7.12023">
        <ele>990.1</ele>
        <time>2017-03-13T10:05:43Z</time>
      </trkpt>
      <trkpt lat="43.79626" lon="7.12023">
        <ele>990.1</ele>
        <time>2017-03-13T10:07:05Z</time>
      </trkpt>
      <trkpt lat="43.79633" lon="7.12013">
        <ele>986.1</ele>
        <time>2017-03-13T10:07:06Z</time>
      </trkpt>
      <trkpt lat="43.79633" lon="7.12013">
        <ele>989</ele>
        <time>2017-03-13T10:07:14Z</time>
      </trkpt>
      <trkpt lat="43.79644" lon="7.12012">
        <ele>985.4</ele>
        <time>2017-03-13T10:07:15Z</time>
      </trkpt>
      <trkpt lat="43.79651" lon="7.12002">
        <ele>985.1</ele>
        <time>2017-03-13T10:07:22Z</time>
      </trkpt>
      <trkpt lat="43.79653" lon="7.11996">
        <ele>984.9</ele>
        <time>2017-03-13T10:07:26Z</time>
      </trkpt>
      <trkpt lat="43.79659" lon="7.11983">
        <ele>984.9</ele>
        <time>2017-03-13T10:07:34Z</time>
      </trkpt>
      <trkpt lat="43.79661" lon="7.11976">
        <ele>984.6</ele>
        <time>2017-03-13T10:07:38Z</time>
      </trkpt>
      <trkpt lat="43.79665" lon="7.11963">
        <ele>984.4</ele>
        <time>2017-03-13T10:07:45Z</time>
      </trkpt>
      <trkpt lat="43.79665" lon="7.11963">
        <ele>987.1</ele>
        <time>2017-03-13T10:07:53Z</time>
      </trkpt>
      <trkpt lat="43.79673" lon="7.11945">
        <ele>984.1</ele>
        <time>2017-03-13T10:07:56Z</time>
      </trkpt>
      <trkpt lat="43.79675" lon="7.11938">
        <ele>984.1</ele>
        <time>2017-03-13T10:08:00Z</time>
      </trkpt>
      <trkpt lat="43.79677" lon="7.11929">
        <ele>984</ele>
        <time>2017-03-13T10:08:05Z</time>
      </trkpt>
      <trkpt lat="43.79679" lon="7.11922">
        <ele>984</ele>
        <time>2017-03-13T10:08:09Z</time>
      </trkpt>
      <trkpt lat="43.79679" lon="7.11922">
        <ele>986.1</ele>
        <time>2017-03-13T10:08:20Z</time>
      </trkpt>
      <trkpt lat="43.79679" lon="7.11902">
        <ele>984.1</ele>
        <time>2017-03-13T10:08:21Z</time>
      </trkpt>
      <trkpt lat="43.79681" lon="7.11892">
        <ele>984.1</ele>
        <time>2017-03-13T10:08:26Z</time>
      </trkpt>
      <trkpt lat="43.79681" lon="7.11885">
        <ele>984.1</ele>
        <time>2017-03-13T10:08:29Z</time>
      </trkpt>
      <trkpt lat="43.79682" lon="7.11873">
        <ele>984</ele>
        <time>2017-03-13T10:08:35Z</time>
      </trkpt>
      <trkpt lat="43.79685" lon="7.11867">
        <ele>984</ele>
        <time>2017-03-13T10:08:40Z</time>
      </trkpt>
      <trkpt lat="43.79688" lon="7.1186">
        <ele>984.1</ele>
        <time>2017-03-13T10:08:44Z</time>
      </trkpt>
      <trkpt lat="43.79689" lon="7.11853">
        <ele>984.1</ele>
        <time>2017-03-13T10:08:48Z</time>
      </trkpt>
      <trkpt lat="43.79689" lon="7.11839">
        <ele>984.1</ele>
        <time>2017-03-13T10:08:54Z</time>
      </trkpt>
      <trkpt lat="43.7969" lon="7.11832">
        <ele>984.1</ele>
        <time>2017-03-13T10:08:58Z</time>
      </trkpt>
      <trkpt lat="43.79689" lon="7.11819">
        <ele>984.1</ele>
        <time>2017-03-13T10:09:05Z</time>
      </trkpt>
      <trkpt lat="43.79689" lon="7.11819">
        <ele>980.7</ele>
        <time>2017-03-13T10:09:16Z</time>
      </trkpt>
      <trkpt lat="43.79702" lon="7.11803">
        <ele>983.6</ele>
        <time>2017-03-13T10:09:21Z</time>
      </trkpt>
      <trkpt lat="43.79704" lon="7.11797">
        <ele>983.2</ele>
        <time>2017-03-13T10:09:26Z</time>
      </trkpt>
      <trkpt lat="43.7971" lon="7.11786">
        <ele>983</ele>
        <time>2017-03-13T10:09:33Z</time>
      </trkpt>
      <trkpt lat="43.7971" lon="7.11786">
        <ele>977.9</ele>
        <time>2017-03-13T10:09:41Z</time>
      </trkpt>
      <trkpt lat="43.79713" lon="7.11767">
        <ele>982.3</ele>
        <time>2017-03-13T10:09:42Z</time>
      </trkpt>
      <trkpt lat="43.79711" lon="7.11751">
        <ele>981</ele>
        <time>2017-03-13T10:09:49Z</time>
      </trkpt>
      <trkpt lat="43.79713" lon="7.11742">
        <ele>979.9</ele>
        <time>2017-03-13T10:09:53Z</time>
      </trkpt>
      <trkpt lat="43.79715" lon="7.11729">
        <ele>979.5</ele>
        <time>2017-03-13T10:09:58Z</time>
      </trkpt>
      <trkpt lat="43.79715" lon="7.11722">
        <ele>978.6</ele>
        <time>2017-03-13T10:10:02Z</time>
      </trkpt>
      <trkpt lat="43.79715" lon="7.11722">
        <ele>977.5</ele>
        <time>2017-03-13T10:10:12Z</time>
      </trkpt>
      <trkpt lat="43.79711" lon="7.11703">
        <ele>977.8</ele>
        <time>2017-03-13T10:10:13Z</time>
      </trkpt>
      <trkpt lat="43.79711" lon="7.11703">
        <ele>976.8</ele>
        <time>2017-03-13T10:10:21Z</time>
      </trkpt>
      <trkpt lat="43.79711" lon="7.11703">
        <ele>976.8</ele>
        <time>2017-03-13T10:10:30Z</time>
      </trkpt>
      <trkpt lat="43.79705" lon="7.11673">
        <ele>976.1</ele>
        <time>2017-03-13T10:10:31Z</time>
      </trkpt>
      <trkpt lat="43.797" lon="7.11663">
        <ele>975</ele>
        <time>2017-03-13T10:10:36Z</time>
      </trkpt>
      <trkpt lat="43.797" lon="7.11663">
        <ele>974.2</ele>
        <time>2017-03-13T10:10:44Z</time>
      </trkpt>
      <trkpt lat="43.79691" lon="7.11646">
        <ele>974.1</ele>
        <time>2017-03-13T10:10:48Z</time>
      </trkpt>
      <trkpt lat="43.79688" lon="7.11641">
        <ele>974.1</ele>
        <time>2017-03-13T10:10:51Z</time>
      </trkpt>
      <trkpt lat="43.79683" lon="7.11629">
        <ele>974</ele>
        <time>2017-03-13T10:10:57Z</time>
      </trkpt>
      <trkpt lat="43.7968" lon="7.11617">
        <ele>973.8</ele>
        <time>2017-03-13T10:11:04Z</time>
      </trkpt>
      <trkpt lat="43.79675" lon="7.11612">
        <ele>973.4</ele>
        <time>2017-03-13T10:11:08Z</time>
      </trkpt>
      <trkpt lat="43.79673" lon="7.11607">
        <ele>973.2</ele>
        <time>2017-03-13T10:11:12Z</time>
      </trkpt>
      <trkpt lat="43.79665" lon="7.11591">
        <ele>973</ele>
        <time>2017-03-13T10:11:19Z</time>
      </trkpt>
      <trkpt lat="43.79665" lon="7.11591">
        <ele>964.6</ele>
        <time>2017-03-13T10:11:27Z</time>
      </trkpt>
      <trkpt lat="43.7966" lon="7.11579">
        <ele>971.5</ele>
        <time>2017-03-13T10:11:29Z</time>
      </trkpt>
      <trkpt lat="43.79652" lon="7.11571">
        <ele>970.7</ele>
        <time>2017-03-13T10:11:38Z</time>
      </trkpt>
      <trkpt lat="43.79648" lon="7.11568">
        <ele>968.5</ele>
        <time>2017-03-13T10:11:42Z</time>
      </trkpt>
      <trkpt lat="43.79646" lon="7.11562">
        <ele>968</ele>
        <time>2017-03-13T10:11:46Z</time>
      </trkpt>
      <trkpt lat="43.79646" lon="7.11562">
        <ele>961.3</ele>
        <time>2017-03-13T10:11:55Z</time>
      </trkpt>
      <trkpt lat="43.79645" lon="7.11543">
        <ele>965.9</ele>
        <time>2017-03-13T10:11:57Z</time>
      </trkpt>
      <trkpt lat="43.79645" lon="7.11543">
        <ele>958.4</ele>
        <time>2017-03-13T10:12:05Z</time>
      </trkpt>
      <trkpt lat="43.79643" lon="7.11522">
        <ele>964.6</ele>
        <time>2017-03-13T10:12:08Z</time>
      </trkpt>
      <trkpt lat="43.79643" lon="7.11516">
        <ele>964.2</ele>
        <time>2017-03-13T10:12:11Z</time>
      </trkpt>
      <trkpt lat="43.7964" lon="7.1151">
        <ele>964.2</ele>
        <time>2017-03-13T10:12:14Z</time>
      </trkpt>
      <trkpt lat="43.79638" lon="7.11504">
        <ele>962.5</ele>
        <time>2017-03-13T10:12:17Z</time>
      </trkpt>
      <trkpt lat="43.79634" lon="7.11499">
        <ele>962.5</ele>
        <time>2017-03-13T10:12:20Z</time>
      </trkpt>
      <trkpt lat="43.79629" lon="7.11495">
        <ele>961.8</ele>
        <time>2017-03-13T10:12:24Z</time>
      </trkpt>
      <trkpt lat="43.79623" lon="7.11493">
        <ele>960.5</ele>
        <time>2017-03-13T10:12:29Z</time>
      </trkpt>
      <trkpt lat="43.79618" lon="7.1149">
        <ele>960.5</ele>
        <time>2017-03-13T10:12:33Z</time>
      </trkpt>
      <trkpt lat="43.79618" lon="7.1149">
        <ele>954</ele>
        <time>2017-03-13T10:12:42Z</time>
      </trkpt>
      <trkpt lat="43.79607" lon="7.11484">
        <ele>957.9</ele>
        <time>2017-03-13T10:12:43Z</time>
      </trkpt>
      <trkpt lat="43.79597" lon="7.11484">
        <ele>956.8</ele>
        <time>2017-03-13T10:12:49Z</time>
      </trkpt>
      <trkpt lat="43.79592" lon="7.11484">
        <ele>956.5</ele>
        <time>2017-03-13T10:12:53Z</time>
      </trkpt>
      <trkpt lat="43.79587" lon="7.11485">
        <ele>956.4</ele>
        <time>2017-03-13T10:12:57Z</time>
      </trkpt>
      <trkpt lat="43.79582" lon="7.11487">
        <ele>956.4</ele>
        <time>2017-03-13T10:13:01Z</time>
      </trkpt>
      <trkpt lat="43.79576" lon="7.11486">
        <ele>956.4</ele>
        <time>2017-03-13T10:13:05Z</time>
      </trkpt>
      <trkpt lat="43.79566" lon="7.11489">
        <ele>956.4</ele>
        <time>2017-03-13T10:13:14Z</time>
      </trkpt>
      <trkpt lat="43.79557" lon="7.11487">
        <ele>956.6</ele>
        <time>2017-03-13T10:13:20Z</time>
      </trkpt>
      <trkpt lat="43.79547" lon="7.11488">
        <ele>956.8</ele>
        <time>2017-03-13T10:13:28Z</time>
      </trkpt>
      <trkpt lat="43.79542" lon="7.1149">
        <ele>956.9</ele>
        <time>2017-03-13T10:13:32Z</time>
      </trkpt>
      <trkpt lat="43.79537" lon="7.11491">
        <ele>957.1</ele>
        <time>2017-03-13T10:13:37Z</time>
      </trkpt>
      <trkpt lat="43.79531" lon="7.11493">
        <ele>957.6</ele>
        <time>2017-03-13T10:13:42Z</time>
      </trkpt>
      <trkpt lat="43.79527" lon="7.11495">
        <ele>958.4</ele>
        <time>2017-03-13T10:13:47Z</time>
      </trkpt>
      <trkpt lat="43.79527" lon="7.11495">
        <ele>968.7</ele>
        <time>2017-03-13T10:13:57Z</time>
      </trkpt>
      <trkpt lat="43.79513" lon="7.115">
        <ele>960.7</ele>
        <time>2017-03-13T10:14:00Z</time>
      </trkpt>
      <trkpt lat="43.79504" lon="7.11503">
        <ele>961.7</ele>
        <time>2017-03-13T10:14:07Z</time>
      </trkpt>
      <trkpt lat="43.79504" lon="7.11503">
        <ele>970.8</ele>
        <time>2017-03-13T10:14:16Z</time>
      </trkpt>
      <trkpt lat="43.7949" lon="7.11509">
        <ele>964.1</ele>
        <time>2017-03-13T10:14:20Z</time>
      </trkpt>
      <trkpt lat="43.79485" lon="7.11507">
        <ele>965.1</ele>
        <time>2017-03-13T10:14:25Z</time>
      </trkpt>
      <trkpt lat="43.7948" lon="7.11507">
        <ele>965.7</ele>
        <time>2017-03-13T10:14:29Z</time>
      </trkpt>
      <trkpt lat="43.7947" lon="7.11507">
        <ele>966.5</ele>
        <time>2017-03-13T10:14:39Z</time>
      </trkpt>
      <trkpt lat="43.79468" lon="7.11507">
        <ele>967.4</ele>
        <time>2017-03-13T10:14:41Z</time>
      </trkpt>
      <trkpt lat="43.79467" lon="7.11507">
        <ele>970.6</ele>
        <time>2017-03-13T10:14:45Z</time>
      </trkpt>
      <trkpt lat="43.79467" lon="7.11507">
        <ele>972.6</ele>
        <time>2017-03-13T10:14:45Z</time>
      </trkpt>
      <trkpt lat="43.79467" lon="7.11507">
        <ele>972.6</ele>
        <time>2017-03-13T10:15:59Z</time>
      </trkpt>
      <trkpt lat="43.79459" lon="7.11497">
        <ele>971.1</ele>
        <time>2017-03-13T10:16:00Z</time>
      </trkpt>
      <trkpt lat="43.79455" lon="7.11489">
        <ele>971</ele>
        <time>2017-03-13T10:16:05Z</time>
      </trkpt>
      <trkpt lat="43.79453" lon="7.11481">
        <ele>970.9</ele>
        <time>2017-03-13T10:16:10Z</time>
      </trkpt>
      <trkpt lat="43.7945" lon="7.11477">
        <ele>970.8</ele>
        <time>2017-03-13T10:16:14Z</time>
      </trkpt>
      <trkpt lat="43.79446" lon="7.1147">
        <ele>970.8</ele>
        <time>2017-03-13T10:16:18Z</time>
      </trkpt>
      <trkpt lat="43.79443" lon="7.11462">
        <ele>970.7</ele>
        <time>2017-03-13T10:16:22Z</time>
      </trkpt>
      <trkpt lat="43.79443" lon="7.11462">
        <ele>974.5</ele>
        <time>2017-03-13T10:16:31Z</time>
      </trkpt>
      <trkpt lat="43.79434" lon="7.1144">
        <ele>970.7</ele>
        <time>2017-03-13T10:16:38Z</time>
      </trkpt>
      <trkpt lat="43.79435" lon="7.11433">
        <ele>971</ele>
        <time>2017-03-13T10:16:41Z</time>
      </trkpt>
      <trkpt lat="43.79436" lon="7.11426">
        <ele>971.1</ele>
        <time>2017-03-13T10:16:45Z</time>
      </trkpt>
      <trkpt lat="43.79439" lon="7.1142">
        <ele>971.1</ele>
        <time>2017-03-13T10:16:48Z</time>
      </trkpt>
      <trkpt lat="43.79441" lon="7.11414">
        <ele>971.4</ele>
        <time>2017-03-13T10:16:51Z</time>
      </trkpt>
      <trkpt lat="43.79442" lon="7.11407">
        <ele>971.4</ele>
        <time>2017-03-13T10:16:55Z</time>
      </trkpt>
      <trkpt lat="43.79441" lon="7.11399">
        <ele>971.5</ele>
        <time>2017-03-13T10:16:59Z</time>
      </trkpt>
      <trkpt lat="43.7944" lon="7.11391">
        <ele>971.7</ele>
        <time>2017-03-13T10:17:03Z</time>
      </trkpt>
      <trkpt lat="43.7944" lon="7.11372">
        <ele>971.9</ele>
        <time>2017-03-13T10:17:11Z</time>
      </trkpt>
      <trkpt lat="43.7944" lon="7.11358">
        <ele>972</ele>
        <time>2017-03-13T10:17:17Z</time>
      </trkpt>
      <trkpt lat="43.79442" lon="7.11351">
        <ele>972</ele>
        <time>2017-03-13T10:17:21Z</time>
      </trkpt>
      <trkpt lat="43.79439" lon="7.11341">
        <ele>972</ele>
        <time>2017-03-13T10:17:26Z</time>
      </trkpt>
      <trkpt lat="43.79439" lon="7.11333">
        <ele>972</ele>
        <time>2017-03-13T10:17:29Z</time>
      </trkpt>
      <trkpt lat="43.79438" lon="7.11314">
        <ele>971.6</ele>
        <time>2017-03-13T10:17:36Z</time>
      </trkpt>
      <trkpt lat="43.79436" lon="7.11301">
        <ele>971.3</ele>
        <time>2017-03-13T10:17:42Z</time>
      </trkpt>
      <trkpt lat="43.79437" lon="7.11288">
        <ele>969.9</ele>
        <time>2017-03-13T10:17:50Z</time>
      </trkpt>
      <trkpt lat="43.79437" lon="7.11275">
        <ele>969.5</ele>
        <time>2017-03-13T10:17:57Z</time>
      </trkpt>
      <trkpt lat="43.79435" lon="7.11262">
        <ele>969.2</ele>
        <time>2017-03-13T10:18:02Z</time>
      </trkpt>
      <trkpt lat="43.79436" lon="7.11254">
        <ele>969</ele>
        <time>2017-03-13T10:18:06Z</time>
      </trkpt>
      <trkpt lat="43.79439" lon="7.11242">
        <ele>968.8</ele>
        <time>2017-03-13T10:18:13Z</time>
      </trkpt>
      <trkpt lat="43.79439" lon="7.11235">
        <ele>968.3</ele>
        <time>2017-03-13T10:18:16Z</time>
      </trkpt>
      <trkpt lat="43.79439" lon="7.11229">
        <ele>968</ele>
        <time>2017-03-13T10:18:20Z</time>
      </trkpt>
      <trkpt lat="43.79438" lon="7.11222">
        <ele>968</ele>
        <time>2017-03-13T10:18:24Z</time>
      </trkpt>
      <trkpt lat="43.79437" lon="7.11203">
        <ele>967.7</ele>
        <time>2017-03-13T10:18:32Z</time>
      </trkpt>
      <trkpt lat="43.79437" lon="7.11199">
        <ele>967.3</ele>
        <time>2017-03-13T10:18:34Z</time>
      </trkpt>
      <trkpt lat="43.79437" lon="7.11197">
        <ele>967.1</ele>
        <time>2017-03-13T10:18:39Z</time>
      </trkpt>
      <trkpt lat="43.79437" lon="7.11197">
        <ele>969.1</ele>
        <time>2017-03-13T10:18:39Z</time>
      </trkpt>
      <trkpt lat="43.79437" lon="7.11197">
        <ele>969.1</ele>
        <time>2017-03-13T10:18:45Z</time>
      </trkpt>
      <trkpt lat="43.79435" lon="7.11184">
        <ele>966.9</ele>
        <time>2017-03-13T10:18:46Z</time>
      </trkpt>
      <trkpt lat="43.79434" lon="7.11172">
        <ele>966.8</ele>
        <time>2017-03-13T10:18:51Z</time>
      </trkpt>
      <trkpt lat="43.79433" lon="7.11163">
        <ele>966.7</ele>
        <time>2017-03-13T10:18:55Z</time>
      </trkpt>
      <trkpt lat="43.79433" lon="7.11155">
        <ele>966.7</ele>
        <time>2017-03-13T10:18:59Z</time>
      </trkpt>
      <trkpt lat="43.79432" lon="7.11148">
        <ele>966.7</ele>
        <time>2017-03-13T10:19:03Z</time>
      </trkpt>
      <trkpt lat="43.79429" lon="7.11142">
        <ele>966.6</ele>
        <time>2017-03-13T10:19:08Z</time>
      </trkpt>
      <trkpt lat="43.79428" lon="7.11135">
        <ele>966.5</ele>
        <time>2017-03-13T10:19:13Z</time>
      </trkpt>
      <trkpt lat="43.79429" lon="7.11129">
        <ele>966.5</ele>
        <time>2017-03-13T10:19:17Z</time>
      </trkpt>
      <trkpt lat="43.79429" lon="7.11129">
        <ele>967.8</ele>
        <time>2017-03-13T10:19:27Z</time>
      </trkpt>
      <trkpt lat="43.79428" lon="7.11109">
        <ele>966.5</ele>
        <time>2017-03-13T10:19:28Z</time>
      </trkpt>
      <trkpt lat="43.79428" lon="7.11102">
        <ele>966.5</ele>
        <time>2017-03-13T10:19:32Z</time>
      </trkpt>
      <trkpt lat="43.79429" lon="7.11094">
        <ele>966.3</ele>
        <time>2017-03-13T10:19:36Z</time>
      </trkpt>
      <trkpt lat="43.79428" lon="7.11087">
        <ele>966.3</ele>
        <time>2017-03-13T10:19:39Z</time>
      </trkpt>
      <trkpt lat="43.79428" lon="7.11074">
        <ele>965.2</ele>
        <time>2017-03-13T10:19:46Z</time>
      </trkpt>
      <trkpt lat="43.7943" lon="7.11067">
        <ele>964.6</ele>
        <time>2017-03-13T10:19:49Z</time>
      </trkpt>
      <trkpt lat="43.7943" lon="7.1106">
        <ele>964.6</ele>
        <time>2017-03-13T10:19:52Z</time>
      </trkpt>
      <trkpt lat="43.79431" lon="7.11053">
        <ele>963.5</ele>
        <time>2017-03-13T10:19:55Z</time>
      </trkpt>
      <trkpt lat="43.79431" lon="7.11046">
        <ele>963.5</ele>
        <time>2017-03-13T10:19:58Z</time>
      </trkpt>
      <trkpt lat="43.7943" lon="7.1104">
        <ele>962.5</ele>
        <time>2017-03-13T10:20:01Z</time>
      </trkpt>
      <trkpt lat="43.79429" lon="7.11032">
        <ele>962.5</ele>
        <time>2017-03-13T10:20:04Z</time>
      </trkpt>
      <trkpt lat="43.79428" lon="7.11024">
        <ele>961.3</ele>
        <time>2017-03-13T10:20:07Z</time>
      </trkpt>
      <trkpt lat="43.79431" lon="7.11006">
        <ele>960.5</ele>
        <time>2017-03-13T10:20:17Z</time>
      </trkpt>
      <trkpt lat="43.7943" lon="7.10999">
        <ele>959.2</ele>
        <time>2017-03-13T10:20:22Z</time>
      </trkpt>
      <trkpt lat="43.79429" lon="7.10998">
        <ele>959.2</ele>
        <time>2017-03-13T10:20:23Z</time>
      </trkpt>
      <trkpt lat="43.79429" lon="7.10998">
        <ele>961.3</ele>
        <time>2017-03-13T10:20:24Z</time>
      </trkpt>
      <trkpt lat="43.79429" lon="7.10998">
        <ele>961.3</ele>
        <time>2017-03-13T10:20:44Z</time>
      </trkpt>
      <trkpt lat="43.79441" lon="7.10978">
        <ele>957.3</ele>
        <time>2017-03-13T10:20:44Z</time>
      </trkpt>
      <trkpt lat="43.79441" lon="7.10978">
        <ele>958.6</ele>
        <time>2017-03-13T10:20:56Z</time>
      </trkpt>
      <trkpt lat="43.79456" lon="7.10958">
        <ele>957</ele>
        <time>2017-03-13T10:20:59Z</time>
      </trkpt>
      <trkpt lat="43.79461" lon="7.10956">
        <ele>957</ele>
        <time>2017-03-13T10:21:03Z</time>
      </trkpt>
      <trkpt lat="43.79464" lon="7.10951">
        <ele>956.8</ele>
        <time>2017-03-13T10:21:08Z</time>
      </trkpt>
      <trkpt lat="43.79461" lon="7.10946">
        <ele>956.8</ele>
        <time>2017-03-13T10:21:12Z</time>
      </trkpt>
      <trkpt lat="43.79453" lon="7.10938">
        <ele>956.7</ele>
        <time>2017-03-13T10:21:20Z</time>
      </trkpt>
      <trkpt lat="43.79453" lon="7.10931">
        <ele>956.6</ele>
        <time>2017-03-13T10:21:25Z</time>
      </trkpt>
      <trkpt lat="43.79453" lon="7.10931">
        <ele>958.9</ele>
        <time>2017-03-13T10:21:34Z</time>
      </trkpt>
      <trkpt lat="43.79459" lon="7.10921">
        <ele>956.3</ele>
        <time>2017-03-13T10:21:41Z</time>
      </trkpt>
      <trkpt lat="43.79459" lon="7.1092">
        <ele>956.4</ele>
        <time>2017-03-13T10:21:42Z</time>
      </trkpt>
      <trkpt lat="43.79459" lon="7.10918">
        <ele>957.9</ele>
        <time>2017-03-13T10:21:46Z</time>
      </trkpt>
      <trkpt lat="43.79459" lon="7.10918">
        <ele>960.6</ele>
        <time>2017-03-13T10:21:46Z</time>
      </trkpt>
      <trkpt lat="43.79459" lon="7.10918">
        <ele>960.6</ele>
        <time>2017-03-13T10:23:03Z</time>
      </trkpt>
      <trkpt lat="43.79448" lon="7.10941">
        <ele>958.4</ele>
        <time>2017-03-13T10:23:03Z</time>
      </trkpt>
      <trkpt lat="43.79448" lon="7.10941">
        <ele>958.6</ele>
        <time>2017-03-13T10:23:04Z</time>
      </trkpt>
      <trkpt lat="43.79448" lon="7.10941">
        <ele>958.8</ele>
        <time>2017-03-13T10:23:09Z</time>
      </trkpt>
      <trkpt lat="43.79448" lon="7.10941">
        <ele>957.6</ele>
        <time>2017-03-13T10:23:09Z</time>
      </trkpt>
      <trkpt lat="43.79448" lon="7.10941">
        <ele>957.6</ele>
        <time>2017-03-13T10:27:18Z</time>
      </trkpt>
      <trkpt lat="43.79439" lon="7.10916">
        <ele>958.6</ele>
        <time>2017-03-13T10:27:19Z</time>
      </trkpt>
      <trkpt lat="43.79437" lon="7.10909">
        <ele>958.6</ele>
        <time>2017-03-13T10:27:23Z</time>
      </trkpt>
      <trkpt lat="43.79434" lon="7.10903">
        <ele>958.6</ele>
        <time>2017-03-13T10:27:30Z</time>
      </trkpt>
      <trkpt lat="43.79432" lon="7.10897">
        <ele>958.6</ele>
        <time>2017-03-13T10:27:35Z</time>
      </trkpt>
      <trkpt lat="43.79435" lon="7.10891">
        <ele>958.7</ele>
        <time>2017-03-13T10:27:39Z</time>
      </trkpt>
      <trkpt lat="43.79438" lon="7.10879">
        <ele>958.7</ele>
        <time>2017-03-13T10:27:46Z</time>
      </trkpt>
      <trkpt lat="43.79438" lon="7.10879">
        <ele>960.4</ele>
        <time>2017-03-13T10:27:54Z</time>
      </trkpt>
      <trkpt lat="43.79443" lon="7.1086">
        <ele>958.7</ele>
        <time>2017-03-13T10:27:59Z</time>
      </trkpt>
      <trkpt lat="43.79446" lon="7.10853">
        <ele>958.6</ele>
        <time>2017-03-13T10:28:04Z</time>
      </trkpt>
      <trkpt lat="43.79445" lon="7.1084">
        <ele>958.5</ele>
        <time>2017-03-13T10:28:12Z</time>
      </trkpt>
      <trkpt lat="43.79446" lon="7.10832">
        <ele>958.5</ele>
        <time>2017-03-13T10:28:16Z</time>
      </trkpt>
      <trkpt lat="43.79449" lon="7.10825">
        <ele>958.5</ele>
        <time>2017-03-13T10:28:20Z</time>
      </trkpt>
      <trkpt lat="43.79452" lon="7.10819">
        <ele>958.5</ele>
        <time>2017-03-13T10:28:24Z</time>
      </trkpt>
      <trkpt lat="43.79461" lon="7.10812">
        <ele>958.6</ele>
        <time>2017-03-13T10:28:30Z</time>
      </trkpt>
      <trkpt lat="43.79468" lon="7.10805">
        <ele>958.7</ele>
        <time>2017-03-13T10:28:37Z</time>
      </trkpt>
      <trkpt lat="43.79472" lon="7.10802">
        <ele>958.7</ele>
        <time>2017-03-13T10:28:41Z</time>
      </trkpt>
      <trkpt lat="43.79475" lon="7.10795">
        <ele>958.9</ele>
        <time>2017-03-13T10:28:47Z</time>
      </trkpt>
      <trkpt lat="43.79476" lon="7.10781">
        <ele>959.6</ele>
        <time>2017-03-13T10:28:57Z</time>
      </trkpt>
      <trkpt lat="43.79477" lon="7.10768">
        <ele>960</ele>
        <time>2017-03-13T10:29:05Z</time>
      </trkpt>
      <trkpt lat="43.79477" lon="7.10768">
        <ele>962.2</ele>
        <time>2017-03-13T10:29:14Z</time>
      </trkpt>
      <trkpt lat="43.79481" lon="7.10748">
        <ele>960.2</ele>
        <time>2017-03-13T10:29:18Z</time>
      </trkpt>
      <trkpt lat="43.79483" lon="7.10742">
        <ele>960.2</ele>
        <time>2017-03-13T10:29:22Z</time>
      </trkpt>
      <trkpt lat="43.79485" lon="7.10735">
        <ele>960.3</ele>
        <time>2017-03-13T10:29:26Z</time>
      </trkpt>
      <trkpt lat="43.79485" lon="7.10735">
        <ele>962.7</ele>
        <time>2017-03-13T10:29:35Z</time>
      </trkpt>
      <trkpt lat="43.79488" lon="7.10717">
        <ele>960.5</ele>
        <time>2017-03-13T10:29:40Z</time>
      </trkpt>
      <trkpt lat="43.79491" lon="7.10711">
        <ele>960.6</ele>
        <time>2017-03-13T10:29:45Z</time>
      </trkpt>
      <trkpt lat="43.79494" lon="7.10704">
        <ele>961.1</ele>
        <time>2017-03-13T10:29:50Z</time>
      </trkpt>
      <trkpt lat="43.79495" lon="7.10697">
        <ele>961.1</ele>
        <time>2017-03-13T10:29:53Z</time>
      </trkpt>
      <trkpt lat="43.79495" lon="7.10691">
        <ele>961.4</ele>
        <time>2017-03-13T10:29:59Z</time>
      </trkpt>
      <trkpt lat="43.79498" lon="7.10685">
        <ele>961.6</ele>
        <time>2017-03-13T10:30:03Z</time>
      </trkpt>
      <trkpt lat="43.79499" lon="7.10677">
        <ele>962.3</ele>
        <time>2017-03-13T10:30:08Z</time>
      </trkpt>
      <trkpt lat="43.79503" lon="7.10672">
        <ele>962.4</ele>
        <time>2017-03-13T10:30:13Z</time>
      </trkpt>
      <trkpt lat="43.79511" lon="7.10667">
        <ele>962.9</ele>
        <time>2017-03-13T10:30:21Z</time>
      </trkpt>
      <trkpt lat="43.79517" lon="7.10656">
        <ele>963.3</ele>
        <time>2017-03-13T10:30:28Z</time>
      </trkpt>
      <trkpt lat="43.7952" lon="7.1065">
        <ele>963.7</ele>
        <time>2017-03-13T10:30:31Z</time>
      </trkpt>
      <trkpt lat="43.79522" lon="7.10642">
        <ele>963.7</ele>
        <time>2017-03-13T10:30:34Z</time>
      </trkpt>
      <trkpt lat="43.79523" lon="7.10635">
        <ele>964</ele>
        <time>2017-03-13T10:30:38Z</time>
      </trkpt>
      <trkpt lat="43.79524" lon="7.10628">
        <ele>964.1</ele>
        <time>2017-03-13T10:30:42Z</time>
      </trkpt>
      <trkpt lat="43.79525" lon="7.10621">
        <ele>964.3</ele>
        <time>2017-03-13T10:30:47Z</time>
      </trkpt>
      <trkpt lat="43.79528" lon="7.10608">
        <ele>965</ele>
        <time>2017-03-13T10:30:55Z</time>
      </trkpt>
      <trkpt lat="43.7953" lon="7.10601">
        <ele>965.4</ele>
        <time>2017-03-13T10:30:59Z</time>
      </trkpt>
      <trkpt lat="43.79532" lon="7.10595">
        <ele>965.7</ele>
        <time>2017-03-13T10:31:03Z</time>
      </trkpt>
      <trkpt lat="43.79536" lon="7.1059">
        <ele>965.7</ele>
        <time>2017-03-13T10:31:07Z</time>
      </trkpt>
      <trkpt lat="43.7954" lon="7.10585">
        <ele>966</ele>
        <time>2017-03-13T10:31:13Z</time>
      </trkpt>
      <trkpt lat="43.79542" lon="7.1057">
        <ele>966.1</ele>
        <time>2017-03-13T10:31:20Z</time>
      </trkpt>
      <trkpt lat="43.79546" lon="7.10557">
        <ele>966.1</ele>
        <time>2017-03-13T10:31:27Z</time>
      </trkpt>
      <trkpt lat="43.79554" lon="7.1055">
        <ele>966</ele>
        <time>2017-03-13T10:31:33Z</time>
      </trkpt>
      <trkpt lat="43.79554" lon="7.1055">
        <ele>964.3</ele>
        <time>2017-03-13T10:31:41Z</time>
      </trkpt>
      <trkpt lat="43.79567" lon="7.10544">
        <ele>965.7</ele>
        <time>2017-03-13T10:31:44Z</time>
      </trkpt>
      <trkpt lat="43.79573" lon="7.10543">
        <ele>965.7</ele>
        <time>2017-03-13T10:31:48Z</time>
      </trkpt>
      <trkpt lat="43.79573" lon="7.10543">
        <ele>963.6</ele>
        <time>2017-03-13T10:31:57Z</time>
      </trkpt>
      <trkpt lat="43.79596" lon="7.10536">
        <ele>965.3</ele>
        <time>2017-03-13T10:32:05Z</time>
      </trkpt>
      <trkpt lat="43.79596" lon="7.10536">
        <ele>962.9</ele>
        <time>2017-03-13T10:32:13Z</time>
      </trkpt>
      <trkpt lat="43.79601" lon="7.10518">
        <ele>964.5</ele>
        <time>2017-03-13T10:32:14Z</time>
      </trkpt>
      <trkpt lat="43.79601" lon="7.10518">
        <ele>960.6</ele>
        <time>2017-03-13T10:32:22Z</time>
      </trkpt>
      <trkpt lat="43.79603" lon="7.10495">
        <ele>963.8</ele>
        <time>2017-03-13T10:32:26Z</time>
      </trkpt>
      <trkpt lat="43.79608" lon="7.10483">
        <ele>963.6</ele>
        <time>2017-03-13T10:32:32Z</time>
      </trkpt>
      <trkpt lat="43.79612" lon="7.10481">
        <ele>963.4</ele>
        <time>2017-03-13T10:32:37Z</time>
      </trkpt>
      <trkpt lat="43.79617" lon="7.1048">
        <ele>962.1</ele>
        <time>2017-03-13T10:32:41Z</time>
      </trkpt>
      <trkpt lat="43.79621" lon="7.10475">
        <ele>962</ele>
        <time>2017-03-13T10:32:46Z</time>
      </trkpt>
      <trkpt lat="43.79623" lon="7.10469">
        <ele>961.2</ele>
        <time>2017-03-13T10:32:50Z</time>
      </trkpt>
      <trkpt lat="43.79623" lon="7.10462">
        <ele>961.2</ele>
        <time>2017-03-13T10:32:53Z</time>
      </trkpt>
      <trkpt lat="43.79625" lon="7.10454">
        <ele>960.8</ele>
        <time>2017-03-13T10:32:57Z</time>
      </trkpt>
      <trkpt lat="43.79632" lon="7.10445">
        <ele>959.4</ele>
        <time>2017-03-13T10:33:03Z</time>
      </trkpt>
      <trkpt lat="43.79637" lon="7.10444">
        <ele>958.5</ele>
        <time>2017-03-13T10:33:08Z</time>
      </trkpt>
      <trkpt lat="43.79642" lon="7.10446">
        <ele>958</ele>
        <time>2017-03-13T10:33:16Z</time>
      </trkpt>
      <trkpt lat="43.79648" lon="7.10441">
        <ele>956.5</ele>
        <time>2017-03-13T10:33:23Z</time>
      </trkpt>
      <trkpt lat="43.79662" lon="7.10437">
        <ele>955</ele>
        <time>2017-03-13T10:33:32Z</time>
      </trkpt>
      <trkpt lat="43.79677" lon="7.10436">
        <ele>953.7</ele>
        <time>2017-03-13T10:33:40Z</time>
      </trkpt>
      <trkpt lat="43.79687" lon="7.10434">
        <ele>953.4</ele>
        <time>2017-03-13T10:33:46Z</time>
      </trkpt>
      <trkpt lat="43.79692" lon="7.10432">
        <ele>951.4</ele>
        <time>2017-03-13T10:33:50Z</time>
      </trkpt>
      <trkpt lat="43.79696" lon="7.10429">
        <ele>950.5</ele>
        <time>2017-03-13T10:33:54Z</time>
      </trkpt>
      <trkpt lat="43.79702" lon="7.10429">
        <ele>950.1</ele>
        <time>2017-03-13T10:33:58Z</time>
      </trkpt>
      <trkpt lat="43.79702" lon="7.10429">
        <ele>949.5</ele>
        <time>2017-03-13T10:33:59Z</time>
      </trkpt>
      <trkpt lat="43.79704" lon="7.10429">
        <ele>945.3</ele>
        <time>2017-03-13T10:34:03Z</time>
      </trkpt>
      <trkpt lat="43.79704" lon="7.10429">
        <ele>945.5</ele>
        <time>2017-03-13T10:34:03Z</time>
      </trkpt>
      <trkpt lat="43.79704" lon="7.10429">
        <ele>945.5</ele>
        <time>2017-03-13T10:34:36Z</time>
      </trkpt>
      <trkpt lat="43.79716" lon="7.10422">
        <ele>945.2</ele>
        <time>2017-03-13T10:34:38Z</time>
      </trkpt>
      <trkpt lat="43.79721" lon="7.10418">
        <ele>945</ele>
        <time>2017-03-13T10:34:42Z</time>
      </trkpt>
      <trkpt lat="43.79724" lon="7.10413">
        <ele>944.3</ele>
        <time>2017-03-13T10:34:46Z</time>
      </trkpt>
      <trkpt lat="43.79729" lon="7.10409">
        <ele>944.3</ele>
        <time>2017-03-13T10:34:49Z</time>
      </trkpt>
      <trkpt lat="43.79737" lon="7.10401">
        <ele>944.2</ele>
        <time>2017-03-13T10:34:57Z</time>
      </trkpt>
      <trkpt lat="43.79741" lon="7.10395">
        <ele>943.3</ele>
        <time>2017-03-13T10:35:02Z</time>
      </trkpt>
      <trkpt lat="43.79744" lon="7.1039">
        <ele>941.2</ele>
        <time>2017-03-13T10:35:05Z</time>
      </trkpt>
      <trkpt lat="43.79746" lon="7.10383">
        <ele>941.2</ele>
        <time>2017-03-13T10:35:09Z</time>
      </trkpt>
      <trkpt lat="43.79747" lon="7.10376">
        <ele>939.2</ele>
        <time>2017-03-13T10:35:13Z</time>
      </trkpt>
      <trkpt lat="43.79748" lon="7.10368">
        <ele>938.9</ele>
        <time>2017-03-13T10:35:17Z</time>
      </trkpt>
      <trkpt lat="43.79748" lon="7.10368">
        <ele>934.1</ele>
        <time>2017-03-13T10:35:26Z</time>
      </trkpt>
      <trkpt lat="43.79751" lon="7.10355">
        <ele>937.2</ele>
        <time>2017-03-13T10:35:30Z</time>
      </trkpt>
      <trkpt lat="43.79751" lon="7.10346">
        <ele>936.8</ele>
        <time>2017-03-13T10:35:35Z</time>
      </trkpt>
      <trkpt lat="43.79751" lon="7.10346">
        <ele>929.6</ele>
        <time>2017-03-13T10:35:43Z</time>
      </trkpt>
      <trkpt lat="43.79751" lon="7.10346">
        <ele>929.6</ele>
        <time>2017-03-13T10:35:55Z</time>
      </trkpt>
      <trkpt lat="43.79766" lon="7.10338">
        <ele>934.7</ele>
        <time>2017-03-13T10:35:56Z</time>
      </trkpt>
      <trkpt lat="43.79771" lon="7.1034">
        <ele>934.5</ele>
        <time>2017-03-13T10:36:01Z</time>
      </trkpt>
      <trkpt lat="43.79775" lon="7.10342">
        <ele>934</ele>
        <time>2017-03-13T10:36:07Z</time>
      </trkpt>
      <trkpt lat="43.79775" lon="7.10342">
        <ele>919.7</ele>
        <time>2017-03-13T10:36:18Z</time>
      </trkpt>
      <trkpt lat="43.79789" lon="7.10344">
        <ele>933</ele>
        <time>2017-03-13T10:36:24Z</time>
      </trkpt>
      <trkpt lat="43.79789" lon="7.10344">
        <ele>917.1</ele>
        <time>2017-03-13T10:36:32Z</time>
      </trkpt>
      <trkpt lat="43.79798" lon="7.10352">
        <ele>927.8</ele>
        <time>2017-03-13T10:36:39Z</time>
      </trkpt>
      <trkpt lat="43.79798" lon="7.10352">
        <ele>915.8</ele>
        <time>2017-03-13T10:36:47Z</time>
      </trkpt>
      <trkpt lat="43.79805" lon="7.10357">
        <ele>925.8</ele>
        <time>2017-03-13T10:36:50Z</time>
      </trkpt>
      <trkpt lat="43.7981" lon="7.10357">
        <ele>925.1</ele>
        <time>2017-03-13T10:36:58Z</time>
      </trkpt>
      <trkpt lat="43.7981" lon="7.10357">
        <ele>913.3</ele>
        <time>2017-03-13T10:37:09Z</time>
      </trkpt>
      <trkpt lat="43.7982" lon="7.10359">
        <ele>923.9</ele>
        <time>2017-03-13T10:37:12Z</time>
      </trkpt>
      <trkpt lat="43.7982" lon="7.10359">
        <ele>911.2</ele>
        <time>2017-03-13T10:37:20Z</time>
      </trkpt>
      <trkpt lat="43.79829" lon="7.1036">
        <ele>923</ele>
        <time>2017-03-13T10:37:23Z</time>
      </trkpt>
      <trkpt lat="43.79834" lon="7.10363">
        <ele>923</ele>
        <time>2017-03-13T10:37:27Z</time>
      </trkpt>
      <trkpt lat="43.79834" lon="7.10363">
        <ele>908.3</ele>
        <time>2017-03-13T10:37:36Z</time>
      </trkpt>
      <trkpt lat="43.79846" lon="7.10367">
        <ele>921.2</ele>
        <time>2017-03-13T10:37:38Z</time>
      </trkpt>
      <trkpt lat="43.7985" lon="7.10368">
        <ele>920.7</ele>
        <time>2017-03-13T10:37:44Z</time>
      </trkpt>
      <trkpt lat="43.7985" lon="7.10368">
        <ele>906.9</ele>
        <time>2017-03-13T10:37:55Z</time>
      </trkpt>
      <trkpt lat="43.79862" lon="7.10372">
        <ele>918.6</ele>
        <time>2017-03-13T10:37:56Z</time>
      </trkpt>
      <trkpt lat="43.79866" lon="7.10376">
        <ele>917.8</ele>
        <time>2017-03-13T10:38:03Z</time>
      </trkpt>
      <trkpt lat="43.79869" lon="7.10381">
        <ele>917.6</ele>
        <time>2017-03-13T10:38:08Z</time>
      </trkpt>
      <trkpt lat="43.79869" lon="7.10381">
        <ele>901.2</ele>
        <time>2017-03-13T10:38:17Z</time>
      </trkpt>
      <trkpt lat="43.79879" lon="7.10383">
        <ele>915.7</ele>
        <time>2017-03-13T10:38:20Z</time>
      </trkpt>
      <trkpt lat="43.79883" lon="7.10381">
        <ele>914.4</ele>
        <time>2017-03-13T10:38:25Z</time>
      </trkpt>
      <trkpt lat="43.79889" lon="7.10382">
        <ele>912.8</ele>
        <time>2017-03-13T10:38:31Z</time>
      </trkpt>
      <trkpt lat="43.79899" lon="7.10381">
        <ele>911.5</ele>
        <time>2017-03-13T10:38:39Z</time>
      </trkpt>
      <trkpt lat="43.79903" lon="7.10379">
        <ele>911.2</ele>
        <time>2017-03-13T10:38:45Z</time>
      </trkpt>
      <trkpt lat="43.79903" lon="7.10379">
        <ele>892.2</ele>
        <time>2017-03-13T10:38:54Z</time>
      </trkpt>
      <trkpt lat="43.79913" lon="7.10378">
        <ele>908</ele>
        <time>2017-03-13T10:39:01Z</time>
      </trkpt>
      <trkpt lat="43.79917" lon="7.10377">
        <ele>905.3</ele>
        <time>2017-03-13T10:39:08Z</time>
      </trkpt>
      <trkpt lat="43.79918" lon="7.10377">
        <ele>904.6</ele>
        <time>2017-03-13T10:39:09Z</time>
      </trkpt>
      <trkpt lat="43.79919" lon="7.10376">
        <ele>899.9</ele>
        <time>2017-03-13T10:39:13Z</time>
      </trkpt>
      <trkpt lat="43.79919" lon="7.10376">
        <ele>889.5</ele>
        <time>2017-03-13T10:39:13Z</time>
      </trkpt>
      <trkpt lat="43.79919" lon="7.10376">
        <ele>889.5</ele>
        <time>2017-03-13T10:39:31Z</time>
      </trkpt>
      <trkpt lat="43.7993" lon="7.10374">
        <ele>901.7</ele>
        <time>2017-03-13T10:39:32Z</time>
      </trkpt>
      <trkpt lat="43.79934" lon="7.10372">
        <ele>900.9</ele>
        <time>2017-03-13T10:39:36Z</time>
      </trkpt>
      <trkpt lat="43.79935" lon="7.10372">
        <ele>899.1</ele>
        <time>2017-03-13T10:39:40Z</time>
      </trkpt>
      <trkpt lat="43.79935" lon="7.10372">
        <ele>887.8</ele>
        <time>2017-03-13T10:39:40Z</time>
      </trkpt>
      <trkpt lat="43.79935" lon="7.10372">
        <ele>887.8</ele>
        <time>2017-03-13T10:40:26Z</time>
      </trkpt>
      <trkpt lat="43.7995" lon="7.10366">
        <ele>898.5</ele>
        <time>2017-03-13T10:40:27Z</time>
      </trkpt>
      <trkpt lat="43.7995" lon="7.10366">
        <ele>886.8</ele>
        <time>2017-03-13T10:40:35Z</time>
      </trkpt>
      <trkpt lat="43.79965" lon="7.10365">
        <ele>896.7</ele>
        <time>2017-03-13T10:40:40Z</time>
      </trkpt>
      <trkpt lat="43.79965" lon="7.10365">
        <ele>885.4</ele>
        <time>2017-03-13T10:40:48Z</time>
      </trkpt>
      <trkpt lat="43.79978" lon="7.10365">
        <ele>895.8</ele>
        <time>2017-03-13T10:40:51Z</time>
      </trkpt>
      <trkpt lat="43.79984" lon="7.10363">
        <ele>895.7</ele>
        <time>2017-03-13T10:40:55Z</time>
      </trkpt>
      <trkpt lat="43.79992" lon="7.10359">
        <ele>895.3</ele>
        <time>2017-03-13T10:41:02Z</time>
      </trkpt>
      <trkpt lat="43.8" lon="7.10351">
        <ele>894.1</ele>
        <time>2017-03-13T10:41:08Z</time>
      </trkpt>
      <trkpt lat="43.80005" lon="7.10338">
        <ele>893.7</ele>
        <time>2017-03-13T10:41:15Z</time>
      </trkpt>
      <trkpt lat="43.80005" lon="7.10338">
        <ele>885.3</ele>
        <time>2017-03-13T10:41:23Z</time>
      </trkpt>
      <trkpt lat="43.80006" lon="7.10318">
        <ele>892.7</ele>
        <time>2017-03-13T10:41:26Z</time>
      </trkpt>
      <trkpt lat="43.80005" lon="7.10311">
        <ele>892.3</ele>
        <time>2017-03-13T10:41:29Z</time>
      </trkpt>
      <trkpt lat="43.80004" lon="7.10304">
        <ele>892.3</ele>
        <time>2017-03-13T10:41:32Z</time>
      </trkpt>
      <trkpt lat="43.80004" lon="7.10297">
        <ele>891.8</ele>
        <time>2017-03-13T10:41:36Z</time>
      </trkpt>
      <trkpt lat="43.80004" lon="7.1029">
        <ele>891.1</ele>
        <time>2017-03-13T10:41:41Z</time>
      </trkpt>
      <trkpt lat="43.80003" lon="7.10281">
        <ele>889.9</ele>
        <time>2017-03-13T10:41:45Z</time>
      </trkpt>
      <trkpt lat="43.80003" lon="7.10272">
        <ele>889.9</ele>
        <time>2017-03-13T10:41:49Z</time>
      </trkpt>
      <trkpt lat="43.80002" lon="7.10264">
        <ele>889.3</ele>
        <time>2017-03-13T10:41:52Z</time>
      </trkpt>
      <trkpt lat="43.80001" lon="7.10257">
        <ele>889</ele>
        <time>2017-03-13T10:41:56Z</time>
      </trkpt>
      <trkpt lat="43.8" lon="7.1025">
        <ele>889</ele>
        <time>2017-03-13T10:42:00Z</time>
      </trkpt>
      <trkpt lat="43.8" lon="7.10244">
        <ele>888.7</ele>
        <time>2017-03-13T10:42:04Z</time>
      </trkpt>
      <trkpt lat="43.8" lon="7.10244">
        <ele>887.5</ele>
        <time>2017-03-13T10:42:14Z</time>
      </trkpt>
      <trkpt lat="43.8" lon="7.10244">
        <ele>887.5</ele>
        <time>2017-03-13T10:42:23Z</time>
      </trkpt>
      <trkpt lat="43.79992" lon="7.10204">
        <ele>888.2</ele>
        <time>2017-03-13T10:42:24Z</time>
      </trkpt>
      <trkpt lat="43.79992" lon="7.10197">
        <ele>888.3</ele>
        <time>2017-03-13T10:42:28Z</time>
      </trkpt>
      <trkpt lat="43.79991" lon="7.10191">
        <ele>888.3</ele>
        <time>2017-03-13T10:42:31Z</time>
      </trkpt>
      <trkpt lat="43.79989" lon="7.10184">
        <ele>888.4</ele>
        <time>2017-03-13T10:42:35Z</time>
      </trkpt>
      <trkpt lat="43.79986" lon="7.1017">
        <ele>888.4</ele>
        <time>2017-03-13T10:42:42Z</time>
      </trkpt>
      <trkpt lat="43.79985" lon="7.10157">
        <ele>888.2</ele>
        <time>2017-03-13T10:42:49Z</time>
      </trkpt>
      <trkpt lat="43.79982" lon="7.10143">
        <ele>887.9</ele>
        <time>2017-03-13T10:42:55Z</time>
      </trkpt>
      <trkpt lat="43.79982" lon="7.10136">
        <ele>887.8</ele>
        <time>2017-03-13T10:42:58Z</time>
      </trkpt>
      <trkpt lat="43.79982" lon="7.10129">
        <ele>887.8</ele>
        <time>2017-03-13T10:43:01Z</time>
      </trkpt>
      <trkpt lat="43.7998" lon="7.10123">
        <ele>887.8</ele>
        <time>2017-03-13T10:43:04Z</time>
      </trkpt>
      <trkpt lat="43.7998" lon="7.10116">
        <ele>887.8</ele>
        <time>2017-03-13T10:43:07Z</time>
      </trkpt>
      <trkpt lat="43.79979" lon="7.10109">
        <ele>887.8</ele>
        <time>2017-03-13T10:43:10Z</time>
      </trkpt>
      <trkpt lat="43.79979" lon="7.10109">
        <ele>892</ele>
        <time>2017-03-13T10:43:19Z</time>
      </trkpt>
      <trkpt lat="43.79975" lon="7.10091">
        <ele>887.4</ele>
        <time>2017-03-13T10:43:21Z</time>
      </trkpt>
      <trkpt lat="43.79975" lon="7.10091">
        <ele>890.6</ele>
        <time>2017-03-13T10:43:29Z</time>
      </trkpt>
      <trkpt lat="43.79975" lon="7.10071">
        <ele>887.2</ele>
        <time>2017-03-13T10:43:32Z</time>
      </trkpt>
      <trkpt lat="43.79973" lon="7.10058">
        <ele>887.2</ele>
        <time>2017-03-13T10:43:38Z</time>
      </trkpt>
      <trkpt lat="43.79971" lon="7.10045">
        <ele>887</ele>
        <time>2017-03-13T10:43:44Z</time>
      </trkpt>
      <trkpt lat="43.79969" lon="7.10039">
        <ele>887</ele>
        <time>2017-03-13T10:43:47Z</time>
      </trkpt>
      <trkpt lat="43.79967" lon="7.10032">
        <ele>887</ele>
        <time>2017-03-13T10:43:51Z</time>
      </trkpt>
      <trkpt lat="43.79966" lon="7.10025">
        <ele>887.1</ele>
        <time>2017-03-13T10:43:55Z</time>
      </trkpt>
      <trkpt lat="43.79965" lon="7.10017">
        <ele>887.1</ele>
        <time>2017-03-13T10:43:59Z</time>
      </trkpt>
      <trkpt lat="43.79962" lon="7.09998">
        <ele>887.2</ele>
        <time>2017-03-13T10:44:07Z</time>
      </trkpt>
      <trkpt lat="43.79962" lon="7.09998">
        <ele>887.5</ele>
        <time>2017-03-13T10:44:15Z</time>
      </trkpt>
      <trkpt lat="43.79958" lon="7.0998">
        <ele>887.3</ele>
        <time>2017-03-13T10:44:16Z</time>
      </trkpt>
      <trkpt lat="43.79958" lon="7.0998">
        <ele>888</ele>
        <time>2017-03-13T10:44:24Z</time>
      </trkpt>
      <trkpt lat="43.79953" lon="7.09962">
        <ele>887.7</ele>
        <time>2017-03-13T10:44:25Z</time>
      </trkpt>
      <trkpt lat="43.79953" lon="7.09962">
        <ele>888.6</ele>
        <time>2017-03-13T10:44:33Z</time>
      </trkpt>
      <trkpt lat="43.79951" lon="7.09941">
        <ele>887.8</ele>
        <time>2017-03-13T10:44:35Z</time>
      </trkpt>
      <trkpt lat="43.79949" lon="7.09934">
        <ele>887.8</ele>
        <time>2017-03-13T10:44:39Z</time>
      </trkpt>
      <trkpt lat="43.79948" lon="7.09927">
        <ele>887.9</ele>
        <time>2017-03-13T10:44:43Z</time>
      </trkpt>
      <trkpt lat="43.79947" lon="7.09919">
        <ele>887.9</ele>
        <time>2017-03-13T10:44:47Z</time>
      </trkpt>
      <trkpt lat="43.79944" lon="7.099">
        <ele>888</ele>
        <time>2017-03-13T10:44:56Z</time>
      </trkpt>
      <trkpt lat="43.79943" lon="7.09894">
        <ele>888.1</ele>
        <time>2017-03-13T10:45:00Z</time>
      </trkpt>
      <trkpt lat="43.79941" lon="7.09881">
        <ele>888.1</ele>
        <time>2017-03-13T10:45:06Z</time>
      </trkpt>
      <trkpt lat="43.79939" lon="7.09872">
        <ele>888.1</ele>
        <time>2017-03-13T10:45:10Z</time>
      </trkpt>
      <trkpt lat="43.7994" lon="7.09865">
        <ele>888.1</ele>
        <time>2017-03-13T10:45:14Z</time>
      </trkpt>
      <trkpt lat="43.79941" lon="7.09857">
        <ele>888.2</ele>
        <time>2017-03-13T10:45:17Z</time>
      </trkpt>
      <trkpt lat="43.7994" lon="7.09848">
        <ele>888.2</ele>
        <time>2017-03-13T10:45:20Z</time>
      </trkpt>
      <trkpt lat="43.7994" lon="7.09841">
        <ele>888.3</ele>
        <time>2017-03-13T10:45:23Z</time>
      </trkpt>
      <trkpt lat="43.79943" lon="7.09835">
        <ele>888.3</ele>
        <time>2017-03-13T10:45:27Z</time>
      </trkpt>
      <trkpt lat="43.79944" lon="7.09827">
        <ele>888.5</ele>
        <time>2017-03-13T10:45:31Z</time>
      </trkpt>
      <trkpt lat="43.79945" lon="7.09817">
        <ele>888.5</ele>
        <time>2017-03-13T10:45:36Z</time>
      </trkpt>
      <trkpt lat="43.79944" lon="7.09806">
        <ele>888.5</ele>
        <time>2017-03-13T10:45:40Z</time>
      </trkpt>
      <trkpt lat="43.79944" lon="7.09793">
        <ele>888.3</ele>
        <time>2017-03-13T10:45:46Z</time>
      </trkpt>
      <trkpt lat="43.79947" lon="7.09781">
        <ele>888.3</ele>
        <time>2017-03-13T10:45:52Z</time>
      </trkpt>
      <trkpt lat="43.79948" lon="7.09774">
        <ele>888.2</ele>
        <time>2017-03-13T10:45:56Z</time>
      </trkpt>
      <trkpt lat="43.79952" lon="7.09761">
        <ele>888.1</ele>
        <time>2017-03-13T10:46:03Z</time>
      </trkpt>
      <trkpt lat="43.79954" lon="7.09753">
        <ele>888.1</ele>
        <time>2017-03-13T10:46:07Z</time>
      </trkpt>
      <trkpt lat="43.79958" lon="7.09733">
        <ele>888</ele>
        <time>2017-03-13T10:46:17Z</time>
      </trkpt>
      <trkpt lat="43.79963" lon="7.09721">
        <ele>885.6</ele>
        <time>2017-03-13T10:46:24Z</time>
      </trkpt>
      <trkpt lat="43.79967" lon="7.0971">
        <ele>883.8</ele>
        <time>2017-03-13T10:46:30Z</time>
      </trkpt>
      <trkpt lat="43.79971" lon="7.09692">
        <ele>882.6</ele>
        <time>2017-03-13T10:46:39Z</time>
      </trkpt>
      <trkpt lat="43.79972" lon="7.09679">
        <ele>881.9</ele>
        <time>2017-03-13T10:46:44Z</time>
      </trkpt>
      <trkpt lat="43.79972" lon="7.09679">
        <ele>884.6</ele>
        <time>2017-03-13T10:46:54Z</time>
      </trkpt>
      <trkpt lat="43.79975" lon="7.09659">
        <ele>881.6</ele>
        <time>2017-03-13T10:46:55Z</time>
      </trkpt>
      <trkpt lat="43.79975" lon="7.09659">
        <ele>884.7</ele>
        <time>2017-03-13T10:47:03Z</time>
      </trkpt>
      <trkpt lat="43.79977" lon="7.0964">
        <ele>881.1</ele>
        <time>2017-03-13T10:47:05Z</time>
      </trkpt>
      <trkpt lat="43.79977" lon="7.09621">
        <ele>880.8</ele>
        <time>2017-03-13T10:47:13Z</time>
      </trkpt>
      <trkpt lat="43.79978" lon="7.09608">
        <ele>880.5</ele>
        <time>2017-03-13T10:47:19Z</time>
      </trkpt>
      <trkpt lat="43.79978" lon="7.09595">
        <ele>880.1</ele>
        <time>2017-03-13T10:47:24Z</time>
      </trkpt>
      <trkpt lat="43.7998" lon="7.09582">
        <ele>880</ele>
        <time>2017-03-13T10:47:31Z</time>
      </trkpt>
      <trkpt lat="43.79986" lon="7.09564">
        <ele>880</ele>
        <time>2017-03-13T10:47:40Z</time>
      </trkpt>
      <trkpt lat="43.79989" lon="7.09559">
        <ele>880</ele>
        <time>2017-03-13T10:47:43Z</time>
      </trkpt>
      <trkpt lat="43.79994" lon="7.09554">
        <ele>880</ele>
        <time>2017-03-13T10:47:47Z</time>
      </trkpt>
      <trkpt lat="43.80001" lon="7.09545">
        <ele>880.1</ele>
        <time>2017-03-13T10:47:53Z</time>
      </trkpt>
      <trkpt lat="43.8001" lon="7.09538">
        <ele>880.7</ele>
        <time>2017-03-13T10:48:01Z</time>
      </trkpt>
      <trkpt lat="43.80014" lon="7.09534">
        <ele>881.1</ele>
        <time>2017-03-13T10:48:04Z</time>
      </trkpt>
      <trkpt lat="43.80018" lon="7.0953">
        <ele>881.1</ele>
        <time>2017-03-13T10:48:07Z</time>
      </trkpt>
      <trkpt lat="43.8003" lon="7.09518">
        <ele>881.2</ele>
        <time>2017-03-13T10:48:16Z</time>
      </trkpt>
      <trkpt lat="43.8004" lon="7.09505">
        <ele>881.2</ele>
        <time>2017-03-13T10:48:24Z</time>
      </trkpt>
      <trkpt lat="43.80044" lon="7.09499">
        <ele>881.2</ele>
        <time>2017-03-13T10:48:28Z</time>
      </trkpt>
      <trkpt lat="43.8005" lon="7.09489">
        <ele>881.2</ele>
        <time>2017-03-13T10:48:34Z</time>
      </trkpt>
      <trkpt lat="43.80056" lon="7.09477">
        <ele>880.8</ele>
        <time>2017-03-13T10:48:41Z</time>
      </trkpt>
      <trkpt lat="43.80058" lon="7.0947">
        <ele>880.5</ele>
        <time>2017-03-13T10:48:45Z</time>
      </trkpt>
      <trkpt lat="43.80059" lon="7.09467">
        <ele>880.3</ele>
        <time>2017-03-13T10:48:47Z</time>
      </trkpt>
      <trkpt lat="43.80058" lon="7.09469">
        <ele>877.8</ele>
        <time>2017-03-13T10:48:51Z</time>
      </trkpt>
      <trkpt lat="43.80058" lon="7.09469">
        <ele>876.9</ele>
        <time>2017-03-13T10:48:51Z</time>
      </trkpt>
      <trkpt lat="43.80058" lon="7.09469">
        <ele>876.9</ele>
        <time>2017-03-13T10:50:15Z</time>
      </trkpt>
      <trkpt lat="43.80062" lon="7.09453">
        <ele>879.1</ele>
        <time>2017-03-13T10:50:16Z</time>
      </trkpt>
      <trkpt lat="43.80062" lon="7.09453">
        <ele>878.1</ele>
        <time>2017-03-13T10:50:24Z</time>
      </trkpt>
      <trkpt lat="43.80069" lon="7.09436">
        <ele>876.8</ele>
        <time>2017-03-13T10:50:26Z</time>
      </trkpt>
      <trkpt lat="43.80069" lon="7.09436">
        <ele>878.2</ele>
        <time>2017-03-13T10:50:35Z</time>
      </trkpt>
      <trkpt lat="43.80071" lon="7.09416">
        <ele>876.1</ele>
        <time>2017-03-13T10:50:36Z</time>
      </trkpt>
      <trkpt lat="43.80073" lon="7.0941">
        <ele>876.1</ele>
        <time>2017-03-13T10:50:40Z</time>
      </trkpt>
      <trkpt lat="43.80077" lon="7.09398">
        <ele>876</ele>
        <time>2017-03-13T10:50:48Z</time>
      </trkpt>
      <trkpt lat="43.80077" lon="7.09398">
        <ele>878.8</ele>
        <time>2017-03-13T10:50:56Z</time>
      </trkpt>
      <trkpt lat="43.80076" lon="7.09378">
        <ele>875.9</ele>
        <time>2017-03-13T10:50:57Z</time>
      </trkpt>
      <trkpt lat="43.80075" lon="7.09365">
        <ele>875.8</ele>
        <time>2017-03-13T10:51:02Z</time>
      </trkpt>
      <trkpt lat="43.80075" lon="7.09365">
        <ele>881.8</ele>
        <time>2017-03-13T10:51:11Z</time>
      </trkpt>
      <trkpt lat="43.80075" lon="7.09344">
        <ele>875.9</ele>
        <time>2017-03-13T10:51:13Z</time>
      </trkpt>
      <trkpt lat="43.80074" lon="7.09332">
        <ele>876.1</ele>
        <time>2017-03-13T10:51:19Z</time>
      </trkpt>
      <trkpt lat="43.80074" lon="7.09324">
        <ele>876.4</ele>
        <time>2017-03-13T10:51:25Z</time>
      </trkpt>
      <trkpt lat="43.80071" lon="7.09311">
        <ele>876.6</ele>
        <time>2017-03-13T10:51:30Z</time>
      </trkpt>
      <trkpt lat="43.80068" lon="7.09298">
        <ele>877.4</ele>
        <time>2017-03-13T10:51:37Z</time>
      </trkpt>
      <trkpt lat="43.80068" lon="7.09298">
        <ele>884.7</ele>
        <time>2017-03-13T10:51:45Z</time>
      </trkpt>
      <trkpt lat="43.80061" lon="7.09277">
        <ele>878.3</ele>
        <time>2017-03-13T10:51:50Z</time>
      </trkpt>
      <trkpt lat="43.80057" lon="7.09259">
        <ele>879</ele>
        <time>2017-03-13T10:51:59Z</time>
      </trkpt>
      <trkpt lat="43.80057" lon="7.09259">
        <ele>887.9</ele>
        <time>2017-03-13T10:52:07Z</time>
      </trkpt>
      <trkpt lat="43.8005" lon="7.0924">
        <ele>879.8</ele>
        <time>2017-03-13T10:52:09Z</time>
      </trkpt>
      <trkpt lat="43.80049" lon="7.09234">
        <ele>879.8</ele>
        <time>2017-03-13T10:52:12Z</time>
      </trkpt>
      <trkpt lat="43.80045" lon="7.09219">
        <ele>880</ele>
        <time>2017-03-13T10:52:19Z</time>
      </trkpt>
      <trkpt lat="43.80045" lon="7.09219">
        <ele>891.4</ele>
        <time>2017-03-13T10:52:28Z</time>
      </trkpt>
      <trkpt lat="43.8004" lon="7.09202">
        <ele>880.7</ele>
        <time>2017-03-13T10:52:30Z</time>
      </trkpt>
      <trkpt lat="43.80036" lon="7.09189">
        <ele>881.2</ele>
        <time>2017-03-13T10:52:37Z</time>
      </trkpt>
      <trkpt lat="43.80036" lon="7.09189">
        <ele>893.5</ele>
        <time>2017-03-13T10:52:45Z</time>
      </trkpt>
      <trkpt lat="43.80031" lon="7.09173">
        <ele>882.2</ele>
        <time>2017-03-13T10:52:46Z</time>
      </trkpt>
      <trkpt lat="43.80032" lon="7.09167">
        <ele>882.3</ele>
        <time>2017-03-13T10:52:50Z</time>
      </trkpt>
      <trkpt lat="43.8003" lon="7.09159">
        <ele>882.3</ele>
        <time>2017-03-13T10:52:53Z</time>
      </trkpt>
      <trkpt lat="43.80028" lon="7.09153">
        <ele>882.5</ele>
        <time>2017-03-13T10:52:56Z</time>
      </trkpt>
      <trkpt lat="43.80028" lon="7.09146">
        <ele>882.5</ele>
        <time>2017-03-13T10:53:00Z</time>
      </trkpt>
      <trkpt lat="43.80026" lon="7.0914">
        <ele>883.3</ele>
        <time>2017-03-13T10:53:04Z</time>
      </trkpt>
      <trkpt lat="43.80018" lon="7.09133">
        <ele>884.1</ele>
        <time>2017-03-13T10:53:10Z</time>
      </trkpt>
      <trkpt lat="43.80015" lon="7.09125">
        <ele>884.3</ele>
        <time>2017-03-13T10:53:15Z</time>
      </trkpt>
      <trkpt lat="43.8001" lon="7.09115">
        <ele>885.3</ele>
        <time>2017-03-13T10:53:20Z</time>
      </trkpt>
      <trkpt lat="43.8001" lon="7.09115">
        <ele>900.3</ele>
        <time>2017-03-13T10:53:28Z</time>
      </trkpt>
      <trkpt lat="43.80005" lon="7.09097">
        <ele>886.3</ele>
        <time>2017-03-13T10:53:30Z</time>
      </trkpt>
      <trkpt lat="43.80003" lon="7.09083">
        <ele>886.8</ele>
        <time>2017-03-13T10:53:37Z</time>
      </trkpt>
      <trkpt lat="43.79999" lon="7.09066">
        <ele>887.6</ele>
        <time>2017-03-13T10:53:46Z</time>
      </trkpt>
      <trkpt lat="43.79998" lon="7.09059">
        <ele>888.1</ele>
        <time>2017-03-13T10:53:49Z</time>
      </trkpt>
      <trkpt lat="43.79994" lon="7.09054">
        <ele>888.1</ele>
        <time>2017-03-13T10:53:53Z</time>
      </trkpt>
      <trkpt lat="43.79992" lon="7.09047">
        <ele>888.4</ele>
        <time>2017-03-13T10:53:56Z</time>
      </trkpt>
      <trkpt lat="43.7999" lon="7.09039">
        <ele>888.8</ele>
        <time>2017-03-13T10:53:59Z</time>
      </trkpt>
      <trkpt lat="43.79987" lon="7.09034">
        <ele>889.1</ele>
        <time>2017-03-13T10:54:03Z</time>
      </trkpt>
      <trkpt lat="43.79982" lon="7.09034">
        <ele>890.9</ele>
        <time>2017-03-13T10:54:09Z</time>
      </trkpt>
      <trkpt lat="43.79978" lon="7.09029">
        <ele>890.9</ele>
        <time>2017-03-13T10:54:13Z</time>
      </trkpt>
      <trkpt lat="43.79978" lon="7.09022">
        <ele>892.1</ele>
        <time>2017-03-13T10:54:18Z</time>
      </trkpt>
      <trkpt lat="43.79975" lon="7.09012">
        <ele>892.9</ele>
        <time>2017-03-13T10:54:25Z</time>
      </trkpt>
      <trkpt lat="43.79973" lon="7.09007">
        <ele>893.6</ele>
        <time>2017-03-13T10:54:30Z</time>
      </trkpt>
      <trkpt lat="43.79968" lon="7.09002">
        <ele>893.8</ele>
        <time>2017-03-13T10:54:35Z</time>
      </trkpt>
      <trkpt lat="43.79962" lon="7.08999">
        <ele>895.9</ele>
        <time>2017-03-13T10:54:39Z</time>
      </trkpt>
      <trkpt lat="43.79957" lon="7.08988">
        <ele>897.5</ele>
        <time>2017-03-13T10:54:49Z</time>
      </trkpt>
      <trkpt lat="43.79953" lon="7.08984">
        <ele>897.7</ele>
        <time>2017-03-13T10:54:56Z</time>
      </trkpt>
      <trkpt lat="43.79953" lon="7.08984">
        <ele>897.7</ele>
        <time>2017-03-13T10:54:57Z</time>
      </trkpt>
      <trkpt lat="43.79953" lon="7.08984">
        <ele>907.8</ele>
        <time>2017-03-13T10:54:58Z</time>
      </trkpt>
      <trkpt lat="43.79953" lon="7.08984">
        <ele>907.8</ele>
        <time>2017-03-13T10:55:13Z</time>
      </trkpt>
      <trkpt lat="43.79942" lon="7.08962">
        <ele>899</ele>
        <time>2017-03-13T10:55:18Z</time>
      </trkpt>
      <trkpt lat="43.79943" lon="7.08955">
        <ele>899.3</ele>
        <time>2017-03-13T10:55:25Z</time>
      </trkpt>
      <trkpt lat="43.79941" lon="7.08945">
        <ele>900</ele>
        <time>2017-03-13T10:55:31Z</time>
      </trkpt>
      <trkpt lat="43.79941" lon="7.08938">
        <ele>900.1</ele>
        <time>2017-03-13T10:55:35Z</time>
      </trkpt>
      <trkpt lat="43.79941" lon="7.08938">
        <ele>910.9</ele>
        <time>2017-03-13T10:55:47Z</time>
      </trkpt>
      <trkpt lat="43.79934" lon="7.08919">
        <ele>901.9</ele>
        <time>2017-03-13T10:55:54Z</time>
      </trkpt>
      <trkpt lat="43.79934" lon="7.08919">
        <ele>912.5</ele>
        <time>2017-03-13T10:56:02Z</time>
      </trkpt>
      <trkpt lat="43.7993" lon="7.08903">
        <ele>902.6</ele>
        <time>2017-03-13T10:56:04Z</time>
      </trkpt>
      <trkpt lat="43.7993" lon="7.08903">
        <ele>914.4</ele>
        <time>2017-03-13T10:56:12Z</time>
      </trkpt>
      <trkpt lat="43.79926" lon="7.0889">
        <ele>904.1</ele>
        <time>2017-03-13T10:56:15Z</time>
      </trkpt>
      <trkpt lat="43.79924" lon="7.08883">
        <ele>904.6</ele>
        <time>2017-03-13T10:56:20Z</time>
      </trkpt>
      <trkpt lat="43.7992" lon="7.0888">
        <ele>905.2</ele>
        <time>2017-03-13T10:56:24Z</time>
      </trkpt>
      <trkpt lat="43.79919" lon="7.08874">
        <ele>905.8</ele>
        <time>2017-03-13T10:56:28Z</time>
      </trkpt>
      <trkpt lat="43.79916" lon="7.08869">
        <ele>905.8</ele>
        <time>2017-03-13T10:56:31Z</time>
      </trkpt>
      <trkpt lat="43.79916" lon="7.08869">
        <ele>919.2</ele>
        <time>2017-03-13T10:56:40Z</time>
      </trkpt>
      <trkpt lat="43.79906" lon="7.08852">
        <ele>908.8</ele>
        <time>2017-03-13T10:56:49Z</time>
      </trkpt>
      <trkpt lat="43.79905" lon="7.08846">
        <ele>910.4</ele>
        <time>2017-03-13T10:56:54Z</time>
      </trkpt>
      <trkpt lat="43.799" lon="7.08842">
        <ele>910.7</ele>
        <time>2017-03-13T10:56:58Z</time>
      </trkpt>
      <trkpt lat="43.79897" lon="7.08838">
        <ele>910.7</ele>
        <time>2017-03-13T10:57:02Z</time>
      </trkpt>
      <trkpt lat="43.79893" lon="7.08834">
        <ele>911.6</ele>
        <time>2017-03-13T10:57:06Z</time>
      </trkpt>
      <trkpt lat="43.7989" lon="7.08827">
        <ele>912.3</ele>
        <time>2017-03-13T10:57:12Z</time>
      </trkpt>
      <trkpt lat="43.79886" lon="7.08823">
        <ele>912.3</ele>
        <time>2017-03-13T10:57:16Z</time>
      </trkpt>
      <trkpt lat="43.79882" lon="7.0882">
        <ele>913</ele>
        <time>2017-03-13T10:57:20Z</time>
      </trkpt>
      <trkpt lat="43.7988" lon="7.08814">
        <ele>913.7</ele>
        <time>2017-03-13T10:57:25Z</time>
      </trkpt>
      <trkpt lat="43.79875" lon="7.08812">
        <ele>914.6</ele>
        <time>2017-03-13T10:57:30Z</time>
      </trkpt>
      <trkpt lat="43.79873" lon="7.08804">
        <ele>914.9</ele>
        <time>2017-03-13T10:57:35Z</time>
      </trkpt>
      <trkpt lat="43.79871" lon="7.08798">
        <ele>916</ele>
        <time>2017-03-13T10:57:39Z</time>
      </trkpt>
      <trkpt lat="43.79871" lon="7.08798">
        <ele>931</ele>
        <time>2017-03-13T10:57:48Z</time>
      </trkpt>
      <trkpt lat="43.79864" lon="7.08779">
        <ele>918.4</ele>
        <time>2017-03-13T10:57:54Z</time>
      </trkpt>
      <trkpt lat="43.79864" lon="7.08779">
        <ele>932</ele>
        <time>2017-03-13T10:58:04Z</time>
      </trkpt>
      <trkpt lat="43.79861" lon="7.08762">
        <ele>919.4</ele>
        <time>2017-03-13T10:58:06Z</time>
      </trkpt>
      <trkpt lat="43.7986" lon="7.08755">
        <ele>919.5</ele>
        <time>2017-03-13T10:58:11Z</time>
      </trkpt>
      <trkpt lat="43.7986" lon="7.08755">
        <ele>933.6</ele>
        <time>2017-03-13T10:58:20Z</time>
      </trkpt>
      <trkpt lat="43.79852" lon="7.08739">
        <ele>920.9</ele>
        <time>2017-03-13T10:58:25Z</time>
      </trkpt>
      <trkpt lat="43.79851" lon="7.08732">
        <ele>921.2</ele>
        <time>2017-03-13T10:58:28Z</time>
      </trkpt>
      <trkpt lat="43.79851" lon="7.08725">
        <ele>921.7</ele>
        <time>2017-03-13T10:58:32Z</time>
      </trkpt>
      <trkpt lat="43.7985" lon="7.08719">
        <ele>922.1</ele>
        <time>2017-03-13T10:58:35Z</time>
      </trkpt>
      <trkpt lat="43.79848" lon="7.08713">
        <ele>922.1</ele>
        <time>2017-03-13T10:58:39Z</time>
      </trkpt>
      <trkpt lat="43.79848" lon="7.08713">
        <ele>936.8</ele>
        <time>2017-03-13T10:58:47Z</time>
      </trkpt>
      <trkpt lat="43.79839" lon="7.08694">
        <ele>923.7</ele>
        <time>2017-03-13T10:58:55Z</time>
      </trkpt>
      <trkpt lat="43.79839" lon="7.08688">
        <ele>924.1</ele>
        <time>2017-03-13T10:58:58Z</time>
      </trkpt>
      <trkpt lat="43.79838" lon="7.08681">
        <ele>924.8</ele>
        <time>2017-03-13T10:59:03Z</time>
      </trkpt>
      <trkpt lat="43.79836" lon="7.08675">
        <ele>926.5</ele>
        <time>2017-03-13T10:59:07Z</time>
      </trkpt>
      <trkpt lat="43.79836" lon="7.08675">
        <ele>938.7</ele>
        <time>2017-03-13T10:59:18Z</time>
      </trkpt>
      <trkpt lat="43.79832" lon="7.08652">
        <ele>928.8</ele>
        <time>2017-03-13T10:59:22Z</time>
      </trkpt>
      <trkpt lat="43.79826" lon="7.0865">
        <ele>929.2</ele>
        <time>2017-03-13T10:59:28Z</time>
      </trkpt>
      <trkpt lat="43.79823" lon="7.08643">
        <ele>929.2</ele>
        <time>2017-03-13T10:59:32Z</time>
      </trkpt>
      <trkpt lat="43.79819" lon="7.08635">
        <ele>929.7</ele>
        <time>2017-03-13T10:59:38Z</time>
      </trkpt>
      <trkpt lat="43.79819" lon="7.08635">
        <ele>942.4</ele>
        <time>2017-03-13T10:59:46Z</time>
      </trkpt>
      <trkpt lat="43.79814" lon="7.08617">
        <ele>931.6</ele>
        <time>2017-03-13T10:59:48Z</time>
      </trkpt>
      <trkpt lat="43.79814" lon="7.08617">
        <ele>943.1</ele>
        <time>2017-03-13T10:59:56Z</time>
      </trkpt>
      <trkpt lat="43.79809" lon="7.08599">
        <ele>933.4</ele>
        <time>2017-03-13T11:00:01Z</time>
      </trkpt>
      <trkpt lat="43.7981" lon="7.08591">
        <ele>933.6</ele>
        <time>2017-03-13T11:00:07Z</time>
      </trkpt>
      <trkpt lat="43.7981" lon="7.08585">
        <ele>933.8</ele>
        <time>2017-03-13T11:00:13Z</time>
      </trkpt>
      <trkpt lat="43.79808" lon="7.0858">
        <ele>934.2</ele>
        <time>2017-03-13T11:00:16Z</time>
      </trkpt>
      <trkpt lat="43.79807" lon="7.08576">
        <ele>936.6</ele>
        <time>2017-03-13T11:00:20Z</time>
      </trkpt>
      <trkpt lat="43.79807" lon="7.08576">
        <ele>943.8</ele>
        <time>2017-03-13T11:00:20Z</time>
      </trkpt>
      <trkpt lat="43.79807" lon="7.08576">
        <ele>943.8</ele>
        <time>2017-03-13T11:00:31Z</time>
      </trkpt>
      <trkpt lat="43.79804" lon="7.08561">
        <ele>935.2</ele>
        <time>2017-03-13T11:00:32Z</time>
      </trkpt>
      <trkpt lat="43.79802" lon="7.08548">
        <ele>935.9</ele>
        <time>2017-03-13T11:00:38Z</time>
      </trkpt>
      <trkpt lat="43.79798" lon="7.08543">
        <ele>936.3</ele>
        <time>2017-03-13T11:00:41Z</time>
      </trkpt>
      <trkpt lat="43.79795" lon="7.08538">
        <ele>936.3</ele>
        <time>2017-03-13T11:00:45Z</time>
      </trkpt>
      <trkpt lat="43.79795" lon="7.08538">
        <ele>947.3</ele>
        <time>2017-03-13T11:00:54Z</time>
      </trkpt>
      <trkpt lat="43.79792" lon="7.08519">
        <ele>937.2</ele>
        <time>2017-03-13T11:00:55Z</time>
      </trkpt>
      <trkpt lat="43.79792" lon="7.08519">
        <ele>948.5</ele>
        <time>2017-03-13T11:01:04Z</time>
      </trkpt>
      <trkpt lat="43.79784" lon="7.08508">
        <ele>937.7</ele>
        <time>2017-03-13T11:01:07Z</time>
      </trkpt>
      <trkpt lat="43.79784" lon="7.08508">
        <ele>949.9</ele>
        <time>2017-03-13T11:01:16Z</time>
      </trkpt>
      <trkpt lat="43.79784" lon="7.08508">
        <ele>949.9</ele>
        <time>2017-03-13T11:01:27Z</time>
      </trkpt>
      <trkpt lat="43.7977" lon="7.08489">
        <ele>941</ele>
        <time>2017-03-13T11:01:28Z</time>
      </trkpt>
      <trkpt lat="43.79767" lon="7.08483">
        <ele>941.3</ele>
        <time>2017-03-13T11:01:33Z</time>
      </trkpt>
      <trkpt lat="43.79764" lon="7.08478">
        <ele>941.9</ele>
        <time>2017-03-13T11:01:39Z</time>
      </trkpt>
      <trkpt lat="43.79763" lon="7.08478">
        <ele>942.2</ele>
        <time>2017-03-13T11:01:40Z</time>
      </trkpt>
      <trkpt lat="43.79763" lon="7.08478">
        <ele>944.2</ele>
        <time>2017-03-13T11:01:42Z</time>
      </trkpt>
      <trkpt lat="43.79763" lon="7.08478">
        <ele>954.7</ele>
        <time>2017-03-13T11:01:42Z</time>
      </trkpt>
      <trkpt lat="43.79763" lon="7.08478">
        <ele>954.7</ele>
        <time>2017-03-13T11:02:09Z</time>
      </trkpt>
      <trkpt lat="43.79752" lon="7.08469">
        <ele>944.6</ele>
        <time>2017-03-13T11:02:10Z</time>
      </trkpt>
      <trkpt lat="43.79752" lon="7.08469">
        <ele>956.5</ele>
        <time>2017-03-13T11:02:20Z</time>
      </trkpt>
      <trkpt lat="43.79745" lon="7.08452">
        <ele>946.6</ele>
        <time>2017-03-13T11:02:22Z</time>
      </trkpt>
      <trkpt lat="43.79745" lon="7.08452">
        <ele>955.9</ele>
        <time>2017-03-13T11:02:31Z</time>
      </trkpt>
      <trkpt lat="43.79738" lon="7.08435">
        <ele>951</ele>
        <time>2017-03-13T11:02:35Z</time>
      </trkpt>
      <trkpt lat="43.79737" lon="7.08428">
        <ele>951</ele>
        <time>2017-03-13T11:02:39Z</time>
      </trkpt>
      <trkpt lat="43.79736" lon="7.08419">
        <ele>951.6</ele>
        <time>2017-03-13T11:02:42Z</time>
      </trkpt>
      <trkpt lat="43.79735" lon="7.08412">
        <ele>951.6</ele>
        <time>2017-03-13T11:02:45Z</time>
      </trkpt>
      <trkpt lat="43.7973" lon="7.08398">
        <ele>952.1</ele>
        <time>2017-03-13T11:02:53Z</time>
      </trkpt>
      <trkpt lat="43.79731" lon="7.0839">
        <ele>952.1</ele>
        <time>2017-03-13T11:02:57Z</time>
      </trkpt>
      <trkpt lat="43.79734" lon="7.08385">
        <ele>952.2</ele>
        <time>2017-03-13T11:03:01Z</time>
      </trkpt>
      <trkpt lat="43.79738" lon="7.08382">
        <ele>952.2</ele>
        <time>2017-03-13T11:03:05Z</time>
      </trkpt>
      <trkpt lat="43.79741" lon="7.08381">
        <ele>952.3</ele>
        <time>2017-03-13T11:03:08Z</time>
      </trkpt>
      <trkpt lat="43.79741" lon="7.08381">
        <ele>952.8</ele>
        <time>2017-03-13T11:03:12Z</time>
      </trkpt>
      <trkpt lat="43.79741" lon="7.08381">
        <ele>952.3</ele>
        <time>2017-03-13T11:03:12Z</time>
      </trkpt>
      <trkpt lat="43.79741" lon="7.08381">
        <ele>952.3</ele>
        <time>2017-03-13T11:04:09Z</time>
      </trkpt>
    </trkseg>
  </trk>
</gpx>